1000 dernières valeurs brutes
Date Temp Humidity Gust Pressure Rain
06 mai 09:55 10.2°C 97% 0.0 km/h N 1008.9 hPa 16.5 mm
06 mai 09:54 10.2°C 97% 0.0 km/h N 1008.9 hPa 16.5 mm
06 mai 09:53 10.2°C 97% 0.0 km/h N 1008.9 hPa 16.5 mm
06 mai 09:52 10.2°C 97% 0.0 km/h N 1008.9 hPa 16.5 mm
06 mai 09:51 10.2°C 97% 0.0 km/h N 1008.9 hPa 16.5 mm
06 mai 09:50 10.2°C 97% 0.0 km/h N 1008.9 hPa 16.5 mm
06 mai 09:49 10.2°C 97% 0.0 km/h N 1008.8 hPa 16.2 mm
06 mai 09:48 10.2°C 97% 0.0 km/h N 1008.8 hPa 16.2 mm
06 mai 09:47 10.2°C 97% 0.0 km/h N 1008.8 hPa 16.2 mm
06 mai 09:46 10.2°C 97% 0.0 km/h N 1008.8 hPa 16.2 mm
06 mai 09:45 10.2°C 97% 0.0 km/h N 1008.8 hPa 16.2 mm
06 mai 09:44 10.2°C 97% 0.0 km/h N 1008.8 hPa 16.2 mm
06 mai 09:43 10.2°C 97% 0.0 km/h N 1008.8 hPa 16.2 mm
06 mai 09:42 10.2°C 97% 0.0 km/h N 1008.8 hPa 16.2 mm
06 mai 09:41 10.2°C 97% 0.0 km/h N 1008.8 hPa 16.2 mm
06 mai 09:40 10.2°C 97% 0.0 km/h N 1008.8 hPa 16.2 mm
06 mai 09:39 10.2°C 97% 0.0 km/h N 1008.6 hPa 15.5 mm
06 mai 09:38 10.2°C 97% 0.0 km/h N 1008.6 hPa 15.5 mm
06 mai 09:37 10.2°C 97% 0.0 km/h N 1008.6 hPa 15.5 mm
06 mai 09:36 10.2°C 97% 0.0 km/h N 1008.6 hPa 15.5 mm
06 mai 09:35 10.2°C 97% 0.0 km/h N 1008.6 hPa 15.5 mm
06 mai 09:34 10.2°C 97% 0.0 km/h N 1008.6 hPa 15.5 mm
06 mai 09:33 10.2°C 97% 0.0 km/h N 1008.6 hPa 15.5 mm
06 mai 09:32 10.2°C 97% 0.0 km/h N 1008.6 hPa 15.5 mm
06 mai 09:31 10.2°C 97% 0.0 km/h N 1008.6 hPa 15.5 mm
06 mai 09:30 10.2°C 97% 0.0 km/h N 1008.6 hPa 15.5 mm
06 mai 09:29 10.2°C 97% 0.0 km/h N 1008.6 hPa 15.5 mm
06 mai 09:28 10.3°C 97% 0.0 km/h N 1008.4 hPa 15.2 mm
06 mai 09:27 10.3°C 97% 0.0 km/h N 1008.4 hPa 15.2 mm
06 mai 09:26 10.3°C 97% 0.0 km/h N 1008.4 hPa 15.2 mm
06 mai 09:25 10.3°C 97% 0.0 km/h N 1008.4 hPa 15.2 mm
06 mai 09:24 10.3°C 97% 0.0 km/h N 1008.4 hPa 15.2 mm
06 mai 09:23 10.3°C 97% 0.0 km/h N 1008.4 hPa 15.2 mm
06 mai 09:22 10.3°C 97% 0.0 km/h N 1008.4 hPa 15.2 mm
06 mai 09:21 10.3°C 97% 0.0 km/h N 1008.4 hPa 15.2 mm
06 mai 09:20 10.3°C 97% 0.0 km/h N 1008.4 hPa 15.2 mm
06 mai 09:19 10.3°C 97% 0.0 km/h N 1008.4 hPa 15.2 mm
06 mai 09:18 10.3°C 97% 0.0 km/h N 1008.1 hPa 14.9 mm
06 mai 09:17 10.3°C 97% 0.0 km/h N 1008.1 hPa 14.9 mm
06 mai 09:16 10.3°C 97% 0.0 km/h N 1008.1 hPa 14.9 mm
06 mai 09:15 10.3°C 97% 0.0 km/h N 1008.1 hPa 14.9 mm
06 mai 09:14 10.3°C 97% 0.0 km/h N 1008.1 hPa 14.9 mm
06 mai 09:13 10.3°C 97% 0.0 km/h N 1008.1 hPa 14.9 mm
06 mai 09:12 10.3°C 97% 0.0 km/h N 1008.1 hPa 14.9 mm
06 mai 09:11 10.3°C 97% 0.0 km/h N 1008.1 hPa 14.9 mm
06 mai 09:10 10.3°C 97% 0.0 km/h N 1008.1 hPa 14.9 mm
06 mai 09:09 10.3°C 97% 0.0 km/h N 1008.1 hPa 14.9 mm
06 mai 09:08 10.2°C 97% 0.0 km/h N 1008.0 hPa 14.7 mm
06 mai 09:07 10.2°C 97% 0.0 km/h N 1008.0 hPa 14.7 mm
06 mai 09:06 10.2°C 97% 0.0 km/h N 1008.0 hPa 14.7 mm
06 mai 09:05 10.2°C 97% 0.0 km/h N 1008.0 hPa 14.7 mm
06 mai 09:04 10.2°C 97% 0.0 km/h N 1008.0 hPa 14.7 mm
06 mai 09:03 10.2°C 97% 0.0 km/h N 1008.0 hPa 14.7 mm
06 mai 09:02 10.2°C 97% 0.0 km/h N 1008.0 hPa 14.7 mm
06 mai 09:01 10.2°C 97% 0.0 km/h N 1008.0 hPa 14.7 mm
06 mai 08:59 10.2°C 97% 0.0 km/h N 1008.0 hPa 14.7 mm
06 mai 08:58 10.2°C 97% 0.0 km/h N 1007.9 hPa 14.4 mm
06 mai 08:57 10.2°C 97% 0.0 km/h N 1007.9 hPa 14.4 mm
06 mai 08:56 10.2°C 97% 0.0 km/h N 1007.9 hPa 14.4 mm
06 mai 08:55 10.2°C 97% 0.0 km/h N 1007.9 hPa 14.4 mm
06 mai 08:54 10.2°C 97% 0.0 km/h N 1007.9 hPa 14.4 mm
06 mai 08:53 10.2°C 97% 0.0 km/h N 1007.9 hPa 14.4 mm
06 mai 08:52 10.2°C 97% 0.0 km/h N 1007.9 hPa 14.4 mm
06 mai 08:51 10.2°C 97% 0.0 km/h N 1007.9 hPa 14.4 mm
06 mai 08:50 10.2°C 97% 0.0 km/h N 1007.9 hPa 14.4 mm
06 mai 08:49 10.2°C 97% 0.0 km/h N 1007.9 hPa 14.4 mm
06 mai 08:48 10.1°C 97% 0.0 km/h N 1007.8 hPa 14.2 mm
06 mai 08:47 10.1°C 97% 0.0 km/h N 1007.8 hPa 14.2 mm
06 mai 08:46 10.1°C 97% 0.0 km/h N 1007.8 hPa 14.2 mm
06 mai 08:45 10.1°C 97% 0.0 km/h N 1007.8 hPa 14.2 mm
06 mai 08:44 10.1°C 97% 0.0 km/h N 1007.8 hPa 14.2 mm
06 mai 08:43 10.1°C 97% 0.0 km/h N 1007.8 hPa 14.2 mm
06 mai 08:42 10.1°C 97% 0.0 km/h N 1007.8 hPa 14.2 mm
06 mai 08:41 10.1°C 97% 0.0 km/h N 1007.8 hPa 14.2 mm
06 mai 08:40 10.1°C 97% 0.0 km/h N 1007.8 hPa 14.2 mm
06 mai 08:39 10.1°C 97% 0.0 km/h N 1007.8 hPa 14.2 mm
06 mai 08:38 10.0°C 97% 0.0 km/h N 1007.7 hPa 14.1 mm
06 mai 08:37 10.0°C 97% 0.0 km/h N 1007.7 hPa 14.1 mm
06 mai 08:36 10.0°C 97% 0.0 km/h N 1007.7 hPa 14.1 mm
06 mai 08:35 10.0°C 97% 0.0 km/h N 1007.7 hPa 14.1 mm
06 mai 08:34 10.0°C 97% 0.0 km/h N 1007.7 hPa 14.1 mm
06 mai 08:33 10.0°C 97% 0.0 km/h N 1007.7 hPa 14.1 mm
06 mai 08:32 10.0°C 97% 0.0 km/h N 1007.7 hPa 14.1 mm
06 mai 08:31 10.0°C 97% 0.0 km/h N 1007.7 hPa 14.1 mm
06 mai 08:30 10.0°C 97% 0.0 km/h N 1007.7 hPa 14.1 mm
06 mai 08:29 10.0°C 97% 0.0 km/h N 1007.7 hPa 14.1 mm
06 mai 08:28 9.9°C 97% 0.0 km/h N 1007.6 hPa 13.8 mm
06 mai 08:27 9.9°C 97% 0.0 km/h N 1007.6 hPa 13.8 mm
06 mai 08:26 9.9°C 97% 0.0 km/h N 1007.6 hPa 13.8 mm
06 mai 08:25 9.9°C 97% 0.0 km/h N 1007.6 hPa 13.8 mm
06 mai 08:24 9.9°C 97% 0.0 km/h N 1007.6 hPa 13.8 mm
06 mai 08:23 9.9°C 97% 0.0 km/h N 1007.6 hPa 13.8 mm
06 mai 08:22 9.9°C 97% 0.0 km/h N 1007.6 hPa 13.8 mm
06 mai 08:21 9.9°C 97% 0.0 km/h N 1007.6 hPa 13.8 mm
06 mai 08:20 9.9°C 97% 0.0 km/h N 1007.6 hPa 13.8 mm
06 mai 08:19 9.9°C 97% 0.0 km/h N 1007.6 hPa 13.8 mm
06 mai 08:18 9.9°C 97% 0.0 km/h N 1007.5 hPa 13 mm
06 mai 08:17 9.9°C 97% 0.0 km/h N 1007.5 hPa 13 mm
06 mai 08:16 9.9°C 97% 0.0 km/h N 1007.5 hPa 13 mm
06 mai 08:15 9.9°C 97% 0.0 km/h N 1007.5 hPa 13 mm
06 mai 08:14 9.9°C 97% 0.0 km/h N 1007.5 hPa 13 mm
06 mai 08:13 9.9°C 97% 0.0 km/h N 1007.5 hPa 13 mm
06 mai 08:12 9.9°C 97% 0.0 km/h N 1007.5 hPa 13 mm
06 mai 08:11 9.9°C 97% 0.0 km/h N 1007.5 hPa 13 mm
06 mai 08:10 9.9°C 97% 0.0 km/h N 1007.5 hPa 13 mm
06 mai 08:09 9.9°C 97% 0.0 km/h N 1007.5 hPa 13 mm
06 mai 08:08 9.9°C 97% 0.0 km/h N 1007.4 hPa 12.8 mm
06 mai 08:07 9.9°C 97% 0.0 km/h N 1007.4 hPa 12.8 mm
06 mai 08:06 9.9°C 97% 0.0 km/h N 1007.4 hPa 12.8 mm
06 mai 08:05 9.9°C 97% 0.0 km/h N 1007.4 hPa 12.8 mm
06 mai 08:04 9.9°C 97% 0.0 km/h N 1007.4 hPa 12.8 mm
06 mai 08:03 9.9°C 97% 0.0 km/h N 1007.4 hPa 12.8 mm
06 mai 08:02 9.9°C 97% 0.0 km/h N 1007.4 hPa 12.8 mm
06 mai 08:01 9.9°C 97% 0.0 km/h N 1007.4 hPa 12.8 mm
06 mai 07:59 9.9°C 97% 0.0 km/h N 1007.4 hPa 12.8 mm
06 mai 07:58 9.9°C 97% 0.0 km/h N 1007.3 hPa 12.8 mm
06 mai 07:57 9.9°C 97% 0.0 km/h N 1007.3 hPa 12.8 mm
06 mai 07:56 9.9°C 97% 0.0 km/h N 1007.3 hPa 12.8 mm
06 mai 07:55 9.9°C 97% 0.0 km/h N 1007.3 hPa 12.8 mm
06 mai 07:54 9.9°C 97% 0.0 km/h N 1007.3 hPa 12.8 mm
06 mai 07:53 9.9°C 97% 0.0 km/h N 1007.3 hPa 12.8 mm
06 mai 07:52 9.9°C 97% 0.0 km/h N 1007.3 hPa 12.8 mm
06 mai 07:51 9.9°C 97% 0.0 km/h N 1007.3 hPa 12.8 mm
06 mai 07:50 9.9°C 97% 0.0 km/h N 1007.3 hPa 12.8 mm
06 mai 07:49 9.9°C 97% 0.0 km/h N 1007.3 hPa 12.8 mm
06 mai 07:48 9.8°C 97% 0.0 km/h N 1007.2 hPa 12.6 mm
06 mai 07:47 9.8°C 97% 0.0 km/h N 1007.2 hPa 12.6 mm
06 mai 07:46 9.8°C 97% 0.0 km/h N 1007.2 hPa 12.6 mm
06 mai 07:45 9.8°C 97% 0.0 km/h N 1007.2 hPa 12.6 mm
06 mai 07:44 9.8°C 97% 0.0 km/h N 1007.2 hPa 12.6 mm
06 mai 07:43 9.8°C 97% 0.0 km/h N 1007.2 hPa 12.6 mm
06 mai 07:42 9.8°C 97% 0.0 km/h N 1007.2 hPa 12.6 mm
06 mai 07:41 9.8°C 97% 0.0 km/h N 1007.2 hPa 12.6 mm
06 mai 07:40 9.8°C 97% 0.0 km/h N 1007.2 hPa 12.6 mm
06 mai 07:39 9.8°C 97% 0.0 km/h N 1007.2 hPa 12.6 mm
06 mai 07:38 9.8°C 97% 0.0 km/h N 1007.2 hPa 12.6 mm
06 mai 07:37 9.7°C 97% 0.0 km/h N 1007.1 hPa 12.4 mm
06 mai 07:36 9.7°C 97% 0.0 km/h N 1007.1 hPa 12.4 mm
06 mai 07:35 9.7°C 97% 0.0 km/h N 1007.1 hPa 12.4 mm
06 mai 07:34 9.7°C 97% 0.0 km/h N 1007.1 hPa 12.4 mm
06 mai 07:33 9.7°C 97% 0.0 km/h N 1007.1 hPa 12.4 mm
06 mai 07:32 9.7°C 97% 0.0 km/h N 1007.1 hPa 12.4 mm
06 mai 07:31 9.7°C 97% 0.0 km/h N 1007.1 hPa 12.4 mm
06 mai 07:30 9.7°C 97% 0.0 km/h N 1007.1 hPa 12.4 mm
06 mai 07:29 9.7°C 97% 0.0 km/h N 1007.1 hPa 12.4 mm
06 mai 07:28 9.7°C 97% 0.0 km/h N 1007.1 hPa 12.4 mm
06 mai 07:27 9.7°C 97% 0.0 km/h N 1007.0 hPa 12.3 mm
06 mai 07:26 9.7°C 97% 0.0 km/h N 1007.0 hPa 12.3 mm
06 mai 07:25 9.7°C 97% 0.0 km/h N 1007.0 hPa 12.3 mm
06 mai 07:24 9.7°C 97% 0.0 km/h N 1007.0 hPa 12.3 mm
06 mai 07:23 9.7°C 97% 0.0 km/h N 1007.0 hPa 12.3 mm
06 mai 07:22 9.7°C 97% 0.0 km/h N 1007.0 hPa 12.3 mm
06 mai 07:21 9.7°C 97% 0.0 km/h N 1007.0 hPa 12.3 mm
06 mai 07:20 9.7°C 97% 0.0 km/h N 1007.0 hPa 12.3 mm
06 mai 07:19 9.7°C 97% 0.0 km/h N 1007.0 hPa 12.3 mm
06 mai 07:18 9.7°C 97% 0.0 km/h N 1007.0 hPa 12.3 mm
06 mai 07:17 9.7°C 97% 0.0 km/h N 1006.9 hPa 12.1 mm
06 mai 07:16 9.7°C 97% 0.0 km/h N 1006.9 hPa 12.1 mm
06 mai 07:15 9.7°C 97% 0.0 km/h N 1006.9 hPa 12.1 mm
06 mai 07:14 9.7°C 97% 0.0 km/h N 1006.9 hPa 12.1 mm
06 mai 07:13 9.7°C 97% 0.0 km/h N 1006.9 hPa 12.1 mm
06 mai 07:12 9.7°C 97% 0.0 km/h N 1006.9 hPa 12.1 mm
06 mai 07:11 9.7°C 97% 0.0 km/h N 1006.9 hPa 12.1 mm
06 mai 07:10 9.7°C 97% 0.0 km/h N 1006.9 hPa 12.1 mm
06 mai 07:09 9.7°C 97% 0.0 km/h N 1006.9 hPa 12.1 mm
06 mai 07:08 9.7°C 97% 0.0 km/h N 1006.9 hPa 12.1 mm
06 mai 07:07 9.7°C 97% 0.0 km/h N 1006.8 hPa 11.8 mm
06 mai 07:06 9.7°C 97% 0.0 km/h N 1006.8 hPa 11.8 mm
06 mai 07:05 9.7°C 97% 0.0 km/h N 1006.8 hPa 11.8 mm
06 mai 07:04 9.7°C 97% 0.0 km/h N 1006.8 hPa 11.8 mm
06 mai 07:03 9.7°C 97% 0.0 km/h N 1006.8 hPa 11.8 mm
06 mai 07:02 9.7°C 97% 0.0 km/h N 1006.8 hPa 11.8 mm
06 mai 07:01 9.7°C 97% 0.0 km/h N 1006.8 hPa 11.8 mm
06 mai 07:00 9.7°C 97% 0.0 km/h N 1006.8 hPa 11.8 mm
06 mai 06:59 9.7°C 97% 0.0 km/h N 1006.8 hPa 11.8 mm
06 mai 06:58 9.7°C 97% 0.0 km/h N 1006.8 hPa 11.8 mm
06 mai 06:57 9.7°C 97% 0.0 km/h N 1006.8 hPa 11.4 mm
06 mai 06:56 9.7°C 97% 0.0 km/h N 1006.8 hPa 11.4 mm
06 mai 06:55 9.7°C 97% 0.0 km/h N 1006.8 hPa 11.4 mm
06 mai 06:54 9.7°C 97% 0.0 km/h N 1006.8 hPa 11.4 mm
06 mai 06:53 9.7°C 97% 0.0 km/h N 1006.8 hPa 11.4 mm
06 mai 06:52 9.7°C 97% 0.0 km/h N 1006.8 hPa 11.4 mm
06 mai 06:51 9.7°C 97% 0.0 km/h N 1006.8 hPa 11.4 mm
06 mai 06:50 9.7°C 97% 0.0 km/h N 1006.8 hPa 11.4 mm
06 mai 06:49 9.7°C 97% 0.0 km/h N 1006.8 hPa 11.4 mm
06 mai 06:48 9.7°C 97% 0.0 km/h N 1006.8 hPa 11.4 mm
06 mai 06:47 9.6°C 97% 0.0 km/h N 1006.8 hPa 10.9 mm
06 mai 06:46 9.6°C 97% 0.0 km/h N 1006.8 hPa 10.9 mm
06 mai 06:45 9.6°C 97% 0.0 km/h N 1006.8 hPa 10.9 mm
06 mai 06:44 9.6°C 97% 0.0 km/h N 1006.8 hPa 10.9 mm
06 mai 06:43 9.6°C 97% 0.0 km/h N 1006.8 hPa 10.9 mm
06 mai 06:42 9.6°C 97% 0.0 km/h N 1006.8 hPa 10.9 mm
06 mai 06:41 9.6°C 97% 0.0 km/h N 1006.8 hPa 10.9 mm
06 mai 06:40 9.6°C 97% 0.0 km/h N 1006.8 hPa 10.9 mm
06 mai 06:39 9.6°C 97% 0.0 km/h N 1006.8 hPa 10.9 mm
06 mai 06:38 9.6°C 97% 0.0 km/h N 1006.8 hPa 10.9 mm
06 mai 06:37 9.7°C 97% 0.0 km/h N 1006.8 hPa 10.5 mm
06 mai 06:36 9.7°C 97% 0.0 km/h N 1006.8 hPa 10.5 mm
06 mai 06:35 9.7°C 97% 0.0 km/h N 1006.8 hPa 10.5 mm
06 mai 06:34 9.7°C 97% 0.0 km/h N 1006.8 hPa 10.5 mm
06 mai 06:33 9.7°C 97% 0.0 km/h N 1006.8 hPa 10.5 mm
06 mai 06:32 9.7°C 97% 0.0 km/h N 1006.8 hPa 10.5 mm
06 mai 06:31 9.7°C 97% 0.0 km/h N 1006.8 hPa 10.5 mm
06 mai 06:30 9.7°C 97% 0.0 km/h N 1006.8 hPa 10.5 mm
06 mai 06:29 9.7°C 97% 0.0 km/h N 1006.8 hPa 10.5 mm
06 mai 06:28 9.7°C 97% 0.0 km/h N 1006.8 hPa 10.5 mm
06 mai 06:27 9.6°C 96% 0.0 km/h N 1006.8 hPa 10.3 mm
06 mai 06:26 9.6°C 96% 0.0 km/h N 1006.8 hPa 10.3 mm
06 mai 06:25 9.6°C 96% 0.0 km/h N 1006.8 hPa 10.3 mm
06 mai 06:24 9.6°C 96% 0.0 km/h N 1006.8 hPa 10.3 mm
06 mai 06:23 9.6°C 96% 0.0 km/h N 1006.8 hPa 10.3 mm
06 mai 06:22 9.6°C 96% 0.0 km/h N 1006.8 hPa 10.3 mm
06 mai 06:21 9.6°C 96% 0.0 km/h N 1006.8 hPa 10.3 mm
06 mai 06:20 9.6°C 96% 0.0 km/h N 1006.8 hPa 10.3 mm
06 mai 06:19 9.6°C 96% 0.0 km/h N 1006.8 hPa 10.3 mm
06 mai 06:18 9.6°C 96% 0.0 km/h N 1006.8 hPa 10.3 mm
06 mai 06:17 9.7°C 96% 0.0 km/h N 1006.9 hPa 10 mm
06 mai 06:16 9.7°C 96% 0.0 km/h N 1006.9 hPa 10 mm
06 mai 06:15 9.7°C 96% 0.0 km/h N 1006.9 hPa 10 mm
06 mai 06:14 9.7°C 96% 0.0 km/h N 1006.9 hPa 10 mm
06 mai 06:13 9.7°C 96% 0.0 km/h N 1006.9 hPa 10 mm
06 mai 06:12 9.7°C 96% 0.0 km/h N 1006.9 hPa 10 mm
06 mai 06:11 9.7°C 96% 0.0 km/h N 1006.9 hPa 10 mm
06 mai 06:10 9.7°C 96% 0.0 km/h N 1006.9 hPa 10 mm
06 mai 06:09 9.7°C 96% 0.0 km/h N 1006.9 hPa 10 mm
06 mai 06:08 9.7°C 96% 0.0 km/h N 1006.9 hPa 10 mm
06 mai 06:07 9.7°C 96% 0.0 km/h N 1006.8 hPa 9.5 mm
06 mai 06:06 9.7°C 96% 0.0 km/h N 1006.8 hPa 9.5 mm
06 mai 06:05 9.7°C 96% 0.0 km/h N 1006.8 hPa 9.5 mm
06 mai 06:04 9.7°C 96% 0.0 km/h N 1006.8 hPa 9.5 mm
06 mai 06:03 9.7°C 96% 0.0 km/h N 1006.8 hPa 9.5 mm
06 mai 06:02 9.7°C 96% 0.0 km/h N 1006.8 hPa 9.5 mm
06 mai 06:01 9.7°C 96% 0.0 km/h N 1006.8 hPa 9.5 mm
06 mai 06:00 9.7°C 96% 0.0 km/h N 1006.8 hPa 9.5 mm
06 mai 05:59 9.7°C 96% 0.0 km/h N 1006.8 hPa 9.5 mm
06 mai 05:58 9.7°C 96% 0.0 km/h N 1006.8 hPa 9.5 mm
06 mai 05:57 9.8°C 96% 0.0 km/h N 1006.8 hPa 8.8 mm
06 mai 05:56 9.8°C 96% 0.0 km/h N 1006.8 hPa 8.8 mm
06 mai 05:55 9.8°C 96% 0.0 km/h N 1006.8 hPa 8.8 mm
06 mai 05:54 9.8°C 96% 0.0 km/h N 1006.8 hPa 8.8 mm
06 mai 05:53 9.8°C 96% 0.0 km/h N 1006.8 hPa 8.8 mm
06 mai 05:52 9.8°C 96% 0.0 km/h N 1006.8 hPa 8.8 mm
06 mai 05:51 9.8°C 96% 0.0 km/h N 1006.8 hPa 8.8 mm
06 mai 05:50 9.8°C 96% 0.0 km/h N 1006.8 hPa 8.8 mm
06 mai 05:49 9.8°C 96% 0.0 km/h N 1006.8 hPa 8.8 mm
06 mai 05:48 9.8°C 96% 0.0 km/h N 1006.8 hPa 8.8 mm
06 mai 05:47 9.8°C 96% 0.0 km/h N 1006.9 hPa 8.3 mm
06 mai 05:46 9.8°C 96% 0.0 km/h N 1006.9 hPa 8.3 mm
06 mai 05:45 9.8°C 96% 0.0 km/h N 1006.9 hPa 8.3 mm
06 mai 05:44 9.8°C 96% 0.0 km/h N 1006.9 hPa 8.3 mm
06 mai 05:43 9.8°C 96% 0.0 km/h N 1006.9 hPa 8.3 mm
06 mai 05:42 9.8°C 96% 0.0 km/h N 1006.9 hPa 8.3 mm
06 mai 05:41 9.8°C 96% 0.0 km/h N 1006.9 hPa 8.3 mm
06 mai 05:40 9.8°C 96% 0.0 km/h N 1006.9 hPa 8.3 mm
06 mai 05:39 9.8°C 96% 0.0 km/h N 1006.9 hPa 8.3 mm
06 mai 05:38 9.8°C 96% 0.0 km/h N 1006.9 hPa 8.3 mm
06 mai 05:37 9.8°C 96% 0.0 km/h N 1006.9 hPa 7.8 mm
06 mai 05:36 9.8°C 96% 0.0 km/h N 1006.9 hPa 7.8 mm
06 mai 05:35 9.8°C 96% 0.0 km/h N 1006.9 hPa 7.8 mm
06 mai 05:34 9.8°C 96% 0.0 km/h N 1006.9 hPa 7.8 mm
06 mai 05:33 9.8°C 96% 0.0 km/h N 1006.9 hPa 7.8 mm
06 mai 05:32 9.8°C 96% 0.0 km/h N 1006.9 hPa 7.8 mm
06 mai 05:31 9.8°C 96% 0.0 km/h N 1006.9 hPa 7.8 mm
06 mai 05:30 9.8°C 96% 0.0 km/h N 1006.9 hPa 7.8 mm
06 mai 05:29 9.8°C 96% 0.0 km/h N 1006.9 hPa 7.8 mm
06 mai 05:28 9.8°C 96% 0.0 km/h N 1006.9 hPa 7.8 mm
06 mai 05:27 9.9°C 96% 0.0 km/h N 1007.1 hPa 7.5 mm
06 mai 05:26 9.9°C 96% 0.0 km/h N 1007.1 hPa 7.5 mm
06 mai 05:25 9.9°C 96% 0.0 km/h N 1007.1 hPa 7.5 mm
06 mai 05:24 9.9°C 96% 0.0 km/h N 1007.1 hPa 7.5 mm
06 mai 05:23 9.9°C 96% 0.0 km/h N 1007.1 hPa 7.5 mm
06 mai 05:22 9.9°C 96% 0.0 km/h N 1007.1 hPa 7.5 mm
06 mai 05:21 9.9°C 96% 0.0 km/h N 1007.1 hPa 7.5 mm
06 mai 05:20 9.9°C 96% 0.0 km/h N 1007.1 hPa 7.5 mm
06 mai 05:19 9.9°C 96% 0.0 km/h N 1007.1 hPa 7.5 mm
06 mai 05:18 9.9°C 96% 0.0 km/h N 1007.1 hPa 7.5 mm
06 mai 05:17 9.9°C 96% 0.0 km/h N 1007.1 hPa 7.5 mm
06 mai 05:16 9.9°C 96% 0.0 km/h N 1007.1 hPa 7.1 mm
06 mai 05:15 9.9°C 96% 0.0 km/h N 1007.1 hPa 7.1 mm
06 mai 05:14 9.9°C 96% 0.0 km/h N 1007.1 hPa 7.1 mm
06 mai 05:13 9.9°C 96% 0.0 km/h N 1007.1 hPa 7.1 mm
06 mai 05:12 9.9°C 96% 0.0 km/h N 1007.1 hPa 7.1 mm
06 mai 05:11 9.9°C 96% 0.0 km/h N 1007.1 hPa 7.1 mm
06 mai 05:10 9.9°C 96% 0.0 km/h N 1007.1 hPa 7.1 mm
06 mai 05:09 9.9°C 96% 0.0 km/h N 1007.1 hPa 7.1 mm
06 mai 05:08 9.9°C 96% 0.0 km/h N 1007.1 hPa 7.1 mm
06 mai 05:07 9.9°C 96% 0.0 km/h N 1007.1 hPa 7.1 mm
06 mai 05:06 9.9°C 96% 0.0 km/h N 1007.1 hPa 6.7 mm
06 mai 05:05 9.9°C 96% 0.0 km/h N 1007.1 hPa 6.7 mm
06 mai 05:04 9.9°C 96% 0.0 km/h N 1007.1 hPa 6.7 mm
06 mai 05:03 9.9°C 96% 0.0 km/h N 1007.1 hPa 6.7 mm
06 mai 05:02 9.9°C 96% 0.0 km/h N 1007.1 hPa 6.7 mm
06 mai 05:01 9.9°C 96% 0.0 km/h N 1007.1 hPa 6.7 mm
06 mai 05:00 9.9°C 96% 0.0 km/h N 1007.1 hPa 6.7 mm
06 mai 04:59 9.9°C 96% 0.0 km/h N 1007.1 hPa 6.7 mm
06 mai 04:58 9.9°C 96% 0.0 km/h N 1007.1 hPa 6.7 mm
06 mai 04:57 9.9°C 96% 0.0 km/h N 1007.1 hPa 6.7 mm
06 mai 04:56 10.0°C 96% 0.0 km/h N 1007.2 hPa 6.5 mm
06 mai 04:55 10.0°C 96% 0.0 km/h N 1007.2 hPa 6.5 mm
06 mai 04:54 10.0°C 96% 0.0 km/h N 1007.2 hPa 6.5 mm
06 mai 04:53 10.0°C 96% 0.0 km/h N 1007.2 hPa 6.5 mm
06 mai 04:52 10.0°C 96% 0.0 km/h N 1007.2 hPa 6.5 mm
06 mai 04:51 10.0°C 96% 0.0 km/h N 1007.2 hPa 6.5 mm
06 mai 04:50 10.0°C 96% 0.0 km/h N 1007.2 hPa 6.5 mm
06 mai 04:49 10.0°C 96% 0.0 km/h N 1007.2 hPa 6.5 mm
06 mai 04:48 10.0°C 96% 0.0 km/h N 1007.2 hPa 6.5 mm
06 mai 04:47 10.0°C 96% 0.0 km/h N 1007.2 hPa 6.5 mm
06 mai 04:46 10.0°C 96% 0.0 km/h N 1007.3 hPa 6.2 mm
06 mai 04:45 10.0°C 96% 0.0 km/h N 1007.3 hPa 6.2 mm
06 mai 04:44 10.0°C 96% 0.0 km/h N 1007.3 hPa 6.2 mm
06 mai 04:43 10.0°C 96% 0.0 km/h N 1007.3 hPa 6.2 mm
06 mai 04:42 10.0°C 96% 0.0 km/h N 1007.3 hPa 6.2 mm
06 mai 04:41 10.0°C 96% 0.0 km/h N 1007.3 hPa 6.2 mm
06 mai 04:40 10.0°C 96% 0.0 km/h N 1007.3 hPa 6.2 mm
06 mai 04:39 10.0°C 96% 0.0 km/h N 1007.3 hPa 6.2 mm
06 mai 04:38 10.0°C 96% 0.0 km/h N 1007.3 hPa 6.2 mm
06 mai 04:37 10.0°C 96% 0.0 km/h N 1007.3 hPa 6.2 mm
06 mai 04:36 10.0°C 96% 0.0 km/h N 1007.2 hPa 5.6 mm
06 mai 04:35 10.0°C 96% 0.0 km/h N 1007.2 hPa 5.6 mm
06 mai 04:34 10.0°C 96% 0.0 km/h N 1007.2 hPa 5.6 mm
06 mai 04:33 10.0°C 96% 0.0 km/h N 1007.2 hPa 5.6 mm
06 mai 04:32 10.0°C 96% 0.0 km/h N 1007.2 hPa 5.6 mm
06 mai 04:31 10.0°C 96% 0.0 km/h N 1007.2 hPa 5.6 mm
06 mai 04:30 10.0°C 96% 0.0 km/h N 1007.2 hPa 5.6 mm
06 mai 04:29 10.0°C 96% 0.0 km/h N 1007.2 hPa 5.6 mm
06 mai 04:28 10.0°C 96% 0.0 km/h N 1007.2 hPa 5.6 mm
06 mai 04:27 10.0°C 96% 0.0 km/h N 1007.2 hPa 5.6 mm
06 mai 04:26 10.1°C 96% 0.0 km/h N 1007.2 hPa 5.3 mm
06 mai 04:25 10.1°C 96% 0.0 km/h N 1007.2 hPa 5.3 mm
06 mai 04:24 10.1°C 96% 0.0 km/h N 1007.2 hPa 5.3 mm
06 mai 04:23 10.1°C 96% 0.0 km/h N 1007.2 hPa 5.3 mm
06 mai 04:22 10.1°C 96% 0.0 km/h N 1007.2 hPa 5.3 mm
06 mai 04:21 10.1°C 96% 0.0 km/h N 1007.2 hPa 5.3 mm
06 mai 04:20 10.1°C 96% 0.0 km/h N 1007.2 hPa 5.3 mm
06 mai 04:19 10.1°C 96% 0.0 km/h N 1007.2 hPa 5.3 mm
06 mai 04:18 10.1°C 96% 0.0 km/h N 1007.2 hPa 5.3 mm
06 mai 04:17 10.1°C 96% 0.0 km/h N 1007.2 hPa 5.3 mm
06 mai 04:16 10.1°C 96% 0.0 km/h N 1007.2 hPa 5.1 mm
06 mai 04:15 10.1°C 96% 0.0 km/h N 1007.2 hPa 5.1 mm
06 mai 04:14 10.1°C 96% 0.0 km/h N 1007.2 hPa 5.1 mm
06 mai 04:13 10.1°C 96% 0.0 km/h N 1007.2 hPa 5.1 mm
06 mai 04:12 10.1°C 96% 0.0 km/h N 1007.2 hPa 5.1 mm
06 mai 04:11 10.1°C 96% 0.0 km/h N 1007.2 hPa 5.1 mm
06 mai 04:10 10.1°C 96% 0.0 km/h N 1007.2 hPa 5.1 mm
06 mai 04:09 10.1°C 96% 0.0 km/h N 1007.2 hPa 5.1 mm
06 mai 04:08 10.1°C 96% 0.0 km/h N 1007.2 hPa 5.1 mm
06 mai 04:07 10.1°C 96% 0.0 km/h N 1007.2 hPa 5.1 mm
06 mai 04:06 10.2°C 96% 0.0 km/h N 1007.2 hPa 5.1 mm
06 mai 04:05 10.2°C 96% 0.0 km/h N 1007.2 hPa 5.1 mm
06 mai 04:04 10.2°C 96% 0.0 km/h N 1007.2 hPa 5.1 mm
06 mai 04:03 10.2°C 96% 0.0 km/h N 1007.2 hPa 5.1 mm
06 mai 04:02 10.2°C 96% 0.0 km/h N 1007.2 hPa 5.1 mm
06 mai 04:01 10.2°C 96% 0.0 km/h N 1007.2 hPa 5.1 mm
06 mai 03:59 10.2°C 96% 0.0 km/h N 1007.2 hPa 5.1 mm
06 mai 03:58 10.2°C 96% 0.0 km/h N 1007.2 hPa 5.1 mm
06 mai 03:57 10.2°C 96% 0.0 km/h N 1007.2 hPa 5.1 mm
06 mai 03:56 10.2°C 96% 0.0 km/h N 1007.3 hPa 4.7 mm
06 mai 03:55 10.2°C 96% 0.0 km/h N 1007.3 hPa 4.7 mm
06 mai 03:54 10.2°C 96% 0.0 km/h N 1007.3 hPa 4.7 mm
06 mai 03:53 10.2°C 96% 0.0 km/h N 1007.3 hPa 4.7 mm
06 mai 03:52 10.2°C 96% 0.0 km/h N 1007.3 hPa 4.7 mm
06 mai 03:51 10.2°C 96% 0.0 km/h N 1007.3 hPa 4.7 mm
06 mai 03:50 10.2°C 96% 0.0 km/h N 1007.3 hPa 4.7 mm
06 mai 03:49 10.2°C 96% 0.0 km/h N 1007.3 hPa 4.7 mm
06 mai 03:48 10.2°C 96% 0.0 km/h N 1007.3 hPa 4.7 mm
06 mai 03:47 10.2°C 96% 0.0 km/h N 1007.3 hPa 4.7 mm
06 mai 03:46 10.3°C 96% 0.0 km/h N 1007.5 hPa 4.4 mm
06 mai 03:45 10.3°C 96% 0.0 km/h N 1007.5 hPa 4.4 mm
06 mai 03:44 10.3°C 96% 0.0 km/h N 1007.5 hPa 4.4 mm
06 mai 03:43 10.3°C 96% 0.0 km/h N 1007.5 hPa 4.4 mm
06 mai 03:42 10.3°C 96% 0.0 km/h N 1007.5 hPa 4.4 mm
06 mai 03:41 10.3°C 96% 0.0 km/h N 1007.5 hPa 4.4 mm
06 mai 03:40 10.3°C 96% 0.0 km/h N 1007.5 hPa 4.4 mm
06 mai 03:39 10.3°C 96% 0.0 km/h N 1007.5 hPa 4.4 mm
06 mai 03:38 10.3°C 96% 0.0 km/h N 1007.5 hPa 4.4 mm
06 mai 03:37 10.3°C 96% 0.0 km/h N 1007.5 hPa 4.4 mm
06 mai 03:36 10.3°C 96% 0.0 km/h N 1007.5 hPa 4.4 mm
06 mai 03:35 10.2°C 96% 0.0 km/h N 1007.7 hPa 4.1 mm
06 mai 03:34 10.2°C 96% 0.0 km/h N 1007.7 hPa 4.1 mm
06 mai 03:33 10.2°C 96% 0.0 km/h N 1007.7 hPa 4.1 mm
06 mai 03:32 10.2°C 96% 0.0 km/h N 1007.7 hPa 4.1 mm
06 mai 03:31 10.2°C 96% 0.0 km/h N 1007.7 hPa 4.1 mm
06 mai 03:30 10.2°C 96% 0.0 km/h N 1007.7 hPa 4.1 mm
06 mai 03:29 10.2°C 96% 0.0 km/h N 1007.7 hPa 4.1 mm
06 mai 03:28 10.2°C 96% 0.0 km/h N 1007.7 hPa 4.1 mm
06 mai 03:27 10.2°C 96% 0.0 km/h N 1007.7 hPa 4.1 mm
06 mai 03:26 10.2°C 96% 0.0 km/h N 1007.7 hPa 4.1 mm
06 mai 03:25 10.3°C 96% 0.0 km/h N 1007.9 hPa 3.7 mm
06 mai 03:24 10.3°C 96% 0.0 km/h N 1007.9 hPa 3.7 mm
06 mai 03:23 10.3°C 96% 0.0 km/h N 1007.9 hPa 3.7 mm
06 mai 03:22 10.3°C 96% 0.0 km/h N 1007.9 hPa 3.7 mm
06 mai 03:21 10.3°C 96% 0.0 km/h N 1007.9 hPa 3.7 mm
06 mai 03:20 10.3°C 96% 0.0 km/h N 1007.9 hPa 3.7 mm
06 mai 03:19 10.3°C 96% 0.0 km/h N 1007.9 hPa 3.7 mm
06 mai 03:18 10.3°C 96% 0.0 km/h N 1007.9 hPa 3.7 mm
06 mai 03:17 10.3°C 96% 0.0 km/h N 1007.9 hPa 3.7 mm
06 mai 03:16 10.3°C 96% 0.0 km/h N 1007.9 hPa 3.7 mm
06 mai 03:15 10.3°C 96% 0.0 km/h N 1008.0 hPa 3.4 mm
06 mai 03:14 10.3°C 96% 0.0 km/h N 1008.0 hPa 3.4 mm
06 mai 03:13 10.3°C 96% 0.0 km/h N 1008.0 hPa 3.4 mm
06 mai 03:12 10.3°C 96% 0.0 km/h N 1008.0 hPa 3.4 mm
06 mai 03:11 10.3°C 96% 0.0 km/h N 1008.0 hPa 3.4 mm
06 mai 03:10 10.3°C 96% 0.0 km/h N 1008.0 hPa 3.4 mm
06 mai 03:09 10.3°C 96% 0.0 km/h N 1008.0 hPa 3.4 mm
06 mai 03:08 10.3°C 96% 0.0 km/h N 1008.0 hPa 3.4 mm
06 mai 03:07 10.3°C 96% 0.0 km/h N 1008.0 hPa 3.4 mm
06 mai 03:06 10.3°C 96% 0.0 km/h N 1008.0 hPa 3.4 mm
06 mai 03:05 10.4°C 96% 0.0 km/h N 1008.0 hPa 3.1 mm
06 mai 03:04 10.4°C 96% 0.0 km/h N 1008.0 hPa 3.1 mm
06 mai 03:03 10.4°C 96% 0.0 km/h N 1008.0 hPa 3.1 mm
06 mai 03:02 10.4°C 96% 0.0 km/h N 1008.0 hPa 3.1 mm
06 mai 03:01 10.4°C 96% 0.0 km/h N 1008.0 hPa 3.1 mm
06 mai 03:00 10.4°C 96% 0.0 km/h N 1008.0 hPa 3.1 mm
06 mai 02:59 10.4°C 96% 0.0 km/h N 1008.0 hPa 3.1 mm
06 mai 02:58 10.4°C 96% 0.0 km/h N 1008.0 hPa 3.1 mm
06 mai 02:57 10.4°C 96% 0.0 km/h N 1008.0 hPa 3.1 mm
06 mai 02:56 10.4°C 96% 0.0 km/h N 1008.0 hPa 3.1 mm
06 mai 02:55 10.3°C 95% 0.0 km/h N 1008.1 hPa 2.9 mm
06 mai 02:54 10.3°C 95% 0.0 km/h N 1008.1 hPa 2.9 mm
06 mai 02:53 10.3°C 95% 0.0 km/h N 1008.1 hPa 2.9 mm
06 mai 02:52 10.3°C 95% 0.0 km/h N 1008.1 hPa 2.9 mm
06 mai 02:51 10.3°C 95% 0.0 km/h N 1008.1 hPa 2.9 mm
06 mai 02:50 10.3°C 95% 0.0 km/h N 1008.1 hPa 2.9 mm
06 mai 02:49 10.3°C 95% 0.0 km/h N 1008.1 hPa 2.9 mm
06 mai 02:48 10.3°C 95% 0.0 km/h N 1008.1 hPa 2.9 mm
06 mai 02:47 10.3°C 95% 0.0 km/h N 1008.1 hPa 2.9 mm
06 mai 02:46 10.3°C 95% 0.0 km/h N 1008.1 hPa 2.9 mm
06 mai 02:45 10.3°C 95% 0.0 km/h N 1008.2 hPa 2.8 mm
06 mai 02:44 10.3°C 95% 0.0 km/h N 1008.2 hPa 2.8 mm
06 mai 02:43 10.3°C 95% 0.0 km/h N 1008.2 hPa 2.8 mm
06 mai 02:42 10.3°C 95% 0.0 km/h N 1008.2 hPa 2.8 mm
06 mai 02:41 10.3°C 95% 0.0 km/h N 1008.2 hPa 2.8 mm
06 mai 02:40 10.3°C 95% 0.0 km/h N 1008.2 hPa 2.8 mm
06 mai 02:39 10.3°C 95% 0.0 km/h N 1008.2 hPa 2.8 mm
06 mai 02:38 10.3°C 95% 0.0 km/h N 1008.2 hPa 2.8 mm
06 mai 02:37 10.3°C 95% 0.0 km/h N 1008.2 hPa 2.8 mm
06 mai 02:36 10.3°C 95% 0.0 km/h N 1008.2 hPa 2.8 mm
06 mai 02:35 10.3°C 95% 0.0 km/h N 1008.4 hPa 2.7 mm
06 mai 02:34 10.3°C 95% 0.0 km/h N 1008.4 hPa 2.7 mm
06 mai 02:33 10.3°C 95% 0.0 km/h N 1008.4 hPa 2.7 mm
06 mai 02:32 10.3°C 95% 0.0 km/h N 1008.4 hPa 2.7 mm
06 mai 02:31 10.3°C 95% 0.0 km/h N 1008.4 hPa 2.7 mm
06 mai 02:30 10.3°C 95% 0.0 km/h N 1008.4 hPa 2.7 mm
06 mai 02:29 10.3°C 95% 0.0 km/h N 1008.4 hPa 2.7 mm
06 mai 02:28 10.3°C 95% 0.0 km/h N 1008.4 hPa 2.7 mm
06 mai 02:27 10.3°C 95% 0.0 km/h N 1008.4 hPa 2.7 mm
06 mai 02:26 10.3°C 95% 0.0 km/h N 1008.4 hPa 2.7 mm
06 mai 02:25 10.4°C 95% 0.0 km/h N 1008.5 hPa 2.6 mm
06 mai 02:24 10.4°C 95% 0.0 km/h N 1008.5 hPa 2.6 mm
06 mai 02:23 10.4°C 95% 0.0 km/h N 1008.5 hPa 2.6 mm
06 mai 02:22 10.4°C 95% 0.0 km/h N 1008.5 hPa 2.6 mm
06 mai 02:21 10.4°C 95% 0.0 km/h N 1008.5 hPa 2.6 mm
06 mai 02:20 10.4°C 95% 0.0 km/h N 1008.5 hPa 2.6 mm
06 mai 02:19 10.4°C 95% 0.0 km/h N 1008.5 hPa 2.6 mm
06 mai 02:18 10.4°C 95% 0.0 km/h N 1008.5 hPa 2.6 mm
06 mai 02:17 10.4°C 95% 0.0 km/h N 1008.5 hPa 2.6 mm
06 mai 02:16 10.4°C 95% 0.0 km/h N 1008.5 hPa 2.6 mm
06 mai 02:15 10.4°C 95% 0.0 km/h N 1008.7 hPa 2.5 mm
06 mai 02:14 10.4°C 95% 0.0 km/h N 1008.7 hPa 2.5 mm
06 mai 02:13 10.4°C 95% 0.0 km/h N 1008.7 hPa 2.5 mm
06 mai 02:12 10.4°C 95% 0.0 km/h N 1008.7 hPa 2.5 mm
06 mai 02:11 10.4°C 95% 0.0 km/h N 1008.7 hPa 2.5 mm
06 mai 02:10 10.4°C 95% 0.0 km/h N 1008.7 hPa 2.5 mm
06 mai 02:09 10.4°C 95% 0.0 km/h N 1008.7 hPa 2.5 mm
06 mai 02:08 10.4°C 95% 0.0 km/h N 1008.7 hPa 2.5 mm
06 mai 02:07 10.4°C 95% 0.0 km/h N 1008.7 hPa 2.5 mm
06 mai 02:06 10.4°C 95% 0.0 km/h N 1008.7 hPa 2.5 mm
06 mai 02:05 10.4°C 95% 0.0 km/h N 1008.9 hPa 1.9 mm
06 mai 02:04 10.4°C 95% 0.0 km/h N 1008.9 hPa 1.9 mm
06 mai 02:03 10.4°C 95% 0.0 km/h N 1008.9 hPa 1.9 mm
06 mai 02:02 10.4°C 95% 0.0 km/h N 1008.9 hPa 1.9 mm
06 mai 02:01 10.4°C 95% 0.0 km/h N 1008.9 hPa 1.9 mm
06 mai 02:00 10.4°C 95% 0.0 km/h N 1008.9 hPa 1.9 mm
06 mai 01:59 10.4°C 95% 0.0 km/h N 1008.9 hPa 1.9 mm
06 mai 01:58 10.4°C 95% 0.0 km/h N 1008.9 hPa 1.9 mm
06 mai 01:57 10.4°C 95% 0.0 km/h N 1008.9 hPa 1.9 mm
06 mai 01:56 10.4°C 95% 0.0 km/h N 1008.9 hPa 1.9 mm
06 mai 01:55 10.4°C 95% 0.0 km/h N 1008.9 hPa 1.9 mm
06 mai 01:54 10.5°C 95% 0.0 km/h N 1009.0 hPa 1.6 mm
06 mai 01:53 10.5°C 95% 0.0 km/h N 1009.0 hPa 1.6 mm
06 mai 01:52 10.5°C 95% 0.0 km/h N 1009.0 hPa 1.6 mm
06 mai 01:51 10.5°C 95% 0.0 km/h N 1009.0 hPa 1.6 mm
06 mai 01:50 10.5°C 95% 0.0 km/h N 1009.0 hPa 1.6 mm
06 mai 01:49 10.5°C 95% 0.0 km/h N 1009.0 hPa 1.6 mm
06 mai 01:48 10.5°C 95% 0.0 km/h N 1009.0 hPa 1.6 mm
06 mai 01:47 10.5°C 95% 0.0 km/h N 1009.0 hPa 1.6 mm
06 mai 01:46 10.5°C 95% 0.0 km/h N 1009.0 hPa 1.6 mm
06 mai 01:45 10.5°C 95% 0.0 km/h N 1009.0 hPa 1.6 mm
06 mai 01:44 10.5°C 95% 0.0 km/h N 1009.1 hPa 1.4 mm
06 mai 01:43 10.5°C 95% 0.0 km/h N 1009.1 hPa 1.4 mm
06 mai 01:42 10.5°C 95% 0.0 km/h N 1009.1 hPa 1.4 mm
06 mai 01:41 10.5°C 95% 0.0 km/h N 1009.1 hPa 1.4 mm
06 mai 01:40 10.5°C 95% 0.0 km/h N 1009.1 hPa 1.4 mm
06 mai 01:39 10.5°C 95% 0.0 km/h N 1009.1 hPa 1.4 mm
06 mai 01:38 10.5°C 95% 0.0 km/h N 1009.1 hPa 1.4 mm
06 mai 01:37 10.5°C 95% 0.0 km/h N 1009.1 hPa 1.4 mm
06 mai 01:36 10.5°C 95% 0.0 km/h N 1009.1 hPa 1.4 mm
06 mai 01:35 10.5°C 95% 0.0 km/h N 1009.1 hPa 1.4 mm
06 mai 01:34 10.6°C 95% 0.0 km/h N 1009.1 hPa 1.1 mm
06 mai 01:33 10.6°C 95% 0.0 km/h N 1009.1 hPa 1.1 mm
06 mai 01:32 10.6°C 95% 0.0 km/h N 1009.1 hPa 1.1 mm
06 mai 01:31 10.6°C 95% 0.0 km/h N 1009.1 hPa 1.1 mm
06 mai 01:30 10.6°C 95% 0.0 km/h N 1009.1 hPa 1.1 mm
06 mai 01:29 10.6°C 95% 0.0 km/h N 1009.1 hPa 1.1 mm
06 mai 01:28 10.6°C 95% 0.0 km/h N 1009.1 hPa 1.1 mm
06 mai 01:27 10.6°C 95% 0.0 km/h N 1009.1 hPa 1.1 mm
06 mai 01:26 10.6°C 95% 0.0 km/h N 1009.1 hPa 1.1 mm
06 mai 01:25 10.6°C 95% 0.0 km/h N 1009.1 hPa 1.1 mm
06 mai 01:24 10.6°C 94% 0.0 km/h N 1009.2 hPa 0.3 mm
06 mai 01:23 10.6°C 94% 0.0 km/h N 1009.2 hPa 0.3 mm
06 mai 01:22 10.6°C 94% 0.0 km/h N 1009.2 hPa 0.3 mm
06 mai 01:21 10.6°C 94% 0.0 km/h N 1009.2 hPa 0.3 mm
06 mai 01:20 10.6°C 94% 0.0 km/h N 1009.2 hPa 0.3 mm
06 mai 01:19 10.6°C 94% 0.0 km/h N 1009.2 hPa 0.3 mm
06 mai 01:18 10.6°C 94% 0.0 km/h N 1009.2 hPa 0.3 mm
06 mai 01:17 10.6°C 94% 0.0 km/h N 1009.2 hPa 0.3 mm
06 mai 01:16 10.6°C 94% 0.0 km/h N 1009.2 hPa 0.3 mm
06 mai 01:15 10.6°C 94% 0.0 km/h N 1009.2 hPa 0.3 mm
06 mai 01:14 10.7°C 94% 0.0 km/h N 1009.1 hPa 0.1 mm
06 mai 01:13 10.7°C 94% 0.0 km/h N 1009.1 hPa 0.1 mm
06 mai 01:12 10.7°C 94% 0.0 km/h N 1009.1 hPa 0.1 mm
06 mai 01:11 10.7°C 94% 0.0 km/h N 1009.1 hPa 0.1 mm
06 mai 01:10 10.7°C 94% 0.0 km/h N 1009.1 hPa 0.1 mm
06 mai 01:09 10.7°C 94% 0.0 km/h N 1009.1 hPa 0.1 mm
06 mai 01:08 10.7°C 94% 0.0 km/h N 1009.1 hPa 0.1 mm
06 mai 01:07 10.7°C 94% 0.0 km/h N 1009.1 hPa 0.1 mm
06 mai 01:06 10.7°C 94% 0.0 km/h N 1009.1 hPa 0.1 mm
06 mai 01:05 10.7°C 93% 0.0 km/h N 1009.1 hPa 0 mm
06 mai 01:04 10.7°C 93% 0.0 km/h N 1009.1 hPa 0 mm
06 mai 01:03 10.7°C 93% 0.0 km/h N 1009.1 hPa 0 mm
06 mai 01:02 10.7°C 93% 0.0 km/h N 1009.1 hPa 0 mm
06 mai 01:01 10.7°C 93% 0.0 km/h N 1009.1 hPa 0 mm
06 mai 00:59 10.7°C 93% 0.0 km/h N 1009.1 hPa 0 mm
06 mai 00:58 10.7°C 93% 0.0 km/h N 1009.1 hPa 0 mm
06 mai 00:57 10.7°C 93% 0.0 km/h N 1009.1 hPa 0 mm
06 mai 00:56 10.7°C 93% 0.0 km/h N 1009.1 hPa 0 mm
06 mai 00:55 10.8°C 93% 0.0 km/h N 1009.3 hPa 0 mm
06 mai 00:54 10.8°C 93% 0.0 km/h N 1009.3 hPa 0 mm
06 mai 00:53 10.8°C 93% 0.0 km/h N 1009.3 hPa 0 mm
06 mai 00:52 10.8°C 93% 0.0 km/h N 1009.3 hPa 0 mm
06 mai 00:51 10.8°C 93% 0.0 km/h N 1009.3 hPa 0 mm
06 mai 00:50 10.8°C 93% 0.0 km/h N 1009.3 hPa 0 mm
06 mai 00:49 10.8°C 93% 0.0 km/h N 1009.3 hPa 0 mm
06 mai 00:48 10.8°C 93% 0.0 km/h N 1009.3 hPa 0 mm
06 mai 00:47 10.8°C 93% 0.0 km/h N 1009.3 hPa 0 mm
06 mai 00:46 10.8°C 93% 0.0 km/h N 1009.3 hPa 0 mm
06 mai 00:45 10.8°C 93% 0.0 km/h N 1009.5 hPa 0 mm
06 mai 00:44 10.8°C 93% 0.0 km/h N 1009.5 hPa 0 mm
06 mai 00:43 10.8°C 93% 0.0 km/h N 1009.5 hPa 0 mm
06 mai 00:42 10.8°C 93% 0.0 km/h N 1009.5 hPa 0 mm
06 mai 00:41 10.8°C 93% 0.0 km/h N 1009.5 hPa 0 mm
06 mai 00:40 10.8°C 93% 0.0 km/h N 1009.5 hPa 0 mm
06 mai 00:39 10.8°C 93% 0.0 km/h N 1009.5 hPa 0 mm
06 mai 00:38 10.8°C 93% 0.0 km/h N 1009.5 hPa 0 mm
06 mai 00:37 10.8°C 93% 0.0 km/h N 1009.5 hPa 0 mm
06 mai 00:36 10.8°C 93% 0.0 km/h N 1009.5 hPa 0 mm
06 mai 00:35 10.7°C 93% 0.0 km/h N 1009.8 hPa 0 mm
06 mai 00:34 10.7°C 93% 0.0 km/h N 1009.8 hPa 0 mm
06 mai 00:33 10.7°C 93% 0.0 km/h N 1009.8 hPa 0 mm
06 mai 00:32 10.7°C 93% 0.0 km/h N 1009.8 hPa 0 mm
06 mai 00:31 10.7°C 93% 0.0 km/h N 1009.8 hPa 0 mm
06 mai 00:30 10.7°C 93% 0.0 km/h N 1009.8 hPa 0 mm
06 mai 00:29 10.7°C 93% 0.0 km/h N 1009.8 hPa 0 mm
06 mai 00:28 10.7°C 93% 0.0 km/h N 1009.8 hPa 0 mm
06 mai 00:27 10.7°C 93% 0.0 km/h N 1009.8 hPa 0 mm
06 mai 00:26 10.7°C 93% 0.0 km/h N 1009.8 hPa 0 mm
06 mai 00:25 10.7°C 93% 0.0 km/h N 1009.9 hPa 0 mm
06 mai 00:24 10.7°C 93% 0.0 km/h N 1009.9 hPa 0 mm
06 mai 00:23 10.7°C 93% 0.0 km/h N 1009.9 hPa 0 mm
06 mai 00:22 10.7°C 93% 0.0 km/h N 1009.9 hPa 0 mm
06 mai 00:21 10.7°C 93% 0.0 km/h N 1009.9 hPa 0 mm
06 mai 00:20 10.7°C 93% 0.0 km/h N 1009.9 hPa 0 mm
06 mai 00:19 10.7°C 93% 0.0 km/h N 1009.9 hPa 0 mm
06 mai 00:18 10.7°C 93% 0.0 km/h N 1009.9 hPa 0 mm
06 mai 00:17 10.7°C 93% 0.0 km/h N 1009.9 hPa 0 mm
06 mai 00:16 10.7°C 93% 0.0 km/h N 1009.9 hPa 0 mm
06 mai 00:15 10.7°C 92% 0.0 km/h N 1010.0 hPa 0 mm
06 mai 00:14 10.7°C 92% 0.0 km/h N 1010.0 hPa 0 mm
06 mai 00:13 10.7°C 92% 0.0 km/h N 1010.0 hPa 0 mm
06 mai 00:12 10.7°C 92% 0.0 km/h N 1010.0 hPa 0 mm
06 mai 00:11 10.7°C 92% 0.0 km/h N 1010.0 hPa 0 mm
06 mai 00:10 10.7°C 92% 0.0 km/h N 1010.0 hPa 0 mm
06 mai 00:09 10.7°C 92% 0.0 km/h N 1010.0 hPa 0 mm
06 mai 00:08 10.7°C 92% 0.0 km/h N 1010.0 hPa 0 mm
06 mai 00:07 10.7°C 92% 0.0 km/h N 1010.0 hPa 0 mm
06 mai 00:06 10.7°C 92% 0.0 km/h N 1010.0 hPa 0 mm
05 mai 23:59 10.8°C 92% 0.0 km/h N 1010.2 hPa 22.6 mm
05 mai 23:58 10.8°C 92% 0.0 km/h N 1010.2 hPa 22.6 mm
05 mai 23:57 10.8°C 92% 0.0 km/h N 1010.2 hPa 22.6 mm
05 mai 23:56 10.8°C 92% 0.0 km/h N 1010.2 hPa 22.6 mm
05 mai 23:55 10.9°C 91% 0.0 km/h N 1010.4 hPa 22.5 mm
05 mai 23:54 10.9°C 91% 0.0 km/h N 1010.4 hPa 22.5 mm
05 mai 23:53 10.9°C 91% 0.0 km/h N 1010.4 hPa 22.5 mm
05 mai 23:52 10.9°C 91% 0.0 km/h N 1010.4 hPa 22.5 mm
05 mai 23:51 10.9°C 91% 0.0 km/h N 1010.4 hPa 22.5 mm
05 mai 23:50 10.9°C 91% 0.0 km/h N 1010.4 hPa 22.5 mm
05 mai 23:49 10.9°C 91% 0.0 km/h N 1010.4 hPa 22.5 mm
05 mai 23:48 10.9°C 91% 0.0 km/h N 1010.4 hPa 22.5 mm
05 mai 23:47 10.9°C 91% 0.0 km/h N 1010.4 hPa 22.5 mm
05 mai 23:46 10.9°C 91% 0.0 km/h N 1010.4 hPa 22.5 mm
05 mai 23:45 11.0°C 91% 0.0 km/h N 1010.4 hPa 22.4 mm
05 mai 23:44 11.0°C 91% 0.0 km/h N 1010.4 hPa 22.4 mm
05 mai 23:43 11.0°C 91% 0.0 km/h N 1010.4 hPa 22.4 mm
05 mai 23:42 11.0°C 91% 0.0 km/h N 1010.4 hPa 22.4 mm
05 mai 23:41 11.0°C 91% 0.0 km/h N 1010.4 hPa 22.4 mm
05 mai 23:40 11.0°C 91% 0.0 km/h N 1010.4 hPa 22.4 mm
05 mai 23:39 11.0°C 91% 0.0 km/h N 1010.4 hPa 22.4 mm
05 mai 23:38 11.0°C 91% 0.0 km/h N 1010.4 hPa 22.4 mm
05 mai 23:37 11.0°C 91% 0.0 km/h N 1010.4 hPa 22.4 mm
05 mai 23:36 11.0°C 91% 0.0 km/h N 1010.4 hPa 22.4 mm
05 mai 23:35 11.0°C 91% 0.0 km/h N 1010.4 hPa 22.4 mm
05 mai 23:34 11.1°C 90% 0.0 km/h N 1010.8 hPa 22.2 mm
05 mai 23:33 11.1°C 90% 0.0 km/h N 1010.8 hPa 22.2 mm
05 mai 23:32 11.1°C 90% 0.0 km/h N 1010.8 hPa 22.2 mm
05 mai 23:31 11.1°C 90% 0.0 km/h N 1010.8 hPa 22.2 mm
05 mai 23:30 11.1°C 90% 0.0 km/h N 1010.8 hPa 22.2 mm
05 mai 23:29 11.1°C 90% 0.0 km/h N 1010.8 hPa 22.2 mm
05 mai 23:28 11.1°C 90% 0.0 km/h N 1010.8 hPa 22.2 mm
05 mai 23:27 11.1°C 90% 0.0 km/h N 1010.8 hPa 22.2 mm
05 mai 23:26 11.1°C 90% 0.0 km/h N 1010.8 hPa 22.2 mm
05 mai 23:25 11.1°C 90% 0.0 km/h N 1010.8 hPa 22.2 mm
05 mai 23:24 11.3°C 90% 0.0 km/h N 1010.5 hPa 22.1 mm
05 mai 23:23 11.3°C 90% 0.0 km/h N 1010.5 hPa 22.1 mm
05 mai 23:22 11.3°C 90% 0.0 km/h N 1010.5 hPa 22.1 mm
05 mai 23:21 11.3°C 90% 0.0 km/h N 1010.5 hPa 22.1 mm
05 mai 23:20 11.3°C 90% 0.0 km/h N 1010.5 hPa 22.1 mm
05 mai 23:19 11.3°C 90% 0.0 km/h N 1010.5 hPa 22.1 mm
05 mai 23:18 11.3°C 90% 0.0 km/h N 1010.5 hPa 22.1 mm
05 mai 23:17 11.3°C 90% 0.0 km/h N 1010.5 hPa 22.1 mm
05 mai 23:16 11.3°C 90% 0.0 km/h N 1010.5 hPa 22.1 mm
05 mai 23:15 11.3°C 90% 0.0 km/h N 1010.5 hPa 22.1 mm
05 mai 23:14 11.3°C 90% 0.0 km/h N 1010.4 hPa 22 mm
05 mai 23:13 11.3°C 90% 0.0 km/h N 1010.4 hPa 22 mm
05 mai 23:12 11.3°C 90% 0.0 km/h N 1010.4 hPa 22 mm
05 mai 23:11 11.3°C 90% 0.0 km/h N 1010.4 hPa 22 mm
05 mai 23:10 11.3°C 90% 0.0 km/h N 1010.4 hPa 22 mm
05 mai 23:09 11.3°C 90% 0.0 km/h N 1010.4 hPa 22 mm
05 mai 23:08 11.3°C 90% 0.0 km/h N 1010.4 hPa 22 mm
05 mai 23:07 11.3°C 90% 0.0 km/h N 1010.4 hPa 22 mm
05 mai 23:06 11.3°C 90% 0.0 km/h N 1010.4 hPa 22 mm
05 mai 23:05 11.3°C 90% 0.0 km/h N 1010.4 hPa 22 mm
05 mai 23:04 11.4°C 89% 0.0 km/h N 1010.5 hPa 21.8 mm
05 mai 23:03 11.4°C 89% 0.0 km/h N 1010.5 hPa 21.8 mm
05 mai 23:02 11.4°C 89% 0.0 km/h N 1010.5 hPa 21.8 mm
05 mai 23:01 11.4°C 89% 0.0 km/h N 1010.5 hPa 21.8 mm
05 mai 22:59 11.4°C 89% 0.0 km/h N 1010.5 hPa 21.8 mm
05 mai 22:58 11.4°C 89% 0.0 km/h N 1010.5 hPa 21.8 mm
05 mai 22:57 11.4°C 89% 0.0 km/h N 1010.5 hPa 21.8 mm
05 mai 22:56 11.4°C 89% 0.0 km/h N 1010.5 hPa 21.8 mm
05 mai 22:55 11.4°C 89% 0.0 km/h N 1010.5 hPa 21.8 mm
05 mai 22:54 11.6°C 88% 0.0 km/h N 1010.5 hPa 21.7 mm
05 mai 22:53 11.6°C 88% 0.0 km/h N 1010.5 hPa 21.7 mm
05 mai 22:52 11.6°C 88% 0.0 km/h N 1010.5 hPa 21.7 mm
05 mai 22:51 11.6°C 88% 0.0 km/h N 1010.5 hPa 21.7 mm
05 mai 22:50 11.6°C 88% 0.0 km/h N 1010.5 hPa 21.7 mm
05 mai 22:49 11.6°C 88% 0.0 km/h N 1010.5 hPa 21.7 mm
05 mai 22:48 11.6°C 88% 0.0 km/h N 1010.5 hPa 21.7 mm
05 mai 22:47 11.6°C 88% 0.0 km/h N 1010.5 hPa 21.7 mm
05 mai 22:46 11.6°C 88% 0.0 km/h N 1010.5 hPa 21.7 mm
05 mai 22:45 11.6°C 88% 0.0 km/h N 1010.5 hPa 21.7 mm
05 mai 22:44 11.6°C 87% 0.0 km/h N 1010.3 hPa 21.5 mm
05 mai 22:43 11.6°C 87% 0.0 km/h N 1010.3 hPa 21.5 mm
05 mai 22:42 11.6°C 87% 0.0 km/h N 1010.3 hPa 21.5 mm
05 mai 22:41 11.6°C 87% 0.0 km/h N 1010.3 hPa 21.5 mm
05 mai 22:40 11.6°C 87% 0.0 km/h N 1010.3 hPa 21.5 mm
05 mai 22:39 11.6°C 87% 0.0 km/h N 1010.3 hPa 21.5 mm
05 mai 22:38 11.6°C 87% 0.0 km/h N 1010.3 hPa 21.5 mm
05 mai 22:37 11.6°C 87% 0.0 km/h N 1010.3 hPa 21.5 mm
05 mai 22:36 11.6°C 87% 0.0 km/h N 1010.3 hPa 21.5 mm
05 mai 22:35 11.6°C 87% 0.0 km/h N 1010.3 hPa 21.5 mm
05 mai 22:34 11.6°C 87% 0.0 km/h N 1010.0 hPa 21.5 mm
05 mai 22:33 11.6°C 87% 0.0 km/h N 1010.0 hPa 21.5 mm
05 mai 22:32 11.6°C 87% 0.0 km/h N 1010.0 hPa 21.5 mm
05 mai 22:31 11.6°C 87% 0.0 km/h N 1010.0 hPa 21.5 mm
05 mai 22:30 11.6°C 87% 0.0 km/h N 1010.0 hPa 21.5 mm
05 mai 22:29 11.6°C 87% 0.0 km/h N 1010.0 hPa 21.5 mm
05 mai 22:28 11.6°C 87% 0.0 km/h N 1010.0 hPa 21.5 mm
05 mai 22:27 11.6°C 87% 0.0 km/h N 1010.0 hPa 21.5 mm
05 mai 22:26 11.6°C 87% 0.0 km/h N 1010.0 hPa 21.5 mm
05 mai 22:25 11.6°C 87% 0.0 km/h N 1010.0 hPa 21.5 mm
05 mai 22:24 11.6°C 87% 0.0 km/h N 1009.8 hPa 21.5 mm
05 mai 22:23 11.6°C 87% 0.0 km/h N 1009.8 hPa 21.5 mm
05 mai 22:22 11.6°C 87% 0.0 km/h N 1009.8 hPa 21.5 mm
05 mai 22:21 11.6°C 87% 0.0 km/h N 1009.8 hPa 21.5 mm
05 mai 22:20 11.6°C 87% 0.0 km/h N 1009.8 hPa 21.5 mm
05 mai 22:19 11.6°C 87% 0.0 km/h N 1009.8 hPa 21.5 mm
05 mai 22:18 11.6°C 87% 0.0 km/h N 1009.8 hPa 21.5 mm
05 mai 22:17 11.6°C 87% 0.0 km/h N 1009.8 hPa 21.5 mm
05 mai 22:16 11.6°C 87% 0.0 km/h N 1009.8 hPa 21.5 mm
05 mai 22:15 11.6°C 87% 0.0 km/h N 1009.8 hPa 21.5 mm
05 mai 22:14 11.8°C 86% 0.0 km/h N 1009.7 hPa 21.4 mm
05 mai 22:13 11.8°C 86% 0.0 km/h N 1009.7 hPa 21.4 mm
05 mai 22:12 11.8°C 86% 0.0 km/h N 1009.7 hPa 21.4 mm
05 mai 22:11 11.8°C 86% 0.0 km/h N 1009.7 hPa 21.4 mm
05 mai 22:10 11.8°C 86% 0.0 km/h N 1009.7 hPa 21.4 mm
05 mai 22:09 11.8°C 86% 0.0 km/h N 1009.7 hPa 21.4 mm
05 mai 22:08 11.8°C 86% 0.0 km/h N 1009.7 hPa 21.4 mm
05 mai 22:07 11.8°C 86% 0.0 km/h N 1009.7 hPa 21.4 mm
05 mai 22:06 11.8°C 86% 0.0 km/h N 1009.7 hPa 21.4 mm
05 mai 22:05 11.8°C 86% 0.0 km/h N 1009.7 hPa 21.4 mm
05 mai 22:04 12.0°C 85% 0.0 km/h N 1009.5 hPa 21.4 mm
05 mai 22:03 12.0°C 85% 0.0 km/h N 1009.5 hPa 21.4 mm
05 mai 22:02 12.0°C 85% 0.0 km/h N 1009.5 hPa 21.4 mm
05 mai 22:01 12.0°C 85% 0.0 km/h N 1009.5 hPa 21.4 mm
05 mai 22:00 12.0°C 85% 0.0 km/h N 1009.5 hPa 21.4 mm
05 mai 21:59 12.0°C 85% 0.0 km/h N 1009.5 hPa 21.4 mm
05 mai 21:58 12.0°C 85% 0.0 km/h N 1009.5 hPa 21.4 mm
05 mai 21:57 12.0°C 85% 0.0 km/h N 1009.5 hPa 21.4 mm
05 mai 21:56 12.0°C 85% 0.0 km/h N 1009.5 hPa 21.4 mm
05 mai 21:55 12.0°C 85% 0.0 km/h N 1009.5 hPa 21.4 mm
05 mai 21:54 12.5°C 83% 0.0 km/h N 1009.3 hPa 21.3 mm
05 mai 21:53 12.5°C 83% 0.0 km/h N 1009.3 hPa 21.3 mm
05 mai 21:52 12.5°C 83% 0.0 km/h N 1009.3 hPa 21.3 mm
05 mai 21:51 12.5°C 83% 0.0 km/h N 1009.3 hPa 21.3 mm
05 mai 21:50 12.5°C 83% 0.0 km/h N 1009.3 hPa 21.3 mm
05 mai 21:49 12.5°C 83% 0.0 km/h N 1009.3 hPa 21.3 mm
05 mai 21:48 12.5°C 83% 0.0 km/h N 1009.3 hPa 21.3 mm
05 mai 21:47 12.5°C 83% 0.0 km/h N 1009.3 hPa 21.3 mm
05 mai 21:46 12.5°C 83% 0.0 km/h N 1009.3 hPa 21.3 mm
05 mai 21:45 12.5°C 83% 0.0 km/h N 1009.3 hPa 21.3 mm
05 mai 21:44 12.5°C 83% 0.0 km/h N 1009.3 hPa 21.3 mm
05 mai 21:43 12.8°C 81% 0.0 km/h N 1009.4 hPa 21.2 mm
05 mai 21:42 12.8°C 81% 0.0 km/h N 1009.4 hPa 21.2 mm
05 mai 21:41 12.8°C 81% 0.0 km/h N 1009.4 hPa 21.2 mm
05 mai 21:40 12.8°C 81% 0.0 km/h N 1009.4 hPa 21.2 mm
05 mai 21:39 12.8°C 81% 0.0 km/h N 1009.4 hPa 21.2 mm
05 mai 21:38 12.8°C 81% 0.0 km/h N 1009.4 hPa 21.2 mm
05 mai 21:37 12.8°C 81% 0.0 km/h N 1009.4 hPa 21.2 mm
05 mai 21:36 13.4°C 79% 0.0 km/h N 1008.8 hPa 21.1 mm
05 mai 21:35 13.4°C 79% 0.0 km/h N 1008.8 hPa 21.1 mm
05 mai 21:34 13.4°C 79% 0.0 km/h N 1008.8 hPa 21.1 mm
05 mai 21:33 13.4°C 79% 0.0 km/h N 1008.8 hPa 21.1 mm
05 mai 21:32 13.4°C 79% 0.0 km/h N 1008.8 hPa 21.1 mm
05 mai 21:31 13.4°C 79% 0.0 km/h N 1008.8 hPa 21.1 mm
05 mai 21:30 13.4°C 79% 0.0 km/h N 1008.8 hPa 21.1 mm
05 mai 21:29 13.4°C 79% 0.0 km/h N 1008.8 hPa 21.1 mm
05 mai 21:28 13.4°C 79% 0.0 km/h N 1008.8 hPa 21.1 mm
05 mai 21:27 13.4°C 79% 0.0 km/h N 1008.8 hPa 21.1 mm
05 mai 21:26 13.7°C 77% 0.0 km/h N 1008.7 hPa 21 mm
05 mai 21:25 13.7°C 77% 0.0 km/h N 1008.7 hPa 21 mm
05 mai 21:24 13.7°C 77% 0.0 km/h N 1008.7 hPa 21 mm
05 mai 21:23 13.7°C 77% 0.0 km/h N 1008.7 hPa 21 mm
05 mai 21:22 13.7°C 77% 0.0 km/h N 1008.7 hPa 21 mm
05 mai 21:21 13.7°C 77% 0.0 km/h N 1008.7 hPa 21 mm
05 mai 21:20 13.7°C 77% 0.0 km/h N 1008.7 hPa 21 mm
05 mai 21:19 13.7°C 77% 0.0 km/h N 1008.7 hPa 21 mm
05 mai 21:18 13.7°C 77% 0.0 km/h N 1008.7 hPa 21 mm
05 mai 21:17 13.7°C 77% 0.0 km/h N 1008.7 hPa 21 mm
05 mai 21:16 13.9°C 80% 0.0 km/h N 1008.5 hPa 21 mm
05 mai 21:15 13.9°C 80% 0.0 km/h N 1008.5 hPa 21 mm
05 mai 21:14 13.9°C 80% 0.0 km/h N 1008.5 hPa 21 mm
05 mai 21:13 13.9°C 80% 0.0 km/h N 1008.5 hPa 21 mm
05 mai 21:12 13.9°C 80% 0.0 km/h N 1008.5 hPa 21 mm
05 mai 21:11 13.9°C 80% 0.0 km/h N 1008.5 hPa 21 mm
05 mai 21:10 13.9°C 80% 0.0 km/h N 1008.5 hPa 21 mm
05 mai 21:09 13.9°C 80% 0.0 km/h N 1008.5 hPa 21 mm
05 mai 21:08 13.9°C 80% 0.0 km/h N 1008.5 hPa 21 mm
05 mai 21:07 13.9°C 80% 0.0 km/h N 1008.5 hPa 21 mm
05 mai 21:06 13.9°C 80% 0.0 km/h N 1008.5 hPa 21 mm
05 mai 21:05 14.1°C 77% 0.0 km/h N 1008.0 hPa 21 mm
05 mai 21:04 14.1°C 77% 0.0 km/h N 1008.0 hPa 21 mm
05 mai 21:03 14.1°C 77% 0.0 km/h N 1008.0 hPa 21 mm
05 mai 21:02 14.1°C 77% 0.0 km/h N 1008.0 hPa 21 mm
05 mai 21:01 14.1°C 77% 0.0 km/h N 1008.0 hPa 21 mm
05 mai 21:00 14.1°C 77% 0.0 km/h N 1008.0 hPa 21 mm
05 mai 20:59 14.1°C 77% 0.0 km/h N 1008.0 hPa 21 mm
05 mai 20:58 14.1°C 77% 0.0 km/h N 1008.0 hPa 21 mm
05 mai 20:57 14.1°C 77% 0.0 km/h N 1008.0 hPa 21 mm
05 mai 20:56 14.1°C 77% 0.0 km/h N 1008.0 hPa 21 mm
05 mai 20:55 14.3°C 75% 0.0 km/h N 1007.8 hPa 21 mm
05 mai 20:54 14.3°C 75% 0.0 km/h N 1007.8 hPa 21 mm
05 mai 20:53 14.3°C 75% 0.0 km/h N 1007.8 hPa 21 mm
05 mai 20:52 14.3°C 75% 0.0 km/h N 1007.8 hPa 21 mm
05 mai 20:51 14.3°C 75% 0.0 km/h N 1007.8 hPa 21 mm
05 mai 20:50 14.3°C 75% 0.0 km/h N 1007.8 hPa 21 mm
05 mai 20:49 14.3°C 75% 0.0 km/h N 1007.8 hPa 21 mm
05 mai 20:48 14.3°C 75% 0.0 km/h N 1007.8 hPa 21 mm
05 mai 20:47 14.3°C 75% 0.0 km/h N 1007.8 hPa 21 mm
05 mai 20:46 14.3°C 75% 0.0 km/h N 1007.8 hPa 21 mm
05 mai 20:45 14.5°C 75% 0.0 km/h N 1008.0 hPa 21 mm
05 mai 20:44 14.5°C 75% 0.0 km/h N 1008.0 hPa 21 mm
05 mai 20:43 14.5°C 75% 0.0 km/h N 1008.0 hPa 21 mm
05 mai 20:42 14.5°C 75% 0.0 km/h N 1008.0 hPa 21 mm
05 mai 20:41 14.5°C 75% 0.0 km/h N 1008.0 hPa 21 mm
05 mai 20:40 14.5°C 75% 0.0 km/h N 1008.0 hPa 21 mm
05 mai 20:39 14.5°C 75% 0.0 km/h N 1008.0 hPa 21 mm
05 mai 20:38 14.5°C 75% 0.0 km/h N 1008.0 hPa 21 mm
05 mai 20:37 14.5°C 75% 0.0 km/h N 1008.0 hPa 21 mm
05 mai 20:36 14.5°C 75% 0.0 km/h N 1008.0 hPa 21 mm
05 mai 20:35 14.6°C 77% 0.0 km/h N 1008.0 hPa 21 mm
05 mai 20:34 14.6°C 77% 0.0 km/h N 1008.0 hPa 21 mm
05 mai 20:33 14.6°C 77% 0.0 km/h N 1008.0 hPa 21 mm
05 mai 20:32 14.6°C 77% 0.0 km/h N 1008.0 hPa 21 mm
05 mai 20:31 14.6°C 77% 0.0 km/h N 1008.0 hPa 21 mm
05 mai 20:30 14.6°C 77% 0.0 km/h N 1008.0 hPa 21 mm
05 mai 20:29 14.6°C 77% 0.0 km/h N 1008.0 hPa 21 mm
05 mai 20:28 14.6°C 77% 0.0 km/h N 1008.0 hPa 21 mm
05 mai 20:27 14.6°C 77% 0.0 km/h N 1008.0 hPa 21 mm
05 mai 20:26 14.6°C 77% 0.0 km/h N 1008.0 hPa 21 mm
05 mai 20:25 14.6°C 79% 0.0 km/h N 1007.8 hPa 21 mm
05 mai 20:24 14.6°C 79% 0.0 km/h N 1007.8 hPa 21 mm
05 mai 20:23 14.6°C 79% 0.0 km/h N 1007.8 hPa 21 mm
05 mai 20:22 14.6°C 79% 0.0 km/h N 1007.8 hPa 21 mm
05 mai 20:21 14.6°C 79% 0.0 km/h N 1007.8 hPa 21 mm
05 mai 20:20 14.6°C 79% 0.0 km/h N 1007.8 hPa 21 mm
05 mai 20:19 14.6°C 79% 0.0 km/h N 1007.8 hPa 21 mm
05 mai 20:18 14.6°C 79% 0.0 km/h N 1007.8 hPa 21 mm
05 mai 20:17 14.6°C 79% 0.0 km/h N 1007.8 hPa 21 mm
05 mai 20:16 14.6°C 79% 0.0 km/h N 1007.8 hPa 21 mm
05 mai 20:15 14.8°C 81% 0.0 km/h N 1007.6 hPa 21 mm
05 mai 20:14 14.8°C 81% 0.0 km/h N 1007.6 hPa 21 mm
05 mai 20:13 14.8°C 81% 0.0 km/h N 1007.6 hPa 21 mm
05 mai 20:12 14.8°C 81% 0.0 km/h N 1007.6 hPa 21 mm
05 mai 20:11 14.8°C 81% 0.0 km/h N 1007.6 hPa 21 mm
05 mai 20:10 14.8°C 81% 0.0 km/h N 1007.6 hPa 21 mm
05 mai 20:09 14.8°C 81% 0.0 km/h N 1007.6 hPa 21 mm
05 mai 20:08 14.8°C 81% 0.0 km/h N 1007.6 hPa 21 mm
05 mai 20:07 14.8°C 81% 0.0 km/h N 1007.6 hPa 21 mm
05 mai 20:06 14.8°C 81% 0.0 km/h N 1007.6 hPa 21 mm
05 mai 20:05 14.9°C 79% 0.0 km/h N 1007.9 hPa 21 mm
05 mai 20:04 14.9°C 79% 0.0 km/h N 1007.9 hPa 21 mm
05 mai 20:03 14.9°C 79% 0.0 km/h N 1007.9 hPa 21 mm
05 mai 20:02 14.9°C 79% 0.0 km/h N 1007.9 hPa 21 mm
05 mai 20:01 14.9°C 79% 0.0 km/h N 1007.9 hPa 21 mm
05 mai 20:00 14.9°C 79% 0.0 km/h N 1007.9 hPa 21 mm
05 mai 19:59 14.9°C 79% 0.0 km/h N 1007.9 hPa 21 mm
05 mai 19:58 14.9°C 79% 0.0 km/h N 1007.9 hPa 21 mm
05 mai 19:57 14.9°C 79% 0.0 km/h N 1007.9 hPa 21 mm
05 mai 19:56 14.9°C 79% 0.0 km/h N 1007.9 hPa 21 mm
05 mai 19:55 15.1°C 78% 0.0 km/h N 1007.9 hPa 21 mm
05 mai 19:54 15.1°C 78% 0.0 km/h N 1007.9 hPa 21 mm
05 mai 19:53 15.1°C 78% 0.0 km/h N 1007.9 hPa 21 mm
05 mai 19:52 15.1°C 78% 0.0 km/h N 1007.9 hPa 21 mm
05 mai 19:51 15.1°C 78% 0.0 km/h N 1007.9 hPa 21 mm
05 mai 19:50 15.1°C 78% 0.0 km/h N 1007.9 hPa 21 mm
05 mai 19:49 15.1°C 78% 0.0 km/h N 1007.9 hPa 21 mm
05 mai 19:48 15.1°C 78% 0.0 km/h N 1007.9 hPa 21 mm
05 mai 19:47 15.1°C 78% 0.0 km/h N 1007.9 hPa 21 mm
05 mai 19:46 15.1°C 78% 0.0 km/h N 1007.9 hPa 21 mm
05 mai 19:45 15.1°C 78% 0.0 km/h N 1007.9 hPa 21 mm
05 mai 19:44 15.1°C 78% 0.0 km/h N 1007.9 hPa 21 mm
05 mai 19:43 15.1°C 78% 0.0 km/h N 1007.9 hPa 21 mm
05 mai 19:42 15.1°C 78% 0.0 km/h N 1007.9 hPa 21 mm
05 mai 19:41 15.1°C 78% 0.0 km/h N 1007.9 hPa 21 mm
05 mai 19:40 15.1°C 78% 0.0 km/h N 1007.9 hPa 21 mm
05 mai 19:39 15.1°C 78% 0.0 km/h N 1007.9 hPa 21 mm
05 mai 19:38 15.1°C 78% 0.0 km/h N 1007.9 hPa 21 mm
05 mai 19:37 15.1°C 78% 0.0 km/h N 1007.9 hPa 21 mm
05 mai 19:36 15.1°C 78% 0.0 km/h N 1007.9 hPa 21 mm
05 mai 19:35 15.2°C 78% 0.0 km/h N 1007.9 hPa 21 mm
05 mai 19:34 15.2°C 78% 0.0 km/h N 1007.9 hPa 21 mm
05 mai 19:33 15.2°C 78% 0.0 km/h N 1007.9 hPa 21 mm
05 mai 19:32 15.2°C 78% 0.0 km/h N 1007.9 hPa 21 mm
05 mai 19:31 15.2°C 78% 0.0 km/h N 1007.9 hPa 21 mm
05 mai 19:30 15.2°C 78% 0.0 km/h N 1007.9 hPa 21 mm
05 mai 19:29 15.2°C 78% 0.0 km/h N 1007.9 hPa 21 mm
05 mai 19:28 15.2°C 78% 0.0 km/h N 1007.9 hPa 21 mm
05 mai 19:27 15.2°C 78% 0.0 km/h N 1007.9 hPa 21 mm
05 mai 19:26 15.2°C 78% 0.0 km/h N 1007.9 hPa 21 mm
05 mai 19:25 15.2°C 78% 0.0 km/h N 1007.9 hPa 21 mm
05 mai 19:24 15.2°C 78% 0.0 km/h N 1007.9 hPa 21 mm
05 mai 19:23 15.2°C 78% 0.0 km/h N 1007.9 hPa 21 mm
05 mai 19:22 15.2°C 78% 0.0 km/h N 1007.9 hPa 21 mm
05 mai 19:21 15.2°C 78% 0.0 km/h N 1007.9 hPa 21 mm
05 mai 19:20 15.2°C 78% 0.0 km/h N 1007.9 hPa 21 mm
05 mai 19:19 15.2°C 78% 0.0 km/h N 1007.9 hPa 21 mm
05 mai 19:18 15.2°C 78% 0.0 km/h N 1007.9 hPa 21 mm
05 mai 19:17 15.2°C 78% 0.0 km/h N 1007.9 hPa 21 mm
05 mai 19:16 15.2°C 78% 0.0 km/h N 1007.9 hPa 21 mm
05 mai 19:15 15.2°C 78% 0.0 km/h N 1007.9 hPa 21 mm
05 mai 19:14 15.1°C 78% 0.0 km/h N 1007.9 hPa 21 mm
05 mai 19:13 15.1°C 78% 0.0 km/h N 1007.9 hPa 21 mm
05 mai 19:12 15.1°C 78% 0.0 km/h N 1007.9 hPa 21 mm
05 mai 19:11 15.1°C 78% 0.0 km/h N 1007.9 hPa 21 mm
05 mai 19:10 15.1°C 78% 0.0 km/h N 1007.9 hPa 21 mm
05 mai 19:09 15.1°C 78% 0.0 km/h N 1007.9 hPa 21 mm
05 mai 19:08 15.1°C 78% 0.0 km/h N 1007.9 hPa 21 mm
05 mai 19:07 15.1°C 78% 0.0 km/h N 1007.9 hPa 21 mm
05 mai 19:06 15.1°C 78% 0.0 km/h N 1007.9 hPa 21 mm
05 mai 19:05 15.1°C 78% 0.0 km/h N 1007.9 hPa 21 mm
05 mai 19:04 15.1°C 82% 0.0 km/h N 1007.9 hPa 21 mm
05 mai 19:03 15.1°C 82% 0.0 km/h N 1007.9 hPa 21 mm
05 mai 19:02 15.1°C 82% 0.0 km/h N 1007.9 hPa 21 mm
05 mai 19:01 15.1°C 82% 0.0 km/h N 1007.9 hPa 21 mm
05 mai 18:59 15.1°C 82% 0.0 km/h N 1007.9 hPa 21 mm
05 mai 18:58 15.1°C 82% 0.0 km/h N 1007.9 hPa 21 mm
05 mai 18:57 15.1°C 82% 0.0 km/h N 1007.9 hPa 21 mm
05 mai 18:56 15.1°C 82% 0.0 km/h N 1007.9 hPa 21 mm
05 mai 18:55 15.1°C 82% 0.0 km/h N 1007.9 hPa 21 mm
05 mai 18:54 15.1°C 83% 0.0 km/h N 1008.1 hPa 21 mm
05 mai 18:53 15.1°C 83% 0.0 km/h N 1008.1 hPa 21 mm
05 mai 18:52 15.1°C 83% 0.0 km/h N 1008.1 hPa 21 mm
05 mai 18:51 15.1°C 83% 0.0 km/h N 1008.1 hPa 21 mm
05 mai 18:50 15.1°C 83% 0.0 km/h N 1008.1 hPa 21 mm
05 mai 18:49 15.1°C 83% 0.0 km/h N 1008.1 hPa 21 mm
05 mai 18:48 15.1°C 83% 0.0 km/h N 1008.1 hPa 21 mm
05 mai 18:47 15.1°C 83% 0.0 km/h N 1008.1 hPa 21 mm
05 mai 18:46 15.1°C 83% 0.0 km/h N 1008.1 hPa 21 mm
05 mai 18:45 15.1°C 83% 0.0 km/h N 1008.1 hPa 21 mm
05 mai 18:44 15.2°C 83% 0.0 km/h N 1008.4 hPa 21 mm
05 mai 18:43 15.2°C 83% 0.0 km/h N 1008.4 hPa 21 mm
05 mai 18:42 15.2°C 83% 0.0 km/h N 1008.4 hPa 21 mm
05 mai 18:41 15.2°C 83% 0.0 km/h N 1008.4 hPa 21 mm
05 mai 18:40 15.2°C 83% 0.0 km/h N 1008.4 hPa 21 mm
05 mai 18:39 15.2°C 83% 0.0 km/h N 1008.4 hPa 21 mm
05 mai 18:38 15.2°C 83% 0.0 km/h N 1008.4 hPa 21 mm
05 mai 18:37 15.2°C 83% 0.0 km/h N 1008.4 hPa 21 mm
05 mai 18:36 15.2°C 83% 0.0 km/h N 1008.4 hPa 21 mm
05 mai 18:35 15.2°C 83% 0.0 km/h N 1008.4 hPa 21 mm
05 mai 18:34 15.4°C 83% 0.0 km/h N 1008.5 hPa 21 mm
05 mai 18:33 15.4°C 83% 0.0 km/h N 1008.5 hPa 21 mm
05 mai 18:32 15.4°C 83% 0.0 km/h N 1008.5 hPa 21 mm
05 mai 18:31 15.4°C 83% 0.0 km/h N 1008.5 hPa 21 mm
05 mai 18:30 15.4°C 83% 0.0 km/h N 1008.5 hPa 21 mm
05 mai 18:29 15.4°C 83% 0.0 km/h N 1008.5 hPa 21 mm
05 mai 18:28 15.4°C 83% 0.0 km/h N 1008.5 hPa 21 mm
05 mai 18:27 15.4°C 83% 0.0 km/h N 1008.5 hPa 21 mm
05 mai 18:26 15.4°C 83% 0.0 km/h N 1008.5 hPa 21 mm
05 mai 18:25 15.4°C 83% 0.0 km/h N 1008.5 hPa 21 mm
05 mai 18:24 15.5°C 83% 0.0 km/h N 1008.6 hPa 21 mm
05 mai 18:23 15.5°C 83% 0.0 km/h N 1008.6 hPa 21 mm
05 mai 18:22 15.5°C 83% 0.0 km/h N 1008.6 hPa 21 mm
05 mai 18:21 15.5°C 83% 0.0 km/h N 1008.6 hPa 21 mm
05 mai 18:20 15.5°C 83% 0.0 km/h N 1008.6 hPa 21 mm
05 mai 18:19 15.5°C 83% 0.0 km/h N 1008.6 hPa 21 mm
05 mai 18:18 15.5°C 83% 0.0 km/h N 1008.6 hPa 21 mm
05 mai 18:17 15.5°C 83% 0.0 km/h N 1008.6 hPa 21 mm
05 mai 18:16 15.5°C 83% 0.0 km/h N 1008.6 hPa 21 mm
05 mai 18:15 15.5°C 83% 0.0 km/h N 1008.6 hPa 21 mm
05 mai 18:14 15.6°C 82% 0.0 km/h N 1008.7 hPa 21 mm
05 mai 18:13 15.6°C 82% 0.0 km/h N 1008.7 hPa 21 mm
05 mai 18:12 15.6°C 82% 0.0 km/h N 1008.7 hPa 21 mm
05 mai 18:11 15.6°C 82% 0.0 km/h N 1008.7 hPa 21 mm
05 mai 18:10 15.6°C 82% 0.0 km/h N 1008.7 hPa 21 mm
05 mai 18:09 15.6°C 82% 0.0 km/h N 1008.7 hPa 21 mm
05 mai 18:08 15.6°C 82% 0.0 km/h N 1008.7 hPa 21 mm
05 mai 18:07 15.6°C 82% 0.0 km/h N 1008.7 hPa 21 mm
05 mai 18:06 15.6°C 82% 0.0 km/h N 1008.7 hPa 21 mm
05 mai 18:05 15.6°C 82% 0.0 km/h N 1008.7 hPa 21 mm
05 mai 18:04 15.8°C 81% 0.0 km/h N 1008.8 hPa 21 mm
05 mai 18:03 15.8°C 81% 0.0 km/h N 1008.8 hPa 21 mm
05 mai 18:02 15.8°C 81% 0.0 km/h N 1008.8 hPa 21 mm
05 mai 18:01 15.8°C 81% 0.0 km/h N 1008.8 hPa 21 mm
05 mai 17:59 15.8°C 81% 0.0 km/h N 1008.8 hPa 21 mm
05 mai 17:58 15.8°C 81% 0.0 km/h N 1008.8 hPa 21 mm
05 mai 17:57 15.8°C 81% 0.0 km/h N 1008.8 hPa 21 mm
05 mai 17:56 15.8°C 81% 0.0 km/h N 1008.8 hPa 21 mm
05 mai 17:55 15.8°C 81% 0.0 km/h N 1008.8 hPa 21 mm
05 mai 17:54 16.0°C 80% 0.0 km/h N 1008.7 hPa 21 mm
05 mai 17:53 16.0°C 80% 0.0 km/h N 1008.7 hPa 21 mm
05 mai 17:52 16.0°C 80% 0.0 km/h N 1008.7 hPa 21 mm
05 mai 17:51 16.0°C 80% 0.0 km/h N 1008.7 hPa 21 mm
05 mai 17:50 16.0°C 80% 0.0 km/h N 1008.7 hPa 21 mm
05 mai 17:49 16.0°C 80% 0.0 km/h N 1008.7 hPa 21 mm
05 mai 17:48 16.0°C 80% 0.0 km/h N 1008.7 hPa 21 mm
05 mai 17:47 16.0°C 80% 0.0 km/h N 1008.7 hPa 21 mm
05 mai 17:46 16.0°C 80% 0.0 km/h N 1008.7 hPa 21 mm
05 mai 17:45 16.0°C 80% 0.0 km/h N 1008.7 hPa 21 mm
05 mai 17:44 16.2°C 78% 0.0 km/h N 1008.7 hPa 21 mm
05 mai 17:43 16.2°C 78% 0.0 km/h N 1008.7 hPa 21 mm
05 mai 17:42 16.2°C 78% 0.0 km/h N 1008.7 hPa 21 mm
05 mai 17:41 16.2°C 78% 0.0 km/h N 1008.7 hPa 21 mm
05 mai 17:40 16.2°C 78% 0.0 km/h N 1008.7 hPa 21 mm
05 mai 17:39 16.2°C 78% 0.0 km/h N 1008.7 hPa 21 mm
05 mai 17:38 16.2°C 78% 0.0 km/h N 1008.7 hPa 21 mm
05 mai 17:37 16.2°C 78% 0.0 km/h N 1008.7 hPa 21 mm
05 mai 17:36 16.2°C 78% 0.0 km/h N 1008.7 hPa 21 mm
05 mai 17:35 16.2°C 78% 0.0 km/h N 1008.7 hPa 21 mm
05 mai 17:34 16.2°C 78% 0.0 km/h N 1008.7 hPa 21 mm
05 mai 17:33 16.6°C 77% 0.0 km/h N 1008.8 hPa 21 mm
05 mai 17:32 16.6°C 77% 0.0 km/h N 1008.8 hPa 21 mm
05 mai 17:31 16.6°C 77% 0.0 km/h N 1008.8 hPa 21 mm
05 mai 17:30 16.6°C 77% 0.0 km/h N 1008.8 hPa 21 mm
05 mai 17:29 16.6°C 77% 0.0 km/h N 1008.8 hPa 21 mm
05 mai 17:28 16.6°C 77% 0.0 km/h N 1008.8 hPa 21 mm
05 mai 17:27 16.6°C 77% 0.0 km/h N 1008.8 hPa 21 mm
05 mai 17:26 16.6°C 77% 0.0 km/h N 1008.8 hPa 21 mm
05 mai 17:25 16.6°C 77% 0.0 km/h N 1008.8 hPa 21 mm
05 mai 17:24 16.6°C 77% 0.0 km/h N 1008.8 hPa 21 mm
05 mai 17:23 17.2°C 75% 0.0 km/h N 1008.9 hPa 21 mm
05 mai 17:22 17.2°C 75% 0.0 km/h N 1008.9 hPa 21 mm
05 mai 17:21 17.2°C 75% 0.0 km/h N 1008.9 hPa 21 mm
05 mai 17:20 17.2°C 75% 0.0 km/h N 1008.9 hPa 21 mm
05 mai 17:19 17.2°C 75% 0.0 km/h N 1008.9 hPa 21 mm
05 mai 17:18 17.2°C 75% 0.0 km/h N 1008.9 hPa 21 mm
05 mai 17:17 17.2°C 75% 0.0 km/h N 1008.9 hPa 21 mm
05 mai 17:16 17.2°C 75% 0.0 km/h N 1008.9 hPa 21 mm
05 mai 17:15 17.2°C 75% 0.0 km/h N 1008.9 hPa 21 mm
05 mai 17:14 17.2°C 75% 0.0 km/h N 1008.9 hPa 21 mm
05 mai 17:13 18.1°C 76% 0.0 km/h N 1008.9 hPa 21 mm
05 mai 17:12 18.1°C 76% 0.0 km/h N 1008.9 hPa 21 mm
05 mai 17:11 18.1°C 76% 0.0 km/h N 1008.9 hPa 21 mm
05 mai 17:10 18.1°C 76% 0.0 km/h N 1008.9 hPa 21 mm
05 mai 17:09 18.1°C 76% 0.0 km/h N 1008.9 hPa 21 mm
05 mai 17:08 18.1°C 76% 0.0 km/h N 1008.9 hPa 21 mm
05 mai 17:07 18.1°C 76% 0.0 km/h N 1008.9 hPa 21 mm
05 mai 17:06 18.1°C 76% 0.0 km/h N 1008.9 hPa 21 mm
05 mai 17:05 18.1°C 76% 0.0 km/h N 1008.9 hPa 21 mm
05 mai 17:04 18.1°C 76% 0.0 km/h N 1008.9 hPa 21 mm
05 mai 17:03 18.5°C 79% 0.0 km/h N 1008.7 hPa 21 mm
05 mai 17:02 18.5°C 79% 0.0 km/h N 1008.7 hPa 21 mm
05 mai 17:01 18.5°C 79% 0.0 km/h N 1008.7 hPa 21 mm
05 mai 17:00 18.5°C 79% 0.0 km/h N 1008.7 hPa 21 mm
05 mai 16:59 18.5°C 79% 0.0 km/h N 1008.7 hPa 21 mm
05 mai 16:58 18.5°C 79% 0.0 km/h N 1008.7 hPa 21 mm
05 mai 16:57 18.5°C 79% 0.0 km/h N 1008.7 hPa 21 mm
05 mai 16:56 18.5°C 79% 0.0 km/h N 1008.7 hPa 21 mm
05 mai 16:55 18.5°C 79% 0.0 km/h N 1008.7 hPa 21 mm
05 mai 16:54 18.5°C 79% 0.0 km/h N 1008.7 hPa 21 mm
05 mai 16:53 17.9°C 80% 0.0 km/h N 1008.5 hPa 21 mm
05 mai 16:52 17.9°C 80% 0.0 km/h N 1008.5 hPa 21 mm
05 mai 16:51 17.9°C 80% 0.0 km/h N 1008.5 hPa 21 mm
05 mai 16:50 17.9°C 80% 0.0 km/h N 1008.5 hPa 21 mm
05 mai 16:49 17.9°C 80% 0.0 km/h N 1008.5 hPa 21 mm
05 mai 16:48 17.9°C 80% 0.0 km/h N 1008.5 hPa 21 mm
05 mai 16:47 17.9°C 80% 0.0 km/h N 1008.5 hPa 21 mm
05 mai 16:46 17.9°C 80% 0.0 km/h N 1008.5 hPa 21 mm
05 mai 16:45 17.7°C 81% 0.0 km/h N 1008.5 hPa 21 mm
05 mai 16:44 17.7°C 81% 0.0 km/h N 1008.5 hPa 21 mm
05 mai 16:43 17.7°C 81% 0.0 km/h N 1008.5 hPa 21 mm
05 mai 16:42 17.7°C 81% 0.0 km/h N 1008.5 hPa 21 mm
05 mai 16:41 17.7°C 81% 0.0 km/h N 1008.5 hPa 21 mm
05 mai 16:40 17.7°C 81% 0.0 km/h N 1008.5 hPa 21 mm
05 mai 16:39 17.7°C 81% 0.0 km/h N 1008.5 hPa 21 mm
05 mai 16:38 17.7°C 81% 0.0 km/h N 1008.5 hPa 21 mm
05 mai 16:37 17.7°C 81% 0.0 km/h N 1008.5 hPa 21 mm
05 mai 16:36 17.7°C 81% 0.0 km/h N 1008.5 hPa 21 mm
05 mai 16:35 17.7°C 81% 0.0 km/h N 1008.5 hPa 21 mm
05 mai 16:34 17.7°C 81% 0.0 km/h N 1008.5 hPa 21 mm
05 mai 16:33 17.4°C 83% 0.0 km/h N 1008.5 hPa 21 mm
05 mai 16:32 17.4°C 83% 0.0 km/h N 1008.5 hPa 21 mm
05 mai 16:31 17.4°C 83% 0.0 km/h N 1008.5 hPa 21 mm
05 mai 16:30 17.4°C 83% 0.0 km/h N 1008.5 hPa 21 mm
05 mai 16:29 17.4°C 83% 0.0 km/h N 1008.5 hPa 21 mm
05 mai 16:28 17.4°C 83% 0.0 km/h N 1008.5 hPa 21 mm
05 mai 16:27 17.4°C 83% 0.0 km/h N 1008.5 hPa 21 mm
05 mai 16:26 17.4°C 83% 0.0 km/h N 1008.5 hPa 21 mm
05 mai 16:25 17.4°C 83% 0.0 km/h N 1008.5 hPa 21 mm
05 mai 16:24 17.4°C 83% 0.0 km/h N 1008.5 hPa 21 mm
05 mai 16:23 17.0°C 86% 0.0 km/h N 1008.6 hPa 21 mm
05 mai 16:22 17.0°C 86% 0.0 km/h N 1008.6 hPa 21 mm
05 mai 16:21 17.0°C 86% 0.0 km/h N 1008.6 hPa 21 mm
05 mai 16:20 17.0°C 86% 0.0 km/h N 1008.6 hPa 21 mm
05 mai 16:19 17.0°C 86% 0.0 km/h N 1008.6 hPa 21 mm
05 mai 16:18 17.0°C 86% 0.0 km/h N 1008.6 hPa 21 mm
05 mai 16:17 17.0°C 86% 0.0 km/h N 1008.6 hPa 21 mm
05 mai 16:16 17.0°C 86% 0.0 km/h N 1008.6 hPa 21 mm
05 mai 16:15 17.0°C 86% 0.0 km/h N 1008.6 hPa 21 mm
05 mai 16:14 17.0°C 86% 0.0 km/h N 1008.6 hPa 21 mm
05 mai 16:13 16.3°C 88% 0.0 km/h N 1008.6 hPa 21 mm
05 mai 16:12 16.3°C 88% 0.0 km/h N 1008.6 hPa 21 mm
05 mai 16:11 16.3°C 88% 0.0 km/h N 1008.6 hPa 21 mm
05 mai 16:10 16.3°C 88% 0.0 km/h N 1008.6 hPa 21 mm
05 mai 16:09 16.3°C 88% 0.0 km/h N 1008.6 hPa 21 mm
05 mai 16:08 16.3°C 88% 0.0 km/h N 1008.6 hPa 21 mm
05 mai 16:07 16.3°C 88% 0.0 km/h N 1008.6 hPa 21 mm
05 mai 16:06 16.3°C 88% 0.0 km/h N 1008.6 hPa 21 mm
05 mai 16:05 16.3°C 88% 0.0 km/h N 1008.6 hPa 21 mm
05 mai 16:04 16.3°C 88% 0.0 km/h N 1008.6 hPa 21 mm
05 mai 16:03 16.0°C 87% 0.0 km/h N 1008.5 hPa 21 mm
05 mai 16:02 16.0°C 87% 0.0 km/h N 1008.5 hPa 21 mm
05 mai 16:01 16.0°C 87% 0.0 km/h N 1008.5 hPa 21 mm
05 mai 15:59 16.0°C 87% 0.0 km/h N 1008.5 hPa 21 mm
05 mai 15:58 16.0°C 87% 0.0 km/h N 1008.5 hPa 21 mm
05 mai 15:57 16.0°C 87% 0.0 km/h N 1008.5 hPa 21 mm
05 mai 15:56 16.0°C 87% 0.0 km/h N 1008.5 hPa 21 mm
05 mai 15:55 16.0°C 87% 0.0 km/h N 1008.5 hPa 21 mm
05 mai 15:54 16.0°C 87% 0.0 km/h N 1008.5 hPa 21 mm
05 mai 15:53 16.1°C 85% 0.0 km/h N 1008.8 hPa 21 mm
05 mai 15:52 16.1°C 85% 0.0 km/h N 1008.8 hPa 21 mm
05 mai 15:51 16.1°C 85% 0.0 km/h N 1008.8 hPa 21 mm
05 mai 15:50 16.1°C 85% 0.0 km/h N 1008.8 hPa 21 mm
05 mai 15:49 16.1°C 85% 0.0 km/h N 1008.8 hPa 21 mm
05 mai 15:48 16.1°C 85% 0.0 km/h N 1008.8 hPa 21 mm
05 mai 15:47 16.1°C 85% 0.0 km/h N 1008.8 hPa 21 mm
05 mai 15:46 16.1°C 85% 0.0 km/h N 1008.8 hPa 21 mm
05 mai 15:45 16.1°C 85% 0.0 km/h N 1008.8 hPa 21 mm
05 mai 15:44 16.1°C 85% 0.0 km/h N 1008.8 hPa 21 mm
05 mai 15:43 16.3°C 85% 0.0 km/h N 1008.9 hPa 21 mm
05 mai 15:41 16.3°C 85% 0.0 km/h N 1008.9 hPa 21 mm
05 mai 15:40 16.3°C 85% 0.0 km/h N 1008.9 hPa 21 mm
05 mai 15:39 16.3°C 85% 0.0 km/h N 1008.9 hPa 21 mm
05 mai 15:38 16.3°C 85% 0.0 km/h N 1008.9 hPa 21 mm
05 mai 15:37 16.3°C 85% 0.0 km/h N 1008.9 hPa 21 mm
05 mai 15:36 16.3°C 85% 0.0 km/h N 1008.9 hPa 21 mm
05 mai 15:35 16.3°C 85% 0.0 km/h N 1008.9 hPa 21 mm
05 mai 15:34 16.3°C 85% 0.0 km/h N 1008.9 hPa 21 mm
05 mai 15:33 16.3°C 85% 0.0 km/h N 1008.9 hPa 21 mm
05 mai 15:32 16.5°C 82% 0.0 km/h N 1008.9 hPa 21 mm
05 mai 15:31 16.5°C 82% 0.0 km/h N 1008.9 hPa 21 mm
05 mai 15:30 16.5°C 82% 0.0 km/h N 1008.9 hPa 21 mm
05 mai 15:29 16.5°C 82% 0.0 km/h N 1008.9 hPa 21 mm
05 mai 15:28 16.5°C 82% 0.0 km/h N 1008.9 hPa 21 mm
05 mai 15:27 16.5°C 82% 0.0 km/h N 1008.9 hPa 21 mm
05 mai 15:26 16.5°C 82% 0.0 km/h N 1008.9 hPa 21 mm
05 mai 15:25 16.5°C 82% 0.0 km/h N 1008.9 hPa 21 mm
05 mai 15:24 16.5°C 82% 0.0 km/h N 1008.9 hPa 21 mm
05 mai 15:23 16.5°C 82% 0.0 km/h N 1008.9 hPa 21 mm
05 mai 15:22 16.7°C 80% 0.0 km/h N 1009.0 hPa 21 mm
05 mai 15:21 16.7°C 80% 0.0 km/h N 1009.0 hPa 21 mm
05 mai 15:20 16.7°C 80% 0.0 km/h N 1009.0 hPa 21 mm
05 mai 15:19 16.7°C 80% 0.0 km/h N 1009.0 hPa 21 mm
05 mai 15:18 16.7°C 80% 0.0 km/h N 1009.0 hPa 21 mm
05 mai 15:17 16.7°C 80% 0.0 km/h N 1009.0 hPa 21 mm
05 mai 15:16 16.7°C 80% 0.0 km/h N 1009.0 hPa 21 mm
05 mai 15:15 16.7°C 80% 0.0 km/h N 1009.0 hPa 21 mm
05 mai 15:14 16.7°C 80% 0.0 km/h N 1009.0 hPa 21 mm
05 mai 15:13 16.7°C 80% 0.0 km/h N 1009.0 hPa 21 mm
05 mai 15:12 17.0°C 84% 0.0 km/h N 1009.0 hPa 21 mm
05 mai 15:11 17.0°C 84% 0.0 km/h N 1009.0 hPa 21 mm
05 mai 15:10 17.0°C 84% 0.0 km/h N 1009.0 hPa 21 mm
05 mai 15:09 17.0°C 84% 0.0 km/h N 1009.0 hPa 21 mm
05 mai 15:08 17.0°C 84% 0.0 km/h N 1009.0 hPa 21 mm
05 mai 15:07 17.0°C 84% 0.0 km/h N 1009.0 hPa 21 mm
05 mai 15:06 17.0°C 84% 0.0 km/h N 1009.0 hPa 21 mm
05 mai 15:05 17.0°C 84% 0.0 km/h N 1009.0 hPa 21 mm
05 mai 15:03 17.0°C 84% 0.0 km/h N 1009.0 hPa 21 mm
05 mai 15:02 17.0°C 84% 0.0 km/h N 1008.7 hPa 21 mm
05 mai 15:01 17.0°C 84% 0.0 km/h N 1008.7 hPa 21 mm
05 mai 15:00 17.0°C 84% 0.0 km/h N 1008.7 hPa 21 mm
05 mai 14:59 17.0°C 84% 0.0 km/h N 1008.7 hPa 21 mm
05 mai 14:58 17.0°C 84% 0.0 km/h N 1008.7 hPa 21 mm
05 mai 14:57 17.0°C 84% 0.0 km/h N 1008.7 hPa 21 mm
05 mai 14:56 17.0°C 84% 0.0 km/h N 1008.7 hPa 21 mm
05 mai 14:55 17.0°C 84% 0.0 km/h N 1008.7 hPa 21 mm
05 mai 14:54 17.0°C 84% 0.0 km/h N 1008.7 hPa 21 mm
05 mai 14:53 17.0°C 84% 0.0 km/h N 1008.7 hPa 21 mm
05 mai 14:52 17.4°C 85% 0.0 km/h N 1008.7 hPa 21 mm
05 mai 14:51 17.4°C 85% 0.0 km/h N 1008.7 hPa 21 mm
05 mai 14:50 17.4°C 85% 0.0 km/h N 1008.7 hPa 21 mm
05 mai 14:49 17.4°C 85% 0.0 km/h N 1008.7 hPa 21 mm
05 mai 14:48 17.4°C 85% 0.0 km/h N 1008.7 hPa 21 mm
05 mai 14:47 17.4°C 85% 0.0 km/h N 1008.7 hPa 21 mm
05 mai 14:46 17.4°C 85% 0.0 km/h N 1008.7 hPa 21 mm
05 mai 14:45 17.4°C 85% 0.0 km/h N 1008.7 hPa 21 mm
05 mai 14:44 17.4°C 85% 0.0 km/h N 1008.7 hPa 21 mm
05 mai 14:43 17.4°C 85% 0.0 km/h N 1008.7 hPa 21 mm
05 mai 14:42 17.1°C 89% 0.0 km/h N 1008.7 hPa 21 mm
05 mai 14:41 17.1°C 89% 0.0 km/h N 1008.7 hPa 21 mm
05 mai 14:40 17.1°C 89% 0.0 km/h N 1008.7 hPa 21 mm
05 mai 14:39 17.1°C 89% 0.0 km/h N 1008.7 hPa 21 mm
05 mai 14:38 17.1°C 89% 0.0 km/h N 1008.7 hPa 21 mm
05 mai 14:37 17.1°C 89% 0.0 km/h N 1008.7 hPa 21 mm
05 mai 14:36 17.1°C 89% 0.0 km/h N 1008.7 hPa 21 mm
05 mai 14:35 17.1°C 89% 0.0 km/h N 1008.7 hPa 21 mm
05 mai 14:34 17.1°C 89% 0.0 km/h N 1008.7 hPa 21 mm
05 mai 14:33 17.1°C 89% 0.0 km/h N 1008.7 hPa 21 mm
05 mai 14:32 17.1°C 99% 0.0 km/h N 1008.7 hPa 21 mm
05 mai 14:31 17.1°C 99% 0.0 km/h N 1008.7 hPa 21 mm
05 mai 14:30 17.1°C 99% 0.0 km/h N 1008.7 hPa 21 mm
05 mai 14:29 17.1°C 99% 0.0 km/h N 1008.7 hPa 21 mm
05 mai 14:28 17.1°C 99% 0.0 km/h N 1008.7 hPa 21 mm
05 mai 14:27 17.1°C 99% 0.0 km/h N 1008.7 hPa 21 mm
05 mai 14:26 17.1°C 99% 0.0 km/h N 1008.7 hPa 21 mm
05 mai 14:25 17.1°C 99% 0.0 km/h N 1008.7 hPa 21 mm
05 mai 14:24 17.1°C 99% 0.0 km/h N 1008.7 hPa 21 mm
05 mai 14:23 17.1°C 99% 0.0 km/h N 1008.7 hPa 21 mm
05 mai 14:22 16.8°C 99% 0.0 km/h N 1008.8 hPa 21 mm
05 mai 14:21 16.8°C 99% 0.0 km/h N 1008.8 hPa 21 mm
05 mai 14:20 16.8°C 99% 0.0 km/h N 1008.8 hPa 21 mm
05 mai 14:19 16.8°C 99% 0.0 km/h N 1008.8 hPa 21 mm
05 mai 14:18 16.8°C 99% 0.0 km/h N 1008.8 hPa 21 mm
05 mai 14:17 16.8°C 99% 0.0 km/h N 1008.8 hPa 21 mm
05 mai 14:16 16.8°C 99% 0.0 km/h N 1008.8 hPa 21 mm
05 mai 14:15 16.8°C 99% 0.0 km/h N 1008.8 hPa 21 mm
05 mai 14:14 16.8°C 99% 0.0 km/h N 1008.8 hPa 21 mm
05 mai 14:13 16.8°C 99% 0.0 km/h N 1008.8 hPa 21 mm
05 mai 14:12 16.6°C 99% 0.0 km/h N 1008.9 hPa 21 mm
05 mai 14:11 16.6°C 99% 0.0 km/h N 1008.9 hPa 21 mm
05 mai 14:10 16.6°C 99% 0.0 km/h N 1008.9 hPa 21 mm
05 mai 14:09 16.6°C 99% 0.0 km/h N 1008.9 hPa 21 mm
05 mai 14:08 16.6°C 99% 0.0 km/h N 1008.9 hPa 21 mm
05 mai 14:07 16.6°C 99% 0.0 km/h N 1008.9 hPa 21 mm
05 mai 14:06 16.6°C 99% 0.0 km/h N 1008.9 hPa 21 mm
05 mai 14:05 16.6°C 99% 0.0 km/h N 1008.9 hPa 21 mm
05 mai 14:04 16.6°C 99% 0.0 km/h N 1008.9 hPa 21 mm
05 mai 14:03 16.6°C 99% 0.0 km/h N 1008.9 hPa 21 mm
05 mai 14:02 16.3°C 99% 0.0 km/h N 1009.0 hPa 21 mm
05 mai 14:01 16.3°C 99% 0.0 km/h N 1009.0 hPa 21 mm
05 mai 14:00 16.3°C 99% 0.0 km/h N 1009.0 hPa 21 mm
05 mai 13:59 16.3°C 99% 0.0 km/h N 1009.0 hPa 21 mm
05 mai 13:58 16.3°C 99% 0.0 km/h N 1009.0 hPa 21 mm
05 mai 13:57 16.3°C 99% 0.0 km/h N 1009.0 hPa 21 mm
05 mai 13:56 16.3°C 99% 0.0 km/h N 1009.0 hPa 21 mm
05 mai 13:55 16.3°C 99% 0.0 km/h N 1009.0 hPa 21 mm
05 mai 13:54 16.3°C 99% 0.0 km/h N 1009.0 hPa 21 mm
05 mai 13:53 16.3°C 99% 0.0 km/h N 1009.0 hPa 21 mm
05 mai 13:52 16.2°C 99% 0.0 km/h N 1009.1 hPa 21 mm
05 mai 13:51 16.2°C 99% 0.0 km/h N 1009.1 hPa 21 mm
05 mai 13:50 16.2°C 99% 0.0 km/h N 1009.1 hPa 21 mm
05 mai 13:49 16.2°C 99% 0.0 km/h N 1009.1 hPa 21 mm
05 mai 13:48 16.2°C 99% 0.0 km/h N 1009.1 hPa 21 mm
05 mai 13:47 16.2°C 99% 0.0 km/h N 1009.1 hPa 21 mm
05 mai 13:46 16.2°C 99% 0.0 km/h N 1009.1 hPa 21 mm
05 mai 13:45 16.2°C 99% 0.0 km/h N 1009.1 hPa 21 mm
05 mai 13:44 16.2°C 99% 0.0 km/h N 1009.1 hPa 21 mm
05 mai 13:43 16.2°C 99% 0.0 km/h N 1009.1 hPa 21 mm
05 mai 13:42 16.2°C 99% 0.0 km/h N 1009.1 hPa 21 mm
05 mai 13:41 16.2°C 100% 0.0 km/h N 1009.1 hPa 21 mm
05 mai 13:40 16.2°C 100% 0.0 km/h N 1009.1 hPa 21 mm
05 mai 13:39 16.2°C 100% 0.0 km/h N 1009.1 hPa 21 mm
05 mai 13:38 16.2°C 100% 0.0 km/h N 1009.1 hPa 21 mm
05 mai 13:37 16.2°C 100% 0.0 km/h N 1009.1 hPa 21 mm
05 mai 13:36 16.2°C 100% 0.0 km/h N 1009.1 hPa 21 mm
05 mai 13:35 16.2°C 100% 0.0 km/h N 1009.1 hPa 21 mm
05 mai 13:34 16.2°C 100% 0.0 km/h N 1009.1 hPa 21 mm
05 mai 13:33 16.2°C 100% 0.0 km/h N 1009.1 hPa 21 mm
05 mai 13:32 16.2°C 100% 0.0 km/h N 1009.1 hPa 21 mm
05 mai 13:31 15.9°C 100% 0.0 km/h N 1009.2 hPa 21 mm
05 mai 13:30 15.9°C 100% 0.0 km/h N 1009.2 hPa 21 mm
05 mai 13:29 15.9°C 100% 0.0 km/h N 1009.2 hPa 21 mm
05 mai 13:28 15.9°C 100% 0.0 km/h N 1009.2 hPa 21 mm
05 mai 13:27 15.9°C 100% 0.0 km/h N 1009.2 hPa 21 mm
05 mai 13:26 15.9°C 100% 0.0 km/h N 1009.2 hPa 21 mm
05 mai 13:25 15.9°C 100% 0.0 km/h N 1009.2 hPa 21 mm
05 mai 13:24 15.9°C 100% 0.0 km/h N 1009.2 hPa 21 mm
05 mai 13:23 15.9°C 100% 0.0 km/h N 1009.2 hPa 21 mm
05 mai 13:22 15.9°C 100% 0.0 km/h N 1009.2 hPa 21 mm
05 mai 13:21 15.8°C 100% 0.0 km/h N 1009.3 hPa 21 mm
05 mai 13:20 15.8°C 100% 0.0 km/h N 1009.3 hPa 21 mm
05 mai 13:19 15.8°C 100% 0.0 km/h N 1009.3 hPa 21 mm
05 mai 13:18 15.8°C 100% 0.0 km/h N 1009.3 hPa 21 mm
05 mai 13:17 15.8°C 100% 0.0 km/h N 1009.3 hPa 21 mm
05 mai 13:16 15.8°C 100% 0.0 km/h N 1009.3 hPa 21 mm
05 mai 13:15 15.8°C 100% 0.0 km/h N 1009.3 hPa 21 mm
05 mai 13:14 15.8°C 100% 0.0 km/h N 1009.3 hPa 21 mm
05 mai 13:13 15.8°C 100% 0.0 km/h N 1009.3 hPa 21 mm
05 mai 13:12 15.8°C 100% 0.0 km/h N 1009.3 hPa 21 mm
05 mai 13:11 15.4°C 100% 0.0 km/h N 1009.3 hPa 21 mm
05 mai 13:10 15.4°C 100% 0.0 km/h N 1009.3 hPa 21 mm
05 mai 13:09 15.4°C 100% 0.0 km/h N 1009.3 hPa 21 mm
05 mai 13:08 15.4°C 100% 0.0 km/h N 1009.3 hPa 21 mm
05 mai 13:07 15.4°C 100% 0.0 km/h N 1009.3 hPa 21 mm
05 mai 13:06 15.4°C 100% 0.0 km/h N 1009.3 hPa 21 mm
05 mai 13:05 15.4°C 100% 0.0 km/h N 1009.3 hPa 21 mm
05 mai 13:04 15.4°C 100% 0.0 km/h N 1009.3 hPa 21 mm
05 mai 13:03 15.4°C 100% 0.0 km/h N 1009.3 hPa 21 mm
05 mai 13:02 15.4°C 100% 0.0 km/h N 1009.3 hPa 21 mm
05 mai 13:01 14.9°C 99% 0.0 km/h N 1009.2 hPa 21 mm
05 mai 13:00 14.9°C 99% 0.0 km/h N 1009.2 hPa 21 mm
05 mai 12:59 14.9°C 99% 0.0 km/h N 1009.2 hPa 21 mm
05 mai 12:58 14.9°C 99% 0.0 km/h N 1009.2 hPa 21 mm
05 mai 12:57 14.9°C 99% 0.0 km/h N 1009.2 hPa 21 mm
05 mai 12:56 14.9°C 99% 0.0 km/h N 1009.2 hPa 21 mm
05 mai 12:55 14.9°C 99% 0.0 km/h N 1009.2 hPa 21 mm
05 mai 12:54 14.9°C 99% 0.0 km/h N 1009.2 hPa 21 mm
05 mai 12:53 14.9°C 99% 0.0 km/h N 1009.2 hPa 21 mm
05 mai 12:52 14.9°C 99% 0.0 km/h N 1009.2 hPa 21 mm
05 mai 12:51 14.7°C 99% 0.0 km/h N 1009.3 hPa 21 mm
05 mai 12:50 14.7°C 99% 0.0 km/h N 1009.3 hPa 21 mm
05 mai 12:49 14.7°C 99% 0.0 km/h N 1009.3 hPa 21 mm
05 mai 12:48 14.7°C 99% 0.0 km/h N 1009.3 hPa 21 mm
05 mai 12:47 14.7°C 99% 0.0 km/h N 1009.3 hPa 21 mm
05 mai 12:46 14.7°C 99% 0.0 km/h N 1009.3 hPa 21 mm
05 mai 12:45 14.7°C 99% 0.0 km/h N 1009.3 hPa 21 mm
05 mai 12:44 14.7°C 99% 0.0 km/h N 1009.3 hPa 21 mm
05 mai 12:43 14.7°C 99% 0.0 km/h N 1009.3 hPa 21 mm
05 mai 12:42 14.7°C 99% 0.0 km/h N 1009.3 hPa 21 mm
05 mai 12:41 14.3°C 99% 0.0 km/h N 1009.3 hPa 21 mm
05 mai 12:40 14.3°C 99% 0.0 km/h N 1009.3 hPa 21 mm
05 mai 12:39 14.3°C 99% 0.0 km/h N 1009.3 hPa 21 mm
05 mai 12:38 14.3°C 99% 0.0 km/h N 1009.3 hPa 21 mm
05 mai 12:37 14.3°C 99% 0.0 km/h N 1009.3 hPa 21 mm
05 mai 12:36 14.3°C 99% 0.0 km/h N 1009.3 hPa 21 mm
05 mai 12:35 14.3°C 99% 0.0 km/h N 1009.3 hPa 21 mm
05 mai 12:34 14.3°C 99% 0.0 km/h N 1009.3 hPa 21 mm
05 mai 12:33 14.3°C 99% 0.0 km/h N 1009.3 hPa 21 mm
05 mai 12:32 14.3°C 99% 0.0 km/h N 1009.3 hPa 21 mm
05 mai 12:31 14.0°C 99% 0.0 km/h N 1009.4 hPa 21 mm
05 mai 12:30 14.0°C 99% 0.0 km/h N 1009.4 hPa 21 mm
05 mai 12:29 14.0°C 99% 0.0 km/h N 1009.4 hPa 21 mm
05 mai 12:28 14.0°C 99% 0.0 km/h N 1009.4 hPa 21 mm
05 mai 12:27 14.0°C 99% 0.0 km/h N 1009.4 hPa 21 mm
05 mai 12:26 14.0°C 99% 0.0 km/h N 1009.4 hPa 21 mm
05 mai 12:25 14.0°C 99% 0.0 km/h N 1009.4 hPa 21 mm
05 mai 12:24 14.0°C 99% 0.0 km/h N 1009.4 hPa 21 mm
05 mai 12:23 14.0°C 99% 0.0 km/h N 1009.4 hPa 21 mm
05 mai 12:22 14.0°C 99% 0.0 km/h N 1009.4 hPa 21 mm
05 mai 12:21 13.7°C 99% 0.0 km/h N 1009.5 hPa 21 mm
05 mai 12:20 13.7°C 99% 0.0 km/h N 1009.5 hPa 21 mm
05 mai 12:19 13.7°C 99% 0.0 km/h N 1009.5 hPa 21 mm
05 mai 12:18 13.7°C 99% 0.0 km/h N 1009.5 hPa 21 mm
05 mai 12:17 13.7°C 99% 0.0 km/h N 1009.5 hPa 21 mm
05 mai 12:16 13.7°C 99% 0.0 km/h N 1009.5 hPa 21 mm
05 mai 12:15 13.7°C 99% 0.0 km/h N 1009.5 hPa 21 mm
05 mai 12:14 13.7°C 99% 0.0 km/h N 1009.5 hPa 21 mm
05 mai 12:13 13.7°C 99% 0.0 km/h N 1009.5 hPa 21 mm
05 mai 12:12 13.7°C 99% 0.0 km/h N 1009.5 hPa 21 mm
05 mai 12:11 13.3°C 99% 0.0 km/h N 1009.5 hPa 21 mm
05 mai 12:10 13.3°C 99% 0.0 km/h N 1009.5 hPa 21 mm
05 mai 12:09 13.3°C 99% 0.0 km/h N 1009.5 hPa 21 mm
05 mai 12:08 13.3°C 99% 0.0 km/h N 1009.5 hPa 21 mm
05 mai 12:07 13.3°C 99% 0.0 km/h N 1009.5 hPa 21 mm
05 mai 12:06 13.3°C 99% 0.0 km/h N 1009.5 hPa 21 mm
05 mai 12:05 13.3°C 99% 0.0 km/h N 1009.5 hPa 21 mm
05 mai 12:04 13.3°C 99% 0.0 km/h N 1009.5 hPa 21 mm
05 mai 12:03 13.3°C 99% 0.0 km/h N 1009.5 hPa 21 mm
05 mai 12:02 13.3°C 99% 0.0 km/h N 1009.5 hPa 21 mm
05 mai 12:01 13.0°C 99% 0.0 km/h N 1009.5 hPa 21 mm
05 mai 11:59 13.0°C 99% 0.0 km/h N 1009.5 hPa 21 mm
05 mai 11:58 13.0°C 99% 0.0 km/h N 1009.5 hPa 21 mm
05 mai 11:57 13.0°C 99% 0.0 km/h N 1009.5 hPa 21 mm
05 mai 11:56 13.0°C 99% 0.0 km/h N 1009.5 hPa 21 mm
05 mai 11:55 13.0°C 99% 0.0 km/h N 1009.5 hPa 21 mm
05 mai 11:54 13.0°C 99% 0.0 km/h N 1009.5 hPa 21 mm
05 mai 11:53 13.0°C 99% 0.0 km/h N 1009.5 hPa 21 mm
05 mai 11:52 13.0°C 99% 0.0 km/h N 1009.5 hPa 21 mm
05 mai 11:51 13.0°C 99% 0.0 km/h N 1009.5 hPa 21 mm
05 mai 11:50 12.7°C 99% 0.0 km/h N 1009.5 hPa 21 mm
05 mai 11:49 12.7°C 99% 0.0 km/h N 1009.5 hPa 21 mm
05 mai 11:48 12.7°C 99% 0.0 km/h N 1009.5 hPa 21 mm
05 mai 11:47 12.7°C 99% 0.0 km/h N 1009.5 hPa 21 mm
05 mai 11:46 12.7°C 99% 0.0 km/h N 1009.5 hPa 21 mm
05 mai 11:45 12.7°C 99% 0.0 km/h N 1009.5 hPa 21 mm
05 mai 11:44 12.7°C 99% 0.0 km/h N 1009.5 hPa 21 mm
05 mai 11:43 12.7°C 99% 0.0 km/h N 1009.5 hPa 21 mm
05 mai 11:42 12.7°C 99% 0.0 km/h N 1009.5 hPa 21 mm
05 mai 11:41 12.7°C 99% 0.0 km/h N 1009.5 hPa 21 mm
05 mai 11:40 12.5°C 99% 0.0 km/h N 1009.5 hPa 21 mm
05 mai 11:39 12.5°C 99% 0.0 km/h N 1009.5 hPa 21 mm
05 mai 11:38 12.5°C 99% 0.0 km/h N 1009.5 hPa 21 mm
05 mai 11:37 12.5°C 99% 0.0 km/h N 1009.5 hPa 21 mm
05 mai 11:36 12.5°C 99% 0.0 km/h N 1009.5 hPa 21 mm
05 mai 11:35 12.5°C 99% 0.0 km/h N 1009.5 hPa 21 mm
05 mai 11:34 12.5°C 99% 0.0 km/h N 1009.5 hPa 21 mm
05 mai 11:33 12.5°C 99% 0.0 km/h N 1009.5 hPa 21 mm
05 mai 11:32 12.5°C 99% 0.0 km/h N 1009.5 hPa 21 mm
05 mai 11:31 12.5°C 99% 0.0 km/h N 1009.5 hPa 21 mm
05 mai 11:30 12.2°C 99% 0.0 km/h N 1009.3 hPa 21 mm
05 mai 11:29 12.2°C 99% 0.0 km/h N 1009.3 hPa 21 mm
05 mai 11:28 12.2°C 99% 0.0 km/h N 1009.3 hPa 21 mm
05 mai 11:27 12.2°C 99% 0.0 km/h N 1009.3 hPa 21 mm
05 mai 11:26 12.2°C 99% 0.0 km/h N 1009.3 hPa 21 mm
05 mai 11:25 12.2°C 99% 0.0 km/h N 1009.3 hPa 21 mm
05 mai 11:24 12.2°C 99% 0.0 km/h N 1009.3 hPa 21 mm
05 mai 11:23 12.2°C 99% 0.0 km/h N 1009.3 hPa 21 mm
05 mai 11:22 12.2°C 99% 0.0 km/h N 1009.3 hPa 21 mm
05 mai 11:21 12.2°C 99% 0.0 km/h N 1009.3 hPa 21 mm
05 mai 11:20 12.1°C 99% 0.0 km/h N 1009.3 hPa 20.9 mm
05 mai 11:19 12.1°C 99% 0.0 km/h N 1009.3 hPa 20.9 mm
05 mai 11:18 12.1°C 99% 0.0 km/h N 1009.3 hPa 20.9 mm
05 mai 11:17 12.1°C 99% 0.0 km/h N 1009.3 hPa 20.9 mm
05 mai 11:16 12.1°C 99% 0.0 km/h N 1009.3 hPa 20.9 mm
05 mai 11:15 12.1°C 99% 0.0 km/h N 1009.3 hPa 20.9 mm
05 mai 11:14 12.1°C 99% 0.0 km/h N 1009.3 hPa 20.9 mm
05 mai 11:13 12.1°C 99% 0.0 km/h N 1009.3 hPa 20.9 mm
05 mai 11:12 12.1°C 99% 0.0 km/h N 1009.3 hPa 20.9 mm
05 mai 11:11 12.1°C 99% 0.0 km/h N 1009.3 hPa 20.9 mm
05 mai 11:10 11.9°C 99% 0.0 km/h N 1009.2 hPa 20.6 mm
05 mai 11:09 11.9°C 99% 0.0 km/h N 1009.2 hPa 20.6 mm
05 mai 11:08 11.9°C 99% 0.0 km/h N 1009.2 hPa 20.6 mm
05 mai 11:07 11.9°C 99% 0.0 km/h N 1009.2 hPa 20.6 mm
05 mai 11:06 11.9°C 99% 0.0 km/h N 1009.2 hPa 20.6 mm
05 mai 11:05 11.9°C 99% 0.0 km/h N 1009.2 hPa 20.6 mm
05 mai 11:04 11.9°C 99% 0.0 km/h N 1009.2 hPa 20.6 mm
05 mai 11:03 11.9°C 99% 0.0 km/h N 1009.2 hPa 20.6 mm
05 mai 11:02 11.9°C 99% 0.0 km/h N 1009.2 hPa 20.6 mm
05 mai 11:01 11.9°C 99% 0.0 km/h N 1009.2 hPa 20.6 mm
05 mai 11:00 11.9°C 99% 0.0 km/h N 1009.2 hPa 20.5 mm
05 mai 10:59 11.9°C 99% 0.0 km/h N 1009.2 hPa 20.5 mm
05 mai 10:58 11.9°C 99% 0.0 km/h N 1009.2 hPa 20.5 mm
05 mai 10:57 11.9°C 99% 0.0 km/h N 1009.2 hPa 20.5 mm
05 mai 10:56 11.9°C 99% 0.0 km/h N 1009.2 hPa 20.5 mm
05 mai 10:55 11.9°C 99% 0.0 km/h N 1009.2 hPa 20.5 mm
05 mai 10:54 11.9°C 99% 0.0 km/h N 1009.2 hPa 20.5 mm
05 mai 10:53 11.9°C 99% 0.0 km/h N 1009.2 hPa 20.5 mm
05 mai 10:52 11.9°C 99% 0.0 km/h N 1009.2 hPa 20.5 mm
05 mai 10:51 11.9°C 99% 0.0 km/h N 1009.2 hPa 20.5 mm
05 mai 10:50 11.9°C 99% 0.0 km/h N 1009.1 hPa 20.2 mm
05 mai 10:49 11.9°C 99% 0.0 km/h N 1009.1 hPa 20.2 mm
05 mai 10:48 11.9°C 99% 0.0 km/h N 1009.1 hPa 20.2 mm
05 mai 10:47 11.9°C 99% 0.0 km/h N 1009.1 hPa 20.2 mm
05 mai 10:46 11.9°C 99% 0.0 km/h N 1009.1 hPa 20.2 mm
05 mai 10:45 11.9°C 99% 0.0 km/h N 1009.1 hPa 20.2 mm
05 mai 10:44 11.9°C 99% 0.0 km/h N 1009.1 hPa 20.2 mm
05 mai 10:43 11.9°C 99% 0.0 km/h N 1009.1 hPa 20.2 mm
05 mai 10:42 11.9°C 99% 0.0 km/h N 1009.1 hPa 20.2 mm
05 mai 10:41 11.9°C 99% 0.0 km/h N 1009.1 hPa 20.2 mm
05 mai 10:40 11.9°C 99% 0.0 km/h N 1009.0 hPa 19.9 mm
05 mai 10:39 11.9°C 99% 0.0 km/h N 1009.0 hPa 19.9 mm
05 mai 10:38 11.9°C 99% 0.0 km/h N 1009.0 hPa 19.9 mm
05 mai 10:37 11.9°C 99% 0.0 km/h N 1009.0 hPa 19.9 mm
05 mai 10:36 11.9°C 99% 0.0 km/h N 1009.0 hPa 19.9 mm
05 mai 10:35 11.9°C 99% 0.0 km/h N 1009.0 hPa 19.9 mm
05 mai 10:34 11.9°C 99% 0.0 km/h N 1009.0 hPa 19.9 mm
05 mai 10:33 11.9°C 99% 0.0 km/h N 1009.0 hPa 19.9 mm
05 mai 10:32 11.9°C 99% 0.0 km/h N 1009.0 hPa 19.9 mm
05 mai 10:31 11.9°C 99% 0.0 km/h N 1009.0 hPa 19.9 mm
05 mai 10:30 11.8°C 99% 0.0 km/h N 1009.0 hPa 19.7 mm
05 mai 10:29 11.8°C 99% 0.0 km/h N 1009.0 hPa 19.7 mm
05 mai 10:28 11.8°C 99% 0.0 km/h N 1009.0 hPa 19.7 mm
05 mai 10:27 11.8°C 99% 0.0 km/h N 1009.0 hPa 19.7 mm
05 mai 10:26 11.8°C 99% 0.0 km/h N 1009.0 hPa 19.7 mm
05 mai 10:25 11.8°C 99% 0.0 km/h N 1009.0 hPa 19.7 mm
05 mai 10:24 11.8°C 99% 0.0 km/h N 1009.0 hPa 19.7 mm
05 mai 10:23 11.8°C 99% 0.0 km/h N 1009.0 hPa 19.7 mm
05 mai 10:22 11.8°C 99% 0.0 km/h N 1009.0 hPa 19.7 mm
05 mai 10:21 11.8°C 99% 0.0 km/h N 1009.0 hPa 19.7 mm
05 mai 10:20 11.8°C 99% 0.0 km/h N 1009.0 hPa 19.5 mm
05 mai 10:19 11.8°C 99% 0.0 km/h N 1009.0 hPa 19.5 mm
05 mai 10:18 11.8°C 99% 0.0 km/h N 1009.0 hPa 19.5 mm
05 mai 10:17 11.8°C 99% 0.0 km/h N 1009.0 hPa 19.5 mm
05 mai 10:16 11.8°C 99% 0.0 km/h N 1009.0 hPa 19.5 mm
05 mai 10:15 11.8°C 99% 0.0 km/h N 1009.0 hPa 19.5 mm
05 mai 10:14 11.8°C 99% 0.0 km/h N 1009.0 hPa 19.5 mm
05 mai 10:13 11.8°C 99% 0.0 km/h N 1009.0 hPa 19.5 mm
05 mai 10:12 11.8°C 99% 0.0 km/h N 1009.0 hPa 19.5 mm
05 mai 10:11 11.8°C 99% 0.0 km/h N 1009.0 hPa 19.5 mm
05 mai 10:10 11.8°C 99% 0.0 km/h N 1009.0 hPa 19.5 mm
05 mai 10:09 11.7°C 99% 0.0 km/h N 1009.0 hPa 19.4 mm
05 mai 10:08 11.7°C 99% 0.0 km/h N 1009.0 hPa 19.4 mm
05 mai 10:07 11.7°C 99% 0.0 km/h N 1009.0 hPa 19.4 mm
05 mai 10:06 11.7°C 99% 0.0 km/h N 1009.0 hPa 19.4 mm
05 mai 10:05 11.7°C 99% 0.0 km/h N 1009.0 hPa 19.4 mm
05 mai 10:04 11.7°C 99% 0.0 km/h N 1009.0 hPa 19.4 mm
05 mai 10:03 11.7°C 99% 0.0 km/h N 1009.0 hPa 19.4 mm
05 mai 10:02 11.7°C 99% 0.0 km/h N 1009.0 hPa 19.4 mm
05 mai 10:01 11.7°C 99% 0.0 km/h N 1009.0 hPa 19.4 mm
05 mai 09:59 11.7°C 99% 0.0 km/h N 1009.0 hPa 19 mm
05 mai 09:58 11.7°C 99% 0.0 km/h N 1009.0 hPa 19 mm
05 mai 09:57 11.7°C 99% 0.0 km/h N 1009.0 hPa 19 mm
05 mai 09:56 11.7°C 99% 0.0 km/h N 1009.0 hPa 19 mm
05 mai 09:55 11.7°C 99% 0.0 km/h N 1009.0 hPa 19 mm
05 mai 09:54 11.7°C 99% 0.0 km/h N 1009.0 hPa 19 mm
05 mai 09:53 11.7°C 99% 0.0 km/h N 1009.0 hPa 19 mm
05 mai 09:52 11.7°C 99% 0.0 km/h N 1009.0 hPa 19 mm
05 mai 09:51 11.7°C 99% 0.0 km/h N 1009.0 hPa 19 mm
05 mai 09:50 11.7°C 99% 0.0 km/h N 1009.0 hPa 19 mm
05 mai 09:49 11.6°C 99% 0.0 km/h N 1009.0 hPa 18.5 mm
05 mai 09:48 11.6°C 99% 0.0 km/h N 1009.0 hPa 18.5 mm
05 mai 09:47 11.6°C 99% 0.0 km/h N 1009.0 hPa 18.5 mm
05 mai 09:46 11.6°C 99% 0.0 km/h N 1009.0 hPa 18.5 mm
05 mai 09:45 11.6°C 99% 0.0 km/h N 1009.0 hPa 18.5 mm
05 mai 09:44 11.6°C 99% 0.0 km/h N 1009.0 hPa 18.5 mm
05 mai 09:43 11.6°C 99% 0.0 km/h N 1009.0 hPa 18.5 mm
05 mai 09:42 11.6°C 99% 0.0 km/h N 1009.0 hPa 18.5 mm
05 mai 09:41 11.6°C 99% 0.0 km/h N 1009.0 hPa 18.5 mm
05 mai 09:40 11.6°C 99% 0.0 km/h N 1009.0 hPa 18.5 mm
05 mai 09:39 11.6°C 99% 0.0 km/h N 1008.9 hPa 18.2 mm
05 mai 09:38 11.6°C 99% 0.0 km/h N 1008.9 hPa 18.2 mm
05 mai 09:37 11.6°C 99% 0.0 km/h N 1008.9 hPa 18.2 mm
05 mai 09:36 11.6°C 99% 0.0 km/h N 1008.9 hPa 18.2 mm
05 mai 09:35 11.6°C 99% 0.0 km/h N 1008.9 hPa 18.2 mm
05 mai 09:34 11.6°C 99% 0.0 km/h N 1008.9 hPa 18.2 mm
05 mai 09:33 11.6°C 99% 0.0 km/h N 1008.9 hPa 18.2 mm
05 mai 09:32 11.6°C 99% 0.0 km/h N 1008.9 hPa 18.2 mm
05 mai 09:31 11.6°C 99% 0.0 km/h N 1008.9 hPa 18.2 mm
05 mai 09:30 11.6°C 99% 0.0 km/h N 1008.9 hPa 18.2 mm
05 mai 09:29 11.4°C 99% 0.0 km/h N 1008.9 hPa 17.7 mm
05 mai 09:28 11.4°C 99% 0.0 km/h N 1008.9 hPa 17.7 mm
05 mai 09:27 11.4°C 99% 0.0 km/h N 1008.9 hPa 17.7 mm
05 mai 09:26 11.4°C 99% 0.0 km/h N 1008.9 hPa 17.7 mm
05 mai 09:25 11.4°C 99% 0.0 km/h N 1008.9 hPa 17.7 mm
05 mai 09:24 11.4°C 99% 0.0 km/h N 1008.9 hPa 17.7 mm
05 mai 09:23 11.4°C 99% 0.0 km/h N 1008.9 hPa 17.7 mm
05 mai 09:22 11.4°C 99% 0.0 km/h N 1008.9 hPa 17.7 mm
05 mai 09:21 11.4°C 99% 0.0 km/h N 1008.9 hPa 17.7 mm
05 mai 09:20 11.4°C 99% 0.0 km/h N 1008.9 hPa 17.7 mm
05 mai 09:19 11.4°C 99% 0.0 km/h N 1008.9 hPa 17.6 mm
05 mai 09:18 11.4°C 99% 0.0 km/h N 1008.9 hPa 17.6 mm
05 mai 09:17 11.4°C 99% 0.0 km/h N 1008.9 hPa 17.6 mm
05 mai 09:16 11.4°C 99% 0.0 km/h N 1008.9 hPa 17.6 mm
05 mai 09:15 11.4°C 99% 0.0 km/h N 1008.9 hPa 17.6 mm
05 mai 09:14 11.4°C 99% 0.0 km/h N 1008.9 hPa 17.6 mm
05 mai 09:13 11.4°C 99% 0.0 km/h N 1008.9 hPa 17.6 mm
05 mai 09:12 11.4°C 99% 0.0 km/h N 1008.9 hPa 17.6 mm
05 mai 09:11 11.4°C 99% 0.0 km/h N 1008.9 hPa 17.6 mm
05 mai 09:10 11.4°C 99% 0.0 km/h N 1008.9 hPa 17.6 mm
05 mai 09:09 11.3°C 99% 0.0 km/h N 1008.9 hPa 17.3 mm
05 mai 09:08 11.3°C 99% 0.0 km/h N 1008.9 hPa 17.3 mm
05 mai 09:07 11.3°C 99% 0.0 km/h N 1008.9 hPa 17.3 mm
05 mai 09:06 11.3°C 99% 0.0 km/h N 1008.9 hPa 17.3 mm
05 mai 09:05 11.3°C 99% 0.0 km/h N 1008.9 hPa 17.3 mm
05 mai 09:04 11.3°C 99% 0.0 km/h N 1008.9 hPa 17.3 mm
05 mai 09:03 11.3°C 99% 0.0 km/h N 1008.9 hPa 17.3 mm
05 mai 09:02 11.3°C 99% 0.0 km/h N 1008.9 hPa 17.3 mm
05 mai 09:01 11.3°C 99% 0.0 km/h N 1008.9 hPa 17.3 mm
05 mai 08:59 11.3°C 99% 0.0 km/h N 1008.9 hPa 16.9 mm
05 mai 08:58 11.3°C 99% 0.0 km/h N 1008.9 hPa 16.9 mm
05 mai 08:57 11.3°C 99% 0.0 km/h N 1008.9 hPa 16.9 mm
05 mai 08:56 11.3°C 99% 0.0 km/h N 1008.9 hPa 16.9 mm
05 mai 08:55 11.3°C 99% 0.0 km/h N 1008.9 hPa 16.9 mm
05 mai 08:54 11.3°C 99% 0.0 km/h N 1008.9 hPa 16.9 mm
05 mai 08:53 11.3°C 99% 0.0 km/h N 1008.9 hPa 16.9 mm
05 mai 08:52 11.3°C 99% 0.0 km/h N 1008.9 hPa 16.9 mm
05 mai 08:51 11.3°C 99% 0.0 km/h N 1008.9 hPa 16.9 mm
05 mai 08:50 11.3°C 99% 0.0 km/h N 1008.9 hPa 16.9 mm
05 mai 08:49 11.3°C 99% 0.0 km/h N 1008.9 hPa 16 mm
05 mai 08:48 11.3°C 99% 0.0 km/h N 1008.9 hPa 16 mm
05 mai 08:47 11.3°C 99% 0.0 km/h N 1008.9 hPa 16 mm
05 mai 08:46 11.3°C 99% 0.0 km/h N 1008.9 hPa 16 mm
05 mai 08:45 11.3°C 99% 0.0 km/h N 1008.9 hPa 16 mm
05 mai 08:44 11.3°C 99% 0.0 km/h N 1008.9 hPa 16 mm
05 mai 08:43 11.3°C 99% 0.0 km/h N 1008.9 hPa 16 mm
05 mai 08:42 11.3°C 99% 0.0 km/h N 1008.9 hPa 16 mm
05 mai 08:41 11.3°C 99% 0.0 km/h N 1008.9 hPa 16 mm
05 mai 08:40 11.3°C 99% 0.0 km/h N 1008.9 hPa 16 mm
05 mai 08:39 11.3°C 99% 0.0 km/h N 1008.9 hPa 15.6 mm
05 mai 08:38 11.3°C 99% 0.0 km/h N 1008.9 hPa 15.6 mm
05 mai 08:37 11.3°C 99% 0.0 km/h N 1008.9 hPa 15.6 mm
05 mai 08:36 11.3°C 99% 0.0 km/h N 1008.9 hPa 15.6 mm
05 mai 08:35 11.3°C 99% 0.0 km/h N 1008.9 hPa 15.6 mm
05 mai 08:34 11.3°C 99% 0.0 km/h N 1008.9 hPa 15.6 mm
05 mai 08:33 11.3°C 99% 0.0 km/h N 1008.9 hPa 15.6 mm
05 mai 08:32 11.3°C 99% 0.0 km/h N 1008.9 hPa 15.6 mm
05 mai 08:31 11.3°C 99% 0.0 km/h N 1008.9 hPa 15.6 mm
05 mai 08:30 11.3°C 99% 0.0 km/h N 1008.9 hPa 15.6 mm
05 mai 08:29 11.3°C 99% 0.0 km/h N 1008.9 hPa 15.6 mm
05 mai 08:28 11.3°C 99% 0.0 km/h N 1008.8 hPa 15.2 mm
05 mai 08:27 11.3°C 99% 0.0 km/h N 1008.8 hPa 15.2 mm
05 mai 08:26 11.3°C 99% 0.0 km/h N 1008.8 hPa 15.2 mm
05 mai 08:25 11.3°C 99% 0.0 km/h N 1008.8 hPa 15.2 mm
05 mai 08:24 11.3°C 99% 0.0 km/h N 1008.8 hPa 15.2 mm
05 mai 08:23 11.3°C 99% 0.0 km/h N 1008.8 hPa 15.2 mm
05 mai 08:22 11.3°C 99% 0.0 km/h N 1008.8 hPa 15.2 mm
05 mai 08:21 11.3°C 99% 0.0 km/h N 1008.8 hPa 15.2 mm
05 mai 08:20 11.3°C 99% 0.0 km/h N 1008.8 hPa 15.2 mm
05 mai 08:19 11.3°C 99% 0.0 km/h N 1008.8 hPa 15.2 mm
05 mai 08:18 11.3°C 99% 0.0 km/h N 1008.8 hPa 14.8 mm
05 mai 08:17 11.3°C 99% 0.0 km/h N 1008.8 hPa 14.8 mm
05 mai 08:16 11.3°C 99% 0.0 km/h N 1008.8 hPa 14.8 mm
05 mai 08:15 11.3°C 99% 0.0 km/h N 1008.8 hPa 14.8 mm
05 mai 08:14 11.3°C 99% 0.0 km/h N 1008.8 hPa 14.8 mm
05 mai 08:13 11.3°C 99% 0.0 km/h N 1008.8 hPa 14.8 mm
05 mai 08:12 11.3°C 99% 0.0 km/h N 1008.8 hPa 14.8 mm
05 mai 08:11 11.3°C 99% 0.0 km/h N 1008.8 hPa 14.8 mm
05 mai 08:10 11.3°C 99% 0.0 km/h N 1008.8 hPa 14.8 mm
05 mai 08:09 11.3°C 99% 0.0 km/h N 1008.8 hPa 14.8 mm
05 mai 08:08 11.2°C 99% 0.0 km/h N 1008.8 hPa 14.7 mm
05 mai 08:07 11.2°C 99% 0.0 km/h N 1008.8 hPa 14.7 mm
05 mai 08:06 11.2°C 99% 0.0 km/h N 1008.8 hPa 14.7 mm
05 mai 08:05 11.2°C 99% 0.0 km/h N 1008.8 hPa 14.7 mm
05 mai 08:04 11.2°C 99% 0.0 km/h N 1008.8 hPa 14.7 mm
05 mai 08:03 11.2°C 99% 0.0 km/h N 1008.8 hPa 14.7 mm
05 mai 08:02 11.2°C 99% 0.0 km/h N 1008.8 hPa 14.7 mm
05 mai 08:01 11.2°C 99% 0.0 km/h N 1008.8 hPa 14.7 mm
05 mai 08:00 11.2°C 99% 0.0 km/h N 1008.8 hPa 14.7 mm
05 mai 07:59 11.2°C 99% 0.0 km/h N 1008.8 hPa 14.7 mm
05 mai 07:58 11.2°C 99% 0.0 km/h N 1008.7 hPa 13.9 mm
05 mai 07:57 11.2°C 99% 0.0 km/h N 1008.7 hPa 13.9 mm
05 mai 07:56 11.2°C 99% 0.0 km/h N 1008.7 hPa 13.9 mm
05 mai 07:55 11.2°C 99% 0.0 km/h N 1008.7 hPa 13.9 mm
05 mai 07:54 11.2°C 99% 0.0 km/h N 1008.7 hPa 13.9 mm
05 mai 07:53 11.2°C 99% 0.0 km/h N 1008.7 hPa 13.9 mm
05 mai 07:52 11.2°C 99% 0.0 km/h N 1008.7 hPa 13.9 mm
05 mai 07:51 11.2°C 99% 0.0 km/h N 1008.7 hPa 13.9 mm
05 mai 07:50 11.2°C 99% 0.0 km/h N 1008.7 hPa 13.9 mm
05 mai 07:49 11.2°C 99% 0.0 km/h N 1008.7 hPa 13.9 mm
05 mai 07:48 11.2°C 99% 0.0 km/h N 1008.7 hPa 13.3 mm
05 mai 07:47 11.2°C 99% 0.0 km/h N 1008.7 hPa 13.3 mm
05 mai 07:46 11.2°C 99% 0.0 km/h N 1008.7 hPa 13.3 mm
05 mai 07:45 11.2°C 99% 0.0 km/h N 1008.7 hPa 13.3 mm
05 mai 07:44 11.2°C 99% 0.0 km/h N 1008.7 hPa 13.3 mm
05 mai 07:43 11.2°C 99% 0.0 km/h N 1008.7 hPa 13.3 mm
05 mai 07:42 11.2°C 99% 0.0 km/h N 1008.7 hPa 13.3 mm
05 mai 07:41 11.2°C 99% 0.0 km/h N 1008.7 hPa 13.3 mm
05 mai 07:40 11.2°C 99% 0.0 km/h N 1008.7 hPa 13.3 mm
05 mai 07:39 11.2°C 99% 0.0 km/h N 1008.7 hPa 13.3 mm
05 mai 07:38 11.1°C 99% 0.0 km/h N 1008.9 hPa 12.7 mm
05 mai 07:37 11.1°C 99% 0.0 km/h N 1008.9 hPa 12.7 mm
05 mai 07:36 11.1°C 99% 0.0 km/h N 1008.9 hPa 12.7 mm
05 mai 07:35 11.1°C 99% 0.0 km/h N 1008.9 hPa 12.7 mm
05 mai 07:34 11.1°C 99% 0.0 km/h N 1008.9 hPa 12.7 mm
05 mai 07:33 11.1°C 99% 0.0 km/h N 1008.9 hPa 12.7 mm
05 mai 07:32 11.1°C 99% 0.0 km/h N 1008.9 hPa 12.7 mm
05 mai 07:31 11.1°C 99% 0.0 km/h N 1008.9 hPa 12.7 mm
05 mai 07:30 11.1°C 99% 0.0 km/h N 1008.9 hPa 12.7 mm
05 mai 07:29 11.1°C 99% 0.0 km/h N 1008.9 hPa 12.7 mm
05 mai 07:28 11.2°C 99% 0.0 km/h N 1008.7 hPa 12.2 mm
05 mai 07:27 11.2°C 99% 0.0 km/h N 1008.7 hPa 12.2 mm
05 mai 07:26 11.2°C 99% 0.0 km/h N 1008.7 hPa 12.2 mm
05 mai 07:25 11.2°C 99% 0.0 km/h N 1008.7 hPa 12.2 mm
05 mai 07:24 11.2°C 99% 0.0 km/h N 1008.7 hPa 12.2 mm
05 mai 07:23 11.2°C 99% 0.0 km/h N 1008.7 hPa 12.2 mm
05 mai 07:22 11.2°C 99% 0.0 km/h N 1008.7 hPa 12.2 mm
05 mai 07:21 11.2°C 99% 0.0 km/h N 1008.7 hPa 12.2 mm
05 mai 07:20 11.2°C 99% 0.0 km/h N 1008.7 hPa 12.2 mm
05 mai 07:19 11.2°C 99% 0.0 km/h N 1008.7 hPa 12.2 mm
05 mai 07:18 11.1°C 99% 0.0 km/h N 1008.7 hPa 11.8 mm
05 mai 07:17 11.1°C 99% 0.0 km/h N 1008.7 hPa 11.8 mm
05 mai 07:16 11.1°C 99% 0.0 km/h N 1008.7 hPa 11.8 mm
05 mai 07:15 11.1°C 99% 0.0 km/h N 1008.7 hPa 11.8 mm
05 mai 07:14 11.1°C 99% 0.0 km/h N 1008.7 hPa 11.8 mm
05 mai 07:13 11.1°C 99% 0.0 km/h N 1008.7 hPa 11.8 mm
05 mai 07:12 11.1°C 99% 0.0 km/h N 1008.7 hPa 11.8 mm
05 mai 07:11 11.1°C 99% 0.0 km/h N 1008.7 hPa 11.8 mm
05 mai 07:10 11.1°C 99% 0.0 km/h N 1008.7 hPa 11.8 mm
05 mai 07:09 11.1°C 99% 0.0 km/h N 1008.7 hPa 11.8 mm
05 mai 07:08 11.2°C 99% 0.0 km/h N 1008.8 hPa 11.6 mm
05 mai 07:07 11.2°C 99% 0.0 km/h N 1008.8 hPa 11.6 mm
05 mai 07:06 11.2°C 99% 0.0 km/h N 1008.8 hPa 11.6 mm
05 mai 07:05 11.2°C 99% 0.0 km/h N 1008.8 hPa 11.6 mm
05 mai 07:04 11.2°C 99% 0.0 km/h N 1008.8 hPa 11.6 mm
05 mai 07:03 11.2°C 99% 0.0 km/h N 1008.8 hPa 11.6 mm
05 mai 07:02 11.2°C 99% 0.0 km/h N 1008.8 hPa 11.6 mm
05 mai 07:01 11.2°C 99% 0.0 km/h N 1008.8 hPa 11.6 mm
05 mai 07:00 11.2°C 99% 0.0 km/h N 1008.8 hPa 11.6 mm
05 mai 06:59 11.2°C 99% 0.0 km/h N 1008.8 hPa 11.6 mm
05 mai 06:58 11.2°C 99% 0.0 km/h N 1008.8 hPa 11.5 mm
05 mai 06:57 11.2°C 99% 0.0 km/h N 1008.8 hPa 11.5 mm
05 mai 06:56 11.2°C 99% 0.0 km/h N 1008.8 hPa 11.5 mm
05 mai 06:55 11.2°C 99% 0.0 km/h N 1008.8 hPa 11.5 mm
05 mai 06:54 11.2°C 99% 0.0 km/h N 1008.8 hPa 11.5 mm
05 mai 06:53 11.2°C 99% 0.0 km/h N 1008.8 hPa 11.5 mm
05 mai 06:52 11.2°C 99% 0.0 km/h N 1008.8 hPa 11.5 mm
05 mai 06:51 11.2°C 99% 0.0 km/h N 1008.8 hPa 11.5 mm
05 mai 06:50 11.2°C 99% 0.0 km/h N 1008.8 hPa 11.5 mm
05 mai 06:49 11.2°C 99% 0.0 km/h N 1008.8 hPa 11.5 mm
05 mai 06:48 11.2°C 99% 0.0 km/h N 1008.8 hPa 11.5 mm
05 mai 06:47 11.2°C 99% 0.0 km/h N 1008.8 hPa 11.5 mm
05 mai 06:46 11.2°C 99% 0.0 km/h N 1008.8 hPa 11.5 mm
05 mai 06:45 11.2°C 99% 0.0 km/h N 1008.8 hPa 11.5 mm
05 mai 06:44 11.2°C 99% 0.0 km/h N 1008.8 hPa 11.5 mm
05 mai 06:43 11.2°C 99% 0.0 km/h N 1008.8 hPa 11.5 mm
05 mai 06:42 11.2°C 99% 0.0 km/h N 1008.8 hPa 11.5 mm
05 mai 06:41 11.2°C 99% 0.0 km/h N 1008.8 hPa 11.5 mm
05 mai 06:40 11.2°C 99% 0.0 km/h N 1008.8 hPa 11.5 mm
05 mai 06:39 11.2°C 99% 0.0 km/h N 1008.8 hPa 11.5 mm
05 mai 06:38 11.2°C 99% 0.0 km/h N 1008.8 hPa 11.5 mm
05 mai 06:37 11.2°C 99% 0.0 km/h N 1008.9 hPa 11.4 mm
05 mai 06:36 11.2°C 99% 0.0 km/h N 1008.9 hPa 11.4 mm
05 mai 06:35 11.2°C 99% 0.0 km/h N 1008.9 hPa 11.4 mm
05 mai 06:34 11.2°C 99% 0.0 km/h N 1008.9 hPa 11.4 mm
05 mai 06:33 11.2°C 99% 0.0 km/h N 1008.9 hPa 11.4 mm
05 mai 06:32 11.2°C 99% 0.0 km/h N 1008.9 hPa 11.4 mm
05 mai 06:31 11.2°C 99% 0.0 km/h N 1008.9 hPa 11.4 mm
05 mai 06:30 11.2°C 99% 0.0 km/h N 1008.9 hPa 11.4 mm
05 mai 06:29 11.2°C 99% 0.0 km/h N 1008.9 hPa 11.4 mm
05 mai 06:28 11.2°C 99% 0.0 km/h N 1008.9 hPa 11.4 mm
05 mai 06:27 11.2°C 99% 0.0 km/h N 1008.9 hPa 11.3 mm
05 mai 06:26 11.2°C 99% 0.0 km/h N 1008.9 hPa 11.3 mm
05 mai 06:25 11.2°C 99% 0.0 km/h N 1008.9 hPa 11.3 mm
05 mai 06:24 11.2°C 99% 0.0 km/h N 1008.9 hPa 11.3 mm
05 mai 06:23 11.2°C 99% 0.0 km/h N 1008.9 hPa 11.3 mm
05 mai 06:22 11.2°C 99% 0.0 km/h N 1008.9 hPa 11.3 mm
05 mai 06:21 11.2°C 99% 0.0 km/h N 1008.9 hPa 11.3 mm
05 mai 06:20 11.2°C 99% 0.0 km/h N 1008.9 hPa 11.3 mm
05 mai 06:19 11.2°C 99% 0.0 km/h N 1008.9 hPa 11.3 mm
05 mai 06:18 11.2°C 99% 0.0 km/h N 1008.9 hPa 11.3 mm
05 mai 06:17 11.2°C 99% 0.0 km/h N 1008.9 hPa 11.1 mm
05 mai 06:16 11.2°C 99% 0.0 km/h N 1008.9 hPa 11.1 mm
05 mai 06:15 11.2°C 99% 0.0 km/h N 1008.9 hPa 11.1 mm
05 mai 06:14 11.2°C 99% 0.0 km/h N 1008.9 hPa 11.1 mm
05 mai 06:13 11.2°C 99% 0.0 km/h N 1008.9 hPa 11.1 mm
05 mai 06:12 11.2°C 99% 0.0 km/h N 1008.9 hPa 11.1 mm
05 mai 06:11 11.2°C 99% 0.0 km/h N 1008.9 hPa 11.1 mm
05 mai 06:10 11.2°C 99% 0.0 km/h N 1008.9 hPa 11.1 mm
05 mai 06:09 11.2°C 99% 0.0 km/h N 1008.9 hPa 11.1 mm
05 mai 06:08 11.2°C 99% 0.0 km/h N 1008.9 hPa 11.1 mm
05 mai 06:07 11.2°C 99% 0.0 km/h N 1009.0 hPa 10.9 mm
05 mai 06:06 11.2°C 99% 0.0 km/h N 1009.0 hPa 10.9 mm
05 mai 06:05 11.2°C 99% 0.0 km/h N 1009.0 hPa 10.9 mm
05 mai 06:04 11.2°C 99% 0.0 km/h N 1009.0 hPa 10.9 mm
05 mai 06:03 11.2°C 99% 0.0 km/h N 1009.0 hPa 10.9 mm
05 mai 06:02 11.2°C 99% 0.0 km/h N 1009.0 hPa 10.9 mm
05 mai 06:01 11.2°C 99% 0.0 km/h N 1009.0 hPa 10.9 mm
05 mai 05:59 11.2°C 99% 0.0 km/h N 1009.0 hPa 10.9 mm
05 mai 05:58 11.2°C 99% 0.0 km/h N 1009.0 hPa 10.9 mm
05 mai 05:57 11.2°C 99% 0.0 km/h N 1009.1 hPa 10.6 mm
05 mai 05:56 11.2°C 99% 0.0 km/h N 1009.1 hPa 10.6 mm
05 mai 05:55 11.2°C 99% 0.0 km/h N 1009.1 hPa 10.6 mm
05 mai 05:54 11.2°C 99% 0.0 km/h N 1009.1 hPa 10.6 mm
05 mai 05:53 11.2°C 99% 0.0 km/h N 1009.1 hPa 10.6 mm
05 mai 05:52 11.2°C 99% 0.0 km/h N 1009.1 hPa 10.6 mm
05 mai 05:51 11.2°C 99% 0.0 km/h N 1009.1 hPa 10.6 mm
05 mai 05:50 11.2°C 99% 0.0 km/h N 1009.1 hPa 10.6 mm
05 mai 05:49 11.2°C 99% 0.0 km/h N 1009.1 hPa 10.6 mm
05 mai 05:48 11.2°C 99% 0.0 km/h N 1009.1 hPa 10.6 mm
05 mai 05:47 11.2°C 99% 0.0 km/h N 1009.1 hPa 10.3 mm
05 mai 05:46 11.2°C 99% 0.0 km/h N 1009.1 hPa 10.3 mm
05 mai 05:45 11.2°C 99% 0.0 km/h N 1009.1 hPa 10.3 mm
05 mai 05:44 11.2°C 99% 0.0 km/h N 1009.1 hPa 10.3 mm
05 mai 05:43 11.2°C 99% 0.0 km/h N 1009.1 hPa 10.3 mm
05 mai 05:42 11.2°C 99% 0.0 km/h N 1009.1 hPa 10.3 mm
05 mai 05:41 11.2°C 99% 0.0 km/h N 1009.1 hPa 10.3 mm
05 mai 05:40 11.2°C 99% 0.0 km/h N 1009.1 hPa 10.3 mm
05 mai 05:39 11.2°C 99% 0.0 km/h N 1009.1 hPa 10.3 mm
05 mai 05:38 11.2°C 99% 0.0 km/h N 1009.1 hPa 10.3 mm
05 mai 05:37 11.2°C 99% 0.0 km/h N 1009.1 hPa 10 mm
05 mai 05:36 11.2°C 99% 0.0 km/h N 1009.1 hPa 10 mm
05 mai 05:35 11.2°C 99% 0.0 km/h N 1009.1 hPa 10 mm
05 mai 05:34 11.2°C 99% 0.0 km/h N 1009.1 hPa 10 mm
05 mai 05:33 11.2°C 99% 0.0 km/h N 1009.1 hPa 10 mm
05 mai 05:32 11.2°C 99% 0.0 km/h N 1009.1 hPa 10 mm
05 mai 05:31 11.2°C 99% 0.0 km/h N 1009.1 hPa 10 mm
05 mai 05:30 11.2°C 99% 0.0 km/h N 1009.1 hPa 10 mm
05 mai 05:29 11.2°C 99% 0.0 km/h N 1009.1 hPa 10 mm
05 mai 05:28 11.2°C 99% 0.0 km/h N 1009.1 hPa 10 mm
05 mai 05:27 11.1°C 99% 0.0 km/h N 1009.1 hPa 9.9 mm
05 mai 05:26 11.1°C 99% 0.0 km/h N 1009.1 hPa 9.9 mm
05 mai 05:25 11.1°C 99% 0.0 km/h N 1009.1 hPa 9.9 mm
05 mai 05:24 11.1°C 99% 0.0 km/h N 1009.1 hPa 9.9 mm
05 mai 05:23 11.1°C 99% 0.0 km/h N 1009.1 hPa 9.9 mm
05 mai 05:22 11.1°C 99% 0.0 km/h N 1009.1 hPa 9.9 mm
05 mai 05:21 11.1°C 99% 0.0 km/h N 1009.1 hPa 9.9 mm
05 mai 05:20 11.1°C 99% 0.0 km/h N 1009.1 hPa 9.9 mm
05 mai 05:19 11.1°C 99% 0.0 km/h N 1009.1 hPa 9.9 mm
05 mai 05:18 11.1°C 99% 0.0 km/h N 1009.1 hPa 9.9 mm
05 mai 05:17 11.2°C 99% 0.0 km/h N 1009.1 hPa 9.9 mm
05 mai 05:16 11.2°C 99% 0.0 km/h N 1009.1 hPa 9.9 mm
05 mai 05:15 11.2°C 99% 0.0 km/h N 1009.1 hPa 9.9 mm
05 mai 05:14 11.2°C 99% 0.0 km/h N 1009.1 hPa 9.9 mm
05 mai 05:13 11.2°C 99% 0.0 km/h N 1009.1 hPa 9.9 mm
05 mai 05:12 11.2°C 99% 0.0 km/h N 1009.1 hPa 9.9 mm
05 mai 05:11 11.2°C 99% 0.0 km/h N 1009.1 hPa 9.9 mm
05 mai 05:10 11.2°C 99% 0.0 km/h N 1009.1 hPa 9.9 mm
05 mai 05:09 11.2°C 99% 0.0 km/h N 1009.1 hPa 9.9 mm
05 mai 05:08 11.2°C 99% 0.0 km/h N 1009.1 hPa 9.9 mm
05 mai 05:07 11.2°C 99% 0.0 km/h N 1009.1 hPa 9.9 mm
05 mai 05:06 11.2°C 99% 0.0 km/h N 1009.2 hPa 9.7 mm
05 mai 05:05 11.2°C 99% 0.0 km/h N 1009.2 hPa 9.7 mm
05 mai 05:04 11.2°C 99% 0.0 km/h N 1009.2 hPa 9.7 mm
05 mai 05:03 11.2°C 99% 0.0 km/h N 1009.2 hPa 9.7 mm
05 mai 05:02 11.2°C 99% 0.0 km/h N 1009.2 hPa 9.7 mm
05 mai 05:01 11.2°C 99% 0.0 km/h N 1009.2 hPa 9.7 mm
05 mai 04:59 11.2°C 99% 0.0 km/h N 1009.2 hPa 9.7 mm
05 mai 04:58 11.2°C 99% 0.0 km/h N 1009.2 hPa 9.7 mm
05 mai 04:57 11.2°C 99% 0.0 km/h N 1009.2 hPa 9.7 mm
05 mai 04:56 11.2°C 99% 0.0 km/h N 1009.4 hPa 9.5 mm
05 mai 04:55 11.2°C 99% 0.0 km/h N 1009.4 hPa 9.5 mm
05 mai 04:54 11.2°C 99% 0.0 km/h N 1009.4 hPa 9.5 mm
05 mai 04:53 11.2°C 99% 0.0 km/h N 1009.4 hPa 9.5 mm
05 mai 04:52 11.2°C 99% 0.0 km/h N 1009.4 hPa 9.5 mm
05 mai 04:51 11.2°C 99% 0.0 km/h N 1009.4 hPa 9.5 mm
05 mai 04:50 11.2°C 99% 0.0 km/h N 1009.4 hPa 9.5 mm
05 mai 04:49 11.2°C 99% 0.0 km/h N 1009.4 hPa 9.5 mm
05 mai 04:48 11.2°C 99% 0.0 km/h N 1009.4 hPa 9.5 mm
05 mai 04:47 11.2°C 99% 0.0 km/h N 1009.4 hPa 9.5 mm
05 mai 04:46 11.2°C 99% 0.0 km/h N 1009.5 hPa 9.3 mm
05 mai 04:45 11.2°C 99% 0.0 km/h N 1009.5 hPa 9.3 mm
05 mai 04:44 11.2°C 99% 0.0 km/h N 1009.5 hPa 9.3 mm
05 mai 04:43 11.2°C 99% 0.0 km/h N 1009.5 hPa 9.3 mm
05 mai 04:42 11.2°C 99% 0.0 km/h N 1009.5 hPa 9.3 mm
05 mai 04:41 11.2°C 99% 0.0 km/h N 1009.5 hPa 9.3 mm
05 mai 04:40 11.2°C 99% 0.0 km/h N 1009.5 hPa 9.3 mm
05 mai 04:39 11.2°C 99% 0.0 km/h N 1009.5 hPa 9.3 mm
05 mai 04:38 11.2°C 99% 0.0 km/h N 1009.5 hPa 9.3 mm
05 mai 04:37 11.2°C 99% 0.0 km/h N 1009.5 hPa 9.3 mm
05 mai 04:36 11.2°C 99% 0.0 km/h N 1009.8 hPa 9 mm
05 mai 04:35 11.2°C 99% 0.0 km/h N 1009.8 hPa 9 mm
05 mai 04:34 11.2°C 99% 0.0 km/h N 1009.8 hPa 9 mm
05 mai 04:33 11.2°C 99% 0.0 km/h N 1009.8 hPa 9 mm
05 mai 04:32 11.2°C 99% 0.0 km/h N 1009.8 hPa 9 mm
05 mai 04:31 11.2°C 99% 0.0 km/h N 1009.8 hPa 9 mm
05 mai 04:30 11.2°C 99% 0.0 km/h N 1009.8 hPa 9 mm
05 mai 04:29 11.2°C 99% 0.0 km/h N 1009.8 hPa 9 mm
05 mai 04:28 11.2°C 99% 0.0 km/h N 1009.8 hPa 9 mm
05 mai 04:27 11.2°C 99% 0.0 km/h N 1009.8 hPa 9 mm
05 mai 04:26 11.2°C 99% 0.0 km/h N 1009.9 hPa 8.6 mm
05 mai 04:25 11.2°C 99% 0.0 km/h N 1009.9 hPa 8.6 mm
05 mai 04:24 11.2°C 99% 0.0 km/h N 1009.9 hPa 8.6 mm
05 mai 04:23 11.2°C 99% 0.0 km/h N 1009.9 hPa 8.6 mm
05 mai 04:22 11.2°C 99% 0.0 km/h N 1009.9 hPa 8.6 mm
05 mai 04:21 11.2°C 99% 0.0 km/h N 1009.9 hPa 8.6 mm
05 mai 04:20 11.2°C 99% 0.0 km/h N 1009.9 hPa 8.6 mm
05 mai 04:19 11.2°C 99% 0.0 km/h N 1009.9 hPa 8.6 mm
05 mai 04:18 11.2°C 99% 0.0 km/h N 1009.9 hPa 8.6 mm
05 mai 04:17 11.2°C 99% 0.0 km/h N 1009.9 hPa 8.6 mm
05 mai 04:16 11.2°C 99% 0.0 km/h N 1010.0 hPa 8.4 mm
05 mai 04:15 11.2°C 99% 0.0 km/h N 1010.0 hPa 8.4 mm
05 mai 04:14 11.2°C 99% 0.0 km/h N 1010.0 hPa 8.4 mm
05 mai 04:13 11.2°C 99% 0.0 km/h N 1010.0 hPa 8.4 mm
05 mai 04:12 11.2°C 99% 0.0 km/h N 1010.0 hPa 8.4 mm
05 mai 04:11 11.2°C 99% 0.0 km/h N 1010.0 hPa 8.4 mm
05 mai 04:10 11.2°C 99% 0.0 km/h N 1010.0 hPa 8.4 mm
05 mai 04:09 11.2°C 99% 0.0 km/h N 1010.0 hPa 8.4 mm
05 mai 04:08 11.2°C 99% 0.0 km/h N 1010.0 hPa 8.4 mm
05 mai 04:07 11.2°C 99% 0.0 km/h N 1010.0 hPa 8.4 mm
05 mai 04:06 11.2°C 99% 0.0 km/h N 1010.0 hPa 8.3 mm
05 mai 04:05 11.2°C 99% 0.0 km/h N 1010.0 hPa 8.3 mm
05 mai 04:04 11.2°C 99% 0.0 km/h N 1010.0 hPa 8.3 mm
05 mai 04:03 11.2°C 99% 0.0 km/h N 1010.0 hPa 8.3 mm
05 mai 04:02 11.2°C 99% 0.0 km/h N 1010.0 hPa 8.3 mm
05 mai 04:01 11.2°C 99% 0.0 km/h N 1010.0 hPa 8.3 mm
05 mai 04:00 11.2°C 99% 0.0 km/h N 1010.0 hPa 8.3 mm
05 mai 03:59 11.2°C 99% 0.0 km/h N 1010.0 hPa 8.3 mm
05 mai 03:58 11.2°C 99% 0.0 km/h N 1010.0 hPa 8.3 mm
05 mai 03:57 11.2°C 99% 0.0 km/h N 1010.0 hPa 8.3 mm
05 mai 03:56 11.2°C 99% 0.0 km/h N 1009.9 hPa 8 mm
05 mai 03:55 11.2°C 99% 0.0 km/h N 1009.9 hPa 8 mm
05 mai 03:54 11.2°C 99% 0.0 km/h N 1009.9 hPa 8 mm
05 mai 03:53 11.2°C 99% 0.0 km/h N 1009.9 hPa 8 mm
05 mai 03:52 11.2°C 99% 0.0 km/h N 1009.9 hPa 8 mm
05 mai 03:51 11.2°C 99% 0.0 km/h N 1009.9 hPa 8 mm
05 mai 03:50 11.2°C 99% 0.0 km/h N 1009.9 hPa 8 mm
05 mai 03:49 11.2°C 99% 0.0 km/h N 1009.9 hPa 8 mm
05 mai 03:48 11.2°C 99% 0.0 km/h N 1009.9 hPa 8 mm
05 mai 03:47 11.2°C 99% 0.0 km/h N 1009.9 hPa 8 mm
05 mai 03:46 11.2°C 99% 0.0 km/h N 1009.9 hPa 7.7 mm
05 mai 03:45 11.2°C 99% 0.0 km/h N 1009.9 hPa 7.7 mm
05 mai 03:44 11.2°C 99% 0.0 km/h N 1009.9 hPa 7.7 mm
05 mai 03:43 11.2°C 99% 0.0 km/h N 1009.9 hPa 7.7 mm
05 mai 03:42 11.2°C 99% 0.0 km/h N 1009.9 hPa 7.7 mm
05 mai 03:41 11.2°C 99% 0.0 km/h N 1009.9 hPa 7.7 mm
05 mai 03:40 11.2°C 99% 0.0 km/h N 1009.9 hPa 7.7 mm
05 mai 03:39 11.2°C 99% 0.0 km/h N 1009.9 hPa 7.7 mm
05 mai 03:38 11.2°C 99% 0.0 km/h N 1009.9 hPa 7.7 mm
05 mai 03:37 11.2°C 99% 0.0 km/h N 1009.9 hPa 7.7 mm
05 mai 03:36 11.2°C 99% 0.0 km/h N 1009.8 hPa 7.3 mm
05 mai 03:35 11.2°C 99% 0.0 km/h N 1009.8 hPa 7.3 mm
05 mai 03:34 11.2°C 99% 0.0 km/h N 1009.8 hPa 7.3 mm
05 mai 03:33 11.2°C 99% 0.0 km/h N 1009.8 hPa 7.3 mm
05 mai 03:32 11.2°C 99% 0.0 km/h N 1009.8 hPa 7.3 mm
05 mai 03:31 11.2°C 99% 0.0 km/h N 1009.8 hPa 7.3 mm
05 mai 03:30 11.2°C 99% 0.0 km/h N 1009.8 hPa 7.3 mm
05 mai 03:29 11.2°C 99% 0.0 km/h N 1009.8 hPa 7.3 mm
05 mai 03:28 11.2°C 99% 0.0 km/h N 1009.8 hPa 7.3 mm
05 mai 03:27 11.2°C 99% 0.0 km/h N 1009.8 hPa 7.3 mm
05 mai 03:26 11.2°C 99% 0.0 km/h N 1009.8 hPa 7.3 mm
05 mai 03:25 11.2°C 99% 0.0 km/h N 1010.0 hPa 6.9 mm
05 mai 03:24 11.2°C 99% 0.0 km/h N 1010.0 hPa 6.9 mm
05 mai 03:23 11.2°C 99% 0.0 km/h N 1010.0 hPa 6.9 mm
05 mai 03:22 11.2°C 99% 0.0 km/h N 1010.0 hPa 6.9 mm
05 mai 03:21 11.2°C 99% 0.0 km/h N 1010.0 hPa 6.9 mm
05 mai 03:20 11.2°C 99% 0.0 km/h N 1010.0 hPa 6.9 mm
05 mai 03:19 11.2°C 99% 0.0 km/h N 1010.0 hPa 6.9 mm
05 mai 03:18 11.2°C 99% 0.0 km/h N 1010.0 hPa 6.9 mm
05 mai 03:17 11.2°C 99% 0.0 km/h N 1010.0 hPa 6.9 mm
05 mai 03:16 11.2°C 99% 0.0 km/h N 1010.0 hPa 6.9 mm
05 mai 03:15 11.2°C 99% 0.0 km/h N 1010.2 hPa 6.3 mm
05 mai 03:14 11.2°C 99% 0.0 km/h N 1010.2 hPa 6.3 mm
05 mai 03:13 11.2°C 99% 0.0 km/h N 1010.2 hPa 6.3 mm
05 mai 03:12 11.2°C 99% 0.0 km/h N 1010.2 hPa 6.3 mm
05 mai 03:11 11.2°C 99% 0.0 km/h N 1010.2 hPa 6.3 mm
05 mai 03:10 11.2°C 99% 0.0 km/h N 1010.2 hPa 6.3 mm
05 mai 03:09 11.2°C 99% 0.0 km/h N 1010.2 hPa 6.3 mm
05 mai 03:08 11.2°C 99% 0.0 km/h N 1010.2 hPa 6.3 mm
05 mai 03:07 11.2°C 99% 0.0 km/h N 1010.2 hPa 6.3 mm
05 mai 03:06 11.2°C 99% 0.0 km/h N 1010.2 hPa 6.3 mm
05 mai 03:05 11.3°C 99% 0.0 km/h N 1010.4 hPa 5.8 mm
05 mai 03:04 11.3°C 99% 0.0 km/h N 1010.4 hPa 5.8 mm
05 mai 03:03 11.3°C 99% 0.0 km/h N 1010.4 hPa 5.8 mm
05 mai 03:02 11.3°C 99% 0.0 km/h N 1010.4 hPa 5.8 mm
05 mai 03:01 11.3°C 99% 0.0 km/h N 1010.4 hPa 5.8 mm
05 mai 03:00 11.3°C 99% 0.0 km/h N 1010.4 hPa 5.8 mm
05 mai 02:59 11.3°C 99% 0.0 km/h N 1010.4 hPa 5.8 mm
05 mai 02:58 11.3°C 99% 0.0 km/h N 1010.4 hPa 5.8 mm
05 mai 02:57 11.3°C 99% 0.0 km/h N 1010.4 hPa 5.8 mm
05 mai 02:56 11.3°C 99% 0.0 km/h N 1010.4 hPa 5.8 mm
05 mai 02:55 11.3°C 99% 0.0 km/h N 1010.5 hPa 5.5 mm
05 mai 02:54 11.3°C 99% 0.0 km/h N 1010.5 hPa 5.5 mm
05 mai 02:53 11.3°C 99% 0.0 km/h N 1010.5 hPa 5.5 mm
05 mai 02:52 11.3°C 99% 0.0 km/h N 1010.5 hPa 5.5 mm
05 mai 02:51 11.3°C 99% 0.0 km/h N 1010.5 hPa 5.5 mm
05 mai 02:50 11.3°C 99% 0.0 km/h N 1010.5 hPa 5.5 mm
05 mai 02:49 11.3°C 99% 0.0 km/h N 1010.5 hPa 5.5 mm
05 mai 02:48 11.3°C 99% 0.0 km/h N 1010.5 hPa 5.5 mm
05 mai 02:47 11.3°C 99% 0.0 km/h N 1010.5 hPa 5.5 mm
05 mai 02:46 11.3°C 99% 0.0 km/h N 1010.5 hPa 5.5 mm
05 mai 02:45 11.3°C 99% 0.0 km/h N 1010.5 hPa 5.3 mm
05 mai 02:44 11.3°C 99% 0.0 km/h N 1010.5 hPa 5.3 mm
05 mai 02:43 11.3°C 99% 0.0 km/h N 1010.5 hPa 5.3 mm
05 mai 02:42 11.3°C 99% 0.0 km/h N 1010.5 hPa 5.3 mm
05 mai 02:41 11.3°C 99% 0.0 km/h N 1010.5 hPa 5.3 mm
05 mai 02:40 11.3°C 99% 0.0 km/h N 1010.5 hPa 5.3 mm
05 mai 02:39 11.3°C 99% 0.0 km/h N 1010.5 hPa 5.3 mm
05 mai 02:38 11.3°C 99% 0.0 km/h N 1010.5 hPa 5.3 mm
05 mai 02:37 11.3°C 99% 0.0 km/h N 1010.5 hPa 5.3 mm
05 mai 02:36 11.3°C 99% 0.0 km/h N 1010.5 hPa 5.3 mm
05 mai 02:35 11.3°C 99% 0.0 km/h N 1010.4 hPa 5.2 mm
05 mai 02:34 11.3°C 99% 0.0 km/h N 1010.4 hPa 5.2 mm
05 mai 02:33 11.3°C 99% 0.0 km/h N 1010.4 hPa 5.2 mm
05 mai 02:32 11.3°C 99% 0.0 km/h N 1010.4 hPa 5.2 mm
05 mai 02:31 11.3°C 99% 0.0 km/h N 1010.4 hPa 5.2 mm
05 mai 02:30 11.3°C 99% 0.0 km/h N 1010.4 hPa 5.2 mm
05 mai 02:29 11.3°C 99% 0.0 km/h N 1010.4 hPa 5.2 mm
05 mai 02:28 11.3°C 99% 0.0 km/h N 1010.4 hPa 5.2 mm
05 mai 02:27 11.3°C 99% 0.0 km/h N 1010.4 hPa 5.2 mm
05 mai 02:26 11.3°C 99% 0.0 km/h N 1010.4 hPa 5.2 mm
05 mai 02:25 11.3°C 99% 0.0 km/h N 1010.6 hPa 5.1 mm
05 mai 02:24 11.3°C 99% 0.0 km/h N 1010.6 hPa 5.1 mm
05 mai 02:23 11.3°C 99% 0.0 km/h N 1010.6 hPa 5.1 mm
05 mai 02:22 11.3°C 99% 0.0 km/h N 1010.6 hPa 5.1 mm
05 mai 02:21 11.3°C 99% 0.0 km/h N 1010.6 hPa 5.1 mm
05 mai 02:20 11.3°C 99% 0.0 km/h N 1010.6 hPa 5.1 mm
05 mai 02:19 11.3°C 99% 0.0 km/h N 1010.6 hPa 5.1 mm
05 mai 02:18 11.3°C 99% 0.0 km/h N 1010.6 hPa 5.1 mm
05 mai 02:17 11.3°C 99% 0.0 km/h N 1010.6 hPa 5.1 mm
05 mai 02:16 11.3°C 99% 0.0 km/h N 1010.6 hPa 5.1 mm
05 mai 02:15 11.3°C 99% 0.0 km/h N 1010.8 hPa 4.8 mm
05 mai 02:14 11.3°C 99% 0.0 km/h N 1010.8 hPa 4.8 mm
05 mai 02:13 11.3°C 99% 0.0 km/h N 1010.8 hPa 4.8 mm
05 mai 02:12 11.3°C 99% 0.0 km/h N 1010.8 hPa 4.8 mm
05 mai 02:11 11.3°C 99% 0.0 km/h N 1010.8 hPa 4.8 mm
05 mai 02:10 11.3°C 99% 0.0 km/h N 1010.8 hPa 4.8 mm
05 mai 02:09 11.3°C 99% 0.0 km/h N 1010.8 hPa 4.8 mm
05 mai 02:08 11.3°C 99% 0.0 km/h N 1010.8 hPa 4.8 mm
05 mai 02:07 11.3°C 99% 0.0 km/h N 1010.8 hPa 4.8 mm
05 mai 02:06 11.3°C 99% 0.0 km/h N 1010.8 hPa 4.8 mm
05 mai 02:05 11.3°C 99% 0.0 km/h N 1010.9 hPa 4.8 mm
05 mai 02:04 11.3°C 99% 0.0 km/h N 1010.9 hPa 4.8 mm
05 mai 02:03 11.3°C 99% 0.0 km/h N 1010.9 hPa 4.8 mm
05 mai 02:02 11.3°C 99% 0.0 km/h N 1010.9 hPa 4.8 mm
05 mai 02:01 11.3°C 99% 0.0 km/h N 1010.9 hPa 4.8 mm
05 mai 02:00 11.3°C 99% 0.0 km/h N 1010.9 hPa 4.8 mm
05 mai 01:59 11.3°C 99% 0.0 km/h N 1010.9 hPa 4.8 mm
05 mai 01:58 11.3°C 99% 0.0 km/h N 1010.9 hPa 4.8 mm
05 mai 01:57 11.3°C 99% 0.0 km/h N 1010.9 hPa 4.8 mm
05 mai 01:56 11.3°C 99% 0.0 km/h N 1010.9 hPa 4.8 mm
05 mai 01:55 11.3°C 99% 0.0 km/h N 1010.9 hPa 4.7 mm
05 mai 01:54 11.3°C 99% 0.0 km/h N 1010.9 hPa 4.7 mm
05 mai 01:53 11.3°C 99% 0.0 km/h N 1010.9 hPa 4.7 mm
05 mai 01:52 11.3°C 99% 0.0 km/h N 1010.9 hPa 4.7 mm
05 mai 01:51 11.3°C 99% 0.0 km/h N 1010.9 hPa 4.7 mm
05 mai 01:50 11.3°C 99% 0.0 km/h N 1010.9 hPa 4.7 mm
05 mai 01:49 11.3°C 99% 0.0 km/h N 1010.9 hPa 4.7 mm
05 mai 01:48 11.3°C 99% 0.0 km/h N 1010.9 hPa 4.7 mm
05 mai 01:47 11.3°C 99% 0.0 km/h N 1010.9 hPa 4.7 mm
05 mai 01:46 11.3°C 99% 0.0 km/h N 1010.9 hPa 4.7 mm
05 mai 01:45 11.3°C 99% 0.0 km/h N 1010.9 hPa 4.7 mm
05 mai 01:44 11.3°C 99% 0.0 km/h N 1011.2 hPa 4.5 mm
05 mai 01:43 11.3°C 99% 0.0 km/h N 1011.2 hPa 4.5 mm
05 mai 01:42 11.3°C 99% 0.0 km/h N 1011.2 hPa 4.5 mm
05 mai 01:41 11.3°C 99% 0.0 km/h N 1011.2 hPa 4.5 mm
05 mai 01:40 11.3°C 99% 0.0 km/h N 1011.2 hPa 4.5 mm
05 mai 01:39 11.3°C 99% 0.0 km/h N 1011.2 hPa 4.5 mm
05 mai 01:38 11.3°C 99% 0.0 km/h N 1011.2 hPa 4.5 mm
05 mai 01:37 11.3°C 99% 0.0 km/h N 1011.2 hPa 4.5 mm
05 mai 01:36 11.3°C 99% 0.0 km/h N 1011.2 hPa 4.5 mm
05 mai 01:35 11.3°C 99% 0.0 km/h N 1011.2 hPa 4.5 mm
05 mai 01:34 11.4°C 99% 0.0 km/h N 1011.4 hPa 4 mm
05 mai 01:33 11.4°C 99% 0.0 km/h N 1011.4 hPa 4 mm
05 mai 01:32 11.4°C 99% 0.0 km/h N 1011.4 hPa 4 mm
05 mai 01:31 11.4°C 99% 0.0 km/h N 1011.4 hPa 4 mm
05 mai 01:30 11.4°C 99% 0.0 km/h N 1011.4 hPa 4 mm
05 mai 01:29 11.4°C 99% 0.0 km/h N 1011.4 hPa 4 mm
05 mai 01:28 11.4°C 99% 0.0 km/h N 1011.4 hPa 4 mm
05 mai 01:27 11.4°C 99% 0.0 km/h N 1011.4 hPa 4 mm
05 mai 01:26 11.4°C 99% 0.0 km/h N 1011.4 hPa 4 mm
05 mai 01:25 11.4°C 99% 0.0 km/h N 1011.4 hPa 4 mm
05 mai 01:24 11.4°C 98% 0.0 km/h N 1011.4 hPa 3.4 mm
05 mai 01:23 11.4°C 98% 0.0 km/h N 1011.4 hPa 3.4 mm
05 mai 01:22 11.4°C 98% 0.0 km/h N 1011.4 hPa 3.4 mm
05 mai 01:21 11.4°C 98% 0.0 km/h N 1011.4 hPa 3.4 mm
05 mai 01:20 11.4°C 98% 0.0 km/h N 1011.4 hPa 3.4 mm
05 mai 01:19 11.4°C 98% 0.0 km/h N 1011.4 hPa 3.4 mm
05 mai 01:18 11.4°C 98% 0.0 km/h N 1011.4 hPa 3.4 mm
05 mai 01:17 11.4°C 98% 0.0 km/h N 1011.4 hPa 3.4 mm
05 mai 01:16 11.4°C 98% 0.0 km/h N 1011.4 hPa 3.4 mm
05 mai 01:15 11.4°C 98% 0.0 km/h N 1011.4 hPa 3.4 mm
05 mai 01:14 11.4°C 99% 0.0 km/h N 1011.4 hPa 2.5 mm
05 mai 01:13 11.4°C 99% 0.0 km/h N 1011.4 hPa 2.5 mm
05 mai 01:12 11.4°C 99% 0.0 km/h N 1011.4 hPa 2.5 mm
05 mai 01:11 11.4°C 99% 0.0 km/h N 1011.4 hPa 2.5 mm
05 mai 01:10 11.4°C 99% 0.0 km/h N 1011.4 hPa 2.5 mm
05 mai 01:09 11.4°C 99% 0.0 km/h N 1011.4 hPa 2.5 mm
05 mai 01:08 11.4°C 99% 0.0 km/h N 1011.4 hPa 2.5 mm
05 mai 01:07 11.4°C 99% 0.0 km/h N 1011.4 hPa 2.5 mm
05 mai 01:06 11.4°C 99% 0.0 km/h N 1011.4 hPa 2.5 mm
05 mai 01:05 11.4°C 99% 0.0 km/h N 1011.4 hPa 2.5 mm
05 mai 01:04 11.5°C 99% 0.0 km/h N 1011.3 hPa 2.2 mm
05 mai 01:03 11.5°C 99% 0.0 km/h N 1011.3 hPa 2.2 mm
05 mai 01:02 11.5°C 99% 0.0 km/h N 1011.3 hPa 2.2 mm
05 mai 01:01 11.5°C 99% 0.0 km/h N 1011.3 hPa 2.2 mm
05 mai 01:00 11.5°C 99% 0.0 km/h N 1011.3 hPa 2.2 mm
05 mai 00:59 11.5°C 99% 0.0 km/h N 1011.3 hPa 2.2 mm
05 mai 00:58 11.5°C 99% 0.0 km/h N 1011.3 hPa 2.2 mm
05 mai 00:57 11.5°C 99% 0.0 km/h N 1011.3 hPa 2.2 mm
05 mai 00:56 11.5°C 99% 0.0 km/h N 1011.3 hPa 2.2 mm
05 mai 00:55 11.5°C 99% 0.0 km/h N 1011.3 hPa 2.2 mm
05 mai 00:54 11.4°C 99% 0.0 km/h N 1011.3 hPa 1.8 mm
05 mai 00:53 11.4°C 99% 0.0 km/h N 1011.3 hPa 1.8 mm
05 mai 00:52 11.4°C 99% 0.0 km/h N 1011.3 hPa 1.8 mm
05 mai 00:51 11.4°C 99% 0.0 km/h N 1011.3 hPa 1.8 mm
05 mai 00:50 11.4°C 99% 0.0 km/h N 1011.3 hPa 1.8 mm
05 mai 00:49 11.4°C 99% 0.0 km/h N 1011.3 hPa 1.8 mm
05 mai 00:48 11.4°C 99% 0.0 km/h N 1011.3 hPa 1.8 mm
05 mai 00:47 11.4°C 99% 0.0 km/h N 1011.3 hPa 1.8 mm
05 mai 00:46 11.4°C 99% 0.0 km/h N 1011.3 hPa 1.8 mm
05 mai 00:45 11.4°C 99% 0.0 km/h N 1011.3 hPa 1.8 mm
05 mai 00:44 11.5°C 99% 0.0 km/h N 1011.5 hPa 1.4 mm
05 mai 00:43 11.5°C 99% 0.0 km/h N 1011.5 hPa 1.4 mm
05 mai 00:42 11.5°C 99% 0.0 km/h N 1011.5 hPa 1.4 mm
05 mai 00:41 11.5°C 99% 0.0 km/h N 1011.5 hPa 1.4 mm
05 mai 00:40 11.5°C 99% 0.0 km/h N 1011.5 hPa 1.4 mm
05 mai 00:39 11.5°C 99% 0.0 km/h N 1011.5 hPa 1.4 mm
05 mai 00:38 11.5°C 99% 0.0 km/h N 1011.5 hPa 1.4 mm
05 mai 00:37 11.5°C 99% 0.0 km/h N 1011.5 hPa 1.4 mm
05 mai 00:36 11.5°C 99% 0.0 km/h N 1011.5 hPa 1.4 mm
05 mai 00:35 11.5°C 99% 0.0 km/h N 1011.5 hPa 1.4 mm
05 mai 00:34 11.5°C 98% 0.0 km/h N 1011.5 hPa 0.8 mm
05 mai 00:33 11.5°C 98% 0.0 km/h N 1011.5 hPa 0.8 mm
05 mai 00:32 11.5°C 98% 0.0 km/h N 1011.5 hPa 0.8 mm
05 mai 00:31 11.5°C 98% 0.0 km/h N 1011.5 hPa 0.8 mm
05 mai 00:30 11.5°C 98% 0.0 km/h N 1011.5 hPa 0.8 mm
05 mai 00:29 11.5°C 98% 0.0 km/h N 1011.5 hPa 0.8 mm
05 mai 00:28 11.5°C 98% 0.0 km/h N 1011.5 hPa 0.8 mm
05 mai 00:27 11.5°C 98% 0.0 km/h N 1011.5 hPa 0.8 mm
05 mai 00:26 11.5°C 98% 0.0 km/h N 1011.5 hPa 0.8 mm
05 mai 00:25 11.5°C 98% 0.0 km/h N 1011.5 hPa 0.8 mm
05 mai 00:24 11.4°C 98% 0.0 km/h N 1011.5 hPa 0.5 mm
05 mai 00:23 11.4°C 98% 0.0 km/h N 1011.5 hPa 0.5 mm
05 mai 00:22 11.4°C 98% 0.0 km/h N 1011.5 hPa 0.5 mm
05 mai 00:21 11.4°C 98% 0.0 km/h N 1011.5 hPa 0.5 mm
05 mai 00:20 11.4°C 98% 0.0 km/h N 1011.5 hPa 0.5 mm
05 mai 00:19 11.4°C 98% 0.0 km/h N 1011.5 hPa 0.5 mm
05 mai 00:18 11.4°C 98% 0.0 km/h N 1011.5 hPa 0.5 mm
05 mai 00:17 11.4°C 98% 0.0 km/h N 1011.5 hPa 0.5 mm
05 mai 00:16 11.4°C 98% 0.0 km/h N 1011.5 hPa 0.5 mm
05 mai 00:15 11.4°C 98% 0.0 km/h N 1011.5 hPa 0.5 mm
100 dernières valeurs pluie sur 2 semaines
Date pluie
06 mai 09:55 16.5 mm
06 mai 09:54 16.5 mm
06 mai 09:53 16.5 mm
06 mai 09:52 16.5 mm
06 mai 09:51 16.5 mm
06 mai 09:50 16.5 mm
06 mai 09:49 16.2 mm
06 mai 09:48 16.2 mm
06 mai 09:47 16.2 mm
06 mai 09:46 16.2 mm
06 mai 09:45 16.2 mm
06 mai 09:44 16.2 mm
06 mai 09:43 16.2 mm
06 mai 09:42 16.2 mm
06 mai 09:41 16.2 mm
06 mai 09:40 16.2 mm
06 mai 09:39 15.5 mm
06 mai 09:38 15.5 mm
06 mai 09:37 15.5 mm
06 mai 09:36 15.5 mm
06 mai 09:35 15.5 mm
06 mai 09:34 15.5 mm
06 mai 09:33 15.5 mm
06 mai 09:32 15.5 mm
06 mai 09:31 15.5 mm
06 mai 09:30 15.5 mm
06 mai 09:29 15.5 mm
06 mai 09:28 15.2 mm
06 mai 09:27 15.2 mm
06 mai 09:26 15.2 mm
06 mai 09:25 15.2 mm
06 mai 09:24 15.2 mm
06 mai 09:23 15.2 mm
06 mai 09:22 15.2 mm
06 mai 09:21 15.2 mm
06 mai 09:20 15.2 mm
06 mai 09:19 15.2 mm
06 mai 09:18 14.9 mm
06 mai 09:17 14.9 mm
06 mai 09:16 14.9 mm
06 mai 09:15 14.9 mm
06 mai 09:14 14.9 mm
06 mai 09:13 14.9 mm
06 mai 09:12 14.9 mm
06 mai 09:11 14.9 mm
06 mai 09:10 14.9 mm
06 mai 09:09 14.9 mm
06 mai 09:08 14.7 mm
06 mai 09:07 14.7 mm
06 mai 09:06 14.7 mm
06 mai 09:05 14.7 mm
06 mai 09:04 14.7 mm
06 mai 09:03 14.7 mm
06 mai 09:02 14.7 mm
06 mai 09:01 14.7 mm
06 mai 08:59 14.7 mm
06 mai 08:58 14.4 mm
06 mai 08:57 14.4 mm
06 mai 08:56 14.4 mm
06 mai 08:55 14.4 mm
06 mai 08:54 14.4 mm
06 mai 08:53 14.4 mm
06 mai 08:52 14.4 mm
06 mai 08:51 14.4 mm
06 mai 08:50 14.4 mm
06 mai 08:49 14.4 mm
06 mai 08:48 14.2 mm
06 mai 08:47 14.2 mm
06 mai 08:46 14.2 mm
06 mai 08:45 14.2 mm
06 mai 08:44 14.2 mm
06 mai 08:43 14.2 mm
06 mai 08:42 14.2 mm
06 mai 08:41 14.2 mm
06 mai 08:40 14.2 mm
06 mai 08:39 14.2 mm
06 mai 08:38 14.1 mm
06 mai 08:37 14.1 mm
06 mai 08:36 14.1 mm
06 mai 08:35 14.1 mm
06 mai 08:34 14.1 mm
06 mai 08:33 14.1 mm
06 mai 08:32 14.1 mm
06 mai 08:31 14.1 mm
06 mai 08:30 14.1 mm
06 mai 08:29 14.1 mm
06 mai 08:28 13.8 mm
06 mai 08:27 13.8 mm
06 mai 08:26 13.8 mm
06 mai 08:25 13.8 mm
06 mai 08:24 13.8 mm
06 mai 08:23 13.8 mm
06 mai 08:22 13.8 mm
06 mai 08:21 13.8 mm
06 mai 08:20 13.8 mm
06 mai 08:19 13.8 mm
06 mai 08:18 13 mm
06 mai 08:17 13 mm
06 mai 08:16 13 mm
06 mai 08:15 13 mm